<?xml version="1.0" encoding="UTF-8" standalone="no" ?><gpx xmlns="http://www.topografix.com/GPX/1/1" xmlns:gpxx="http://www.garmin.com/xmlschemas/GpxExtensions/v3" xmlns:wptx1="http://www.garmin.com/xmlschemas/WaypointExtension/v1" xmlns:gpxtpx="http://www.garmin.com/xmlschemas/TrackPointExtension/v1" creator="GuideVTT.com" version="1.1" xmlns:xsi="http://www.w3.org/2001/XMLSchema-instance" xsi:schemaLocation="http://www.topografix.com/GPX/1/1 http://www.topografix.com/GPX/1/1/gpx.xsd http://www.garmin.com/xmlschemas/GpxExtensions/v3 http://www8.garmin.com/xmlschemas/GpxExtensionsv3.xsd http://www.garmin.com/xmlschemas/WaypointExtension/v1 http://www8.garmin.com/xmlschemas/WaypointExtensionv1.xsd http://www.garmin.com/xmlschemas/TrackPointExtension/v1 http://www.garmin.com/xmlschemas/TrackPointExtensionv1.xsd">
<metadata><link href="http://www.garmin.com"><text>Garmin International</text></link><time>2013-06-22T15:13:50Z</time></metadata>
<trk><name>rp2025-26.gpx</name><extensions><gpxx:TrackExtension><gpxx:DisplayColor>Cyan</gpxx:DisplayColor></gpxx:TrackExtension></extensions><trkseg>
<trkpt lat="46.21084" lon="7.43807"><ele></ele><time>2025-9-12T3:32:18Z</time></trkpt>
<trkpt lat="46.21092" lon="7.43804"><ele></ele><time>2025-9-12T3:32:21Z</time></trkpt>
<trkpt lat="46.21099" lon="7.43794"><ele></ele><time>2025-9-12T3:32:24Z</time></trkpt>
<trkpt lat="46.21099" lon="7.43791"><ele></ele><time>2025-9-12T3:32:27Z</time></trkpt>
<trkpt lat="46.21098" lon="7.4379"><ele></ele><time>2025-9-12T3:32:30Z</time></trkpt>
<trkpt lat="46.21096" lon="7.43791"><ele></ele><time>2025-9-12T3:32:33Z</time></trkpt>
<trkpt lat="46.21094" lon="7.43792"><ele></ele><time>2025-9-12T3:32:36Z</time></trkpt>
<trkpt lat="46.21085" lon="7.43794"><ele></ele><time>2025-9-12T3:32:39Z</time></trkpt>
<trkpt lat="46.21072" lon="7.43803"><ele></ele><time>2025-9-12T3:32:42Z</time></trkpt>
<trkpt lat="46.21066" lon="7.43806"><ele></ele><time>2025-9-12T3:32:45Z</time></trkpt>
<trkpt lat="46.21053" lon="7.43813"><ele></ele><time>2025-9-12T3:32:48Z</time></trkpt>
<trkpt lat="46.21032" lon="7.43821"><ele></ele><time>2025-9-12T3:32:51Z</time></trkpt>
<trkpt lat="46.21016" lon="7.43824"><ele></ele><time>2025-9-12T3:32:54Z</time></trkpt>
<trkpt lat="46.21001" lon="7.43825"><ele></ele><time>2025-9-12T3:32:57Z</time></trkpt>
<trkpt lat="46.20993" lon="7.43824"><ele></ele><time>2025-9-12T3:33:0Z</time></trkpt>
<trkpt lat="46.20985" lon="7.43822"><ele></ele><time>2025-9-12T3:33:3Z</time></trkpt>
<trkpt lat="46.20969" lon="7.43816"><ele></ele><time>2025-9-12T3:33:6Z</time></trkpt>
<trkpt lat="46.20952" lon="7.43809"><ele></ele><time>2025-9-12T3:33:9Z</time></trkpt>
<trkpt lat="46.20935" lon="7.438"><ele></ele><time>2025-9-12T3:33:12Z</time></trkpt>
<trkpt lat="46.20917" lon="7.43793"><ele></ele><time>2025-9-12T3:33:15Z</time></trkpt>
<trkpt lat="46.20908" lon="7.43791"><ele></ele><time>2025-9-12T3:33:18Z</time></trkpt>
<trkpt lat="46.20899" lon="7.43791"><ele></ele><time>2025-9-12T3:33:21Z</time></trkpt>
<trkpt lat="46.20879" lon="7.4379"><ele></ele><time>2025-9-12T3:33:24Z</time></trkpt>
<trkpt lat="46.20859" lon="7.43785"><ele></ele><time>2025-9-12T3:33:27Z</time></trkpt>
<trkpt lat="46.20852" lon="7.43777"><ele></ele><time>2025-9-12T3:33:30Z</time></trkpt>
<trkpt lat="46.20847" lon="7.43767"><ele></ele><time>2025-9-12T3:33:33Z</time></trkpt>
<trkpt lat="46.20844" lon="7.43755"><ele></ele><time>2025-9-12T3:33:36Z</time></trkpt>
<trkpt lat="46.20841" lon="7.43743"><ele></ele><time>2025-9-12T3:33:39Z</time></trkpt>
<trkpt lat="46.20834" lon="7.43718"><ele></ele><time>2025-9-12T3:33:42Z</time></trkpt>
<trkpt lat="46.20828" lon="7.43708"><ele></ele><time>2025-9-12T3:33:45Z</time></trkpt>
<trkpt lat="46.20822" lon="7.43698"><ele></ele><time>2025-9-12T3:33:48Z</time></trkpt>
<trkpt lat="46.20807" lon="7.43685"><ele></ele><time>2025-9-12T3:33:51Z</time></trkpt>
<trkpt lat="46.20789" lon="7.43677"><ele></ele><time>2025-9-12T3:33:54Z</time></trkpt>
<trkpt lat="46.2077" lon="7.43667"><ele></ele><time>2025-9-12T3:33:57Z</time></trkpt>
<trkpt lat="46.20752" lon="7.43651"><ele></ele><time>2025-9-12T3:34:0Z</time></trkpt>
<trkpt lat="46.20745" lon="7.43641"><ele></ele><time>2025-9-12T3:34:3Z</time></trkpt>
<trkpt lat="46.20738" lon="7.43629"><ele></ele><time>2025-9-12T3:34:6Z</time></trkpt>
<trkpt lat="46.20726" lon="7.43606"><ele></ele><time>2025-9-12T3:34:9Z</time></trkpt>
<trkpt lat="46.2072" lon="7.43595"><ele></ele><time>2025-9-12T3:34:12Z</time></trkpt>
<trkpt lat="46.20712" lon="7.43585"><ele></ele><time>2025-9-12T3:34:15Z</time></trkpt>
<trkpt lat="46.20695" lon="7.43565"><ele></ele><time>2025-9-12T3:34:18Z</time></trkpt>
<trkpt lat="46.20687" lon="7.43555"><ele></ele><time>2025-9-12T3:34:21Z</time></trkpt>
<trkpt lat="46.20678" lon="7.43545"><ele></ele><time>2025-9-12T3:34:24Z</time></trkpt>
<trkpt lat="46.20661" lon="7.43524"><ele></ele><time>2025-9-12T3:34:27Z</time></trkpt>
<trkpt lat="46.20644" lon="7.43502"><ele></ele><time>2025-9-12T3:34:30Z</time></trkpt>
<trkpt lat="46.20635" lon="7.4349"><ele></ele><time>2025-9-12T3:34:33Z</time></trkpt>
<trkpt lat="46.20628" lon="7.43477"><ele></ele><time>2025-9-12T3:34:36Z</time></trkpt>
<trkpt lat="46.20621" lon="7.43463"><ele></ele><time>2025-9-12T3:34:39Z</time></trkpt>
<trkpt lat="46.20614" lon="7.43449"><ele></ele><time>2025-9-12T3:34:42Z</time></trkpt>
<trkpt lat="46.20608" lon="7.43436"><ele></ele><time>2025-9-12T3:34:45Z</time></trkpt>
<trkpt lat="46.20601" lon="7.43425"><ele></ele><time>2025-9-12T3:34:48Z</time></trkpt>
<trkpt lat="46.20593" lon="7.43414"><ele></ele><time>2025-9-12T3:34:51Z</time></trkpt>
<trkpt lat="46.20584" lon="7.43406"><ele></ele><time>2025-9-12T3:34:54Z</time></trkpt>
<trkpt lat="46.20574" lon="7.434"><ele></ele><time>2025-9-12T3:34:57Z</time></trkpt>
<trkpt lat="46.20563" lon="7.43395"><ele></ele><time>2025-9-12T3:35:0Z</time></trkpt>
<trkpt lat="46.20543" lon="7.43387"><ele></ele><time>2025-9-12T3:35:3Z</time></trkpt>
<trkpt lat="46.20532" lon="7.43383"><ele></ele><time>2025-9-12T3:35:6Z</time></trkpt>
<trkpt lat="46.20522" lon="7.43378"><ele></ele><time>2025-9-12T3:35:9Z</time></trkpt>
<trkpt lat="46.20512" lon="7.4337"><ele></ele><time>2025-9-12T3:35:12Z</time></trkpt>
<trkpt lat="46.20503" lon="7.43361"><ele></ele><time>2025-9-12T3:35:15Z</time></trkpt>
<trkpt lat="46.20495" lon="7.43351"><ele></ele><time>2025-9-12T3:35:18Z</time></trkpt>
<trkpt lat="46.20486" lon="7.43341"><ele></ele><time>2025-9-12T3:35:21Z</time></trkpt>
<trkpt lat="46.20469" lon="7.43317"><ele></ele><time>2025-9-12T3:35:24Z</time></trkpt>
<trkpt lat="46.20461" lon="7.43305"><ele></ele><time>2025-9-12T3:35:27Z</time></trkpt>
<trkpt lat="46.20452" lon="7.43293"><ele></ele><time>2025-9-12T3:35:30Z</time></trkpt>
<trkpt lat="46.20435" lon="7.43274"><ele></ele><time>2025-9-12T3:35:33Z</time></trkpt>
<trkpt lat="46.20426" lon="7.43269"><ele></ele><time>2025-9-12T3:35:36Z</time></trkpt>
<trkpt lat="46.20417" lon="7.43266"><ele></ele><time>2025-9-12T3:35:39Z</time></trkpt>
<trkpt lat="46.20401" lon="7.4326"><ele></ele><time>2025-9-12T3:35:42Z</time></trkpt>
<trkpt lat="46.20397" lon="7.43243"><ele></ele><time>2025-9-12T3:35:45Z</time></trkpt>
<trkpt lat="46.20401" lon="7.43238"><ele></ele><time>2025-9-12T3:35:48Z</time></trkpt>
<trkpt lat="46.20407" lon="7.43237"><ele></ele><time>2025-9-12T3:35:51Z</time></trkpt>
<trkpt lat="46.20419" lon="7.43244"><ele></ele><time>2025-9-12T3:35:54Z</time></trkpt>
<trkpt lat="46.20425" lon="7.43248"><ele></ele><time>2025-9-12T3:35:57Z</time></trkpt>
<trkpt lat="46.20431" lon="7.43251"><ele></ele><time>2025-9-12T3:36:0Z</time></trkpt>
<trkpt lat="46.20446" lon="7.43259"><ele></ele><time>2025-9-12T3:36:3Z</time></trkpt>
<trkpt lat="46.20455" lon="7.43264"><ele></ele><time>2025-9-12T3:36:6Z</time></trkpt>
<trkpt lat="46.20463" lon="7.43268"><ele></ele><time>2025-9-12T3:36:9Z</time></trkpt>
<trkpt lat="46.20472" lon="7.43273"><ele></ele><time>2025-9-12T3:36:12Z</time></trkpt>
<trkpt lat="46.20481" lon="7.43278"><ele></ele><time>2025-9-12T3:36:15Z</time></trkpt>
<trkpt lat="46.205" lon="7.43283"><ele></ele><time>2025-9-12T3:36:18Z</time></trkpt>
<trkpt lat="46.2051" lon="7.43283"><ele></ele><time>2025-9-12T3:36:21Z</time></trkpt>
<trkpt lat="46.20521" lon="7.4328"><ele></ele><time>2025-9-12T3:36:24Z</time></trkpt>
<trkpt lat="46.20531" lon="7.43278"><ele></ele><time>2025-9-12T3:36:27Z</time></trkpt>
<trkpt lat="46.20541" lon="7.43278"><ele></ele><time>2025-9-12T3:36:30Z</time></trkpt>
<trkpt lat="46.20552" lon="7.4328"><ele></ele><time>2025-9-12T3:36:33Z</time></trkpt>
<trkpt lat="46.20563" lon="7.43284"><ele></ele><time>2025-9-12T3:36:36Z</time></trkpt>
<trkpt lat="46.20574" lon="7.43288"><ele></ele><time>2025-9-12T3:36:39Z</time></trkpt>
<trkpt lat="46.20597" lon="7.43293"><ele></ele><time>2025-9-12T3:36:42Z</time></trkpt>
<trkpt lat="46.2061" lon="7.43294"><ele></ele><time>2025-9-12T3:36:45Z</time></trkpt>
<trkpt lat="46.20623" lon="7.43293"><ele></ele><time>2025-9-12T3:36:48Z</time></trkpt>
<trkpt lat="46.20635" lon="7.43291"><ele></ele><time>2025-9-12T3:36:51Z</time></trkpt>
<trkpt lat="46.20648" lon="7.43289"><ele></ele><time>2025-9-12T3:36:54Z</time></trkpt>
<trkpt lat="46.20662" lon="7.43287"><ele></ele><time>2025-9-12T3:36:57Z</time></trkpt>
<trkpt lat="46.20674" lon="7.43286"><ele></ele><time>2025-9-12T3:37:0Z</time></trkpt>
<trkpt lat="46.20686" lon="7.43285"><ele></ele><time>2025-9-12T3:37:3Z</time></trkpt>
<trkpt lat="46.20697" lon="7.43286"><ele></ele><time>2025-9-12T3:37:6Z</time></trkpt>
<trkpt lat="46.20709" lon="7.43289"><ele></ele><time>2025-9-12T3:37:9Z</time></trkpt>
<trkpt lat="46.2072" lon="7.43293"><ele></ele><time>2025-9-12T3:37:12Z</time></trkpt>
<trkpt lat="46.2074" lon="7.43306"><ele></ele><time>2025-9-12T3:37:15Z</time></trkpt>
<trkpt lat="46.2075" lon="7.43315"><ele></ele><time>2025-9-12T3:37:18Z</time></trkpt>
<trkpt lat="46.20759" lon="7.43326"><ele></ele><time>2025-9-12T3:37:21Z</time></trkpt>
<trkpt lat="46.20767" lon="7.43336"><ele></ele><time>2025-9-12T3:37:24Z</time></trkpt>
<trkpt lat="46.20775" lon="7.43349"><ele></ele><time>2025-9-12T3:37:27Z</time></trkpt>
<trkpt lat="46.20784" lon="7.4336"><ele></ele><time>2025-9-12T3:37:30Z</time></trkpt>
<trkpt lat="46.20793" lon="7.4337"><ele></ele><time>2025-9-12T3:37:33Z</time></trkpt>
<trkpt lat="46.20802" lon="7.43378"><ele></ele><time>2025-9-12T3:37:36Z</time></trkpt>
<trkpt lat="46.20813" lon="7.43382"><ele></ele><time>2025-9-12T3:37:39Z</time></trkpt>
<trkpt lat="46.20823" lon="7.43387"><ele></ele><time>2025-9-12T3:37:42Z</time></trkpt>
<trkpt lat="46.20831" lon="7.43396"><ele></ele><time>2025-9-12T3:37:45Z</time></trkpt>
<trkpt lat="46.2084" lon="7.43405"><ele></ele><time>2025-9-12T3:37:48Z</time></trkpt>
<trkpt lat="46.20848" lon="7.43412"><ele></ele><time>2025-9-12T3:37:51Z</time></trkpt>
<trkpt lat="46.20865" lon="7.43425"><ele></ele><time>2025-9-12T3:37:54Z</time></trkpt>
<trkpt lat="46.20885" lon="7.43444"><ele></ele><time>2025-9-12T3:37:57Z</time></trkpt>
<trkpt lat="46.20892" lon="7.43448"><ele></ele><time>2025-9-12T3:38:0Z</time></trkpt>
<trkpt lat="46.20905" lon="7.4345"><ele></ele><time>2025-9-12T3:38:3Z</time></trkpt>
<trkpt lat="46.20911" lon="7.43448"><ele></ele><time>2025-9-12T3:38:6Z</time></trkpt>
<trkpt lat="46.20916" lon="7.43445"><ele></ele><time>2025-9-12T3:38:9Z</time></trkpt>
<trkpt lat="46.20925" lon="7.43437"><ele></ele><time>2025-9-12T3:38:12Z</time></trkpt>
<trkpt lat="46.20928" lon="7.43433"><ele></ele><time>2025-9-12T3:38:15Z</time></trkpt>
<trkpt lat="46.20944" lon="7.43422"><ele></ele><time>2025-9-12T3:38:18Z</time></trkpt>
<trkpt lat="46.20946" lon="7.43421"><ele></ele><time>2025-9-12T3:38:21Z</time></trkpt>
<trkpt lat="46.20958" lon="7.43417"><ele></ele><time>2025-9-12T3:38:24Z</time></trkpt>
<trkpt lat="46.2096" lon="7.43415"><ele></ele><time>2025-9-12T3:38:27Z</time></trkpt>
<trkpt lat="46.20969" lon="7.43409"><ele></ele><time>2025-9-12T3:38:30Z</time></trkpt>
<trkpt lat="46.20973" lon="7.43406"><ele></ele><time>2025-9-12T3:38:33Z</time></trkpt>
<trkpt lat="46.20986" lon="7.43386"><ele></ele><time>2025-9-12T3:38:36Z</time></trkpt>
<trkpt lat="46.20998" lon="7.43373"><ele></ele><time>2025-9-12T3:38:39Z</time></trkpt>
<trkpt lat="46.21002" lon="7.4337"><ele></ele><time>2025-9-12T3:38:42Z</time></trkpt>
<trkpt lat="46.21007" lon="7.4337"><ele></ele><time>2025-9-12T3:38:45Z</time></trkpt>
<trkpt lat="46.21021" lon="7.43369"><ele></ele><time>2025-9-12T3:38:48Z</time></trkpt>
<trkpt lat="46.21025" lon="7.43368"><ele></ele><time>2025-9-12T3:38:51Z</time></trkpt>
<trkpt lat="46.2103" lon="7.43366"><ele></ele><time>2025-9-12T3:38:54Z</time></trkpt>
<trkpt lat="46.21038" lon="7.43359"><ele></ele><time>2025-9-12T3:38:57Z</time></trkpt>
<trkpt lat="46.21042" lon="7.43355"><ele></ele><time>2025-9-12T3:39:0Z</time></trkpt>
<trkpt lat="46.2105" lon="7.43345"><ele></ele><time>2025-9-12T3:39:3Z</time></trkpt>
<trkpt lat="46.21057" lon="7.43332"><ele></ele><time>2025-9-12T3:39:6Z</time></trkpt>
<trkpt lat="46.21059" lon="7.43324"><ele></ele><time>2025-9-12T3:39:9Z</time></trkpt>
<trkpt lat="46.21068" lon="7.43305"><ele></ele><time>2025-9-12T3:39:12Z</time></trkpt>
<trkpt lat="46.21075" lon="7.43293"><ele></ele><time>2025-9-12T3:39:15Z</time></trkpt>
<trkpt lat="46.21079" lon="7.43288"><ele></ele><time>2025-9-12T3:39:18Z</time></trkpt>
<trkpt lat="46.21083" lon="7.43284"><ele></ele><time>2025-9-12T3:39:21Z</time></trkpt>
<trkpt lat="46.21096" lon="7.43272"><ele></ele><time>2025-9-12T3:39:24Z</time></trkpt>
<trkpt lat="46.21099" lon="7.43267"><ele></ele><time>2025-9-12T3:39:27Z</time></trkpt>
<trkpt lat="46.21103" lon="7.43263"><ele></ele><time>2025-9-12T3:39:30Z</time></trkpt>
<trkpt lat="46.21106" lon="7.43258"><ele></ele><time>2025-9-12T3:39:33Z</time></trkpt>
<trkpt lat="46.21109" lon="7.43254"><ele></ele><time>2025-9-12T3:39:36Z</time></trkpt>
<trkpt lat="46.21112" lon="7.4325"><ele></ele><time>2025-9-12T3:39:39Z</time></trkpt>
<trkpt lat="46.21133" lon="7.43225"><ele></ele><time>2025-9-12T3:39:42Z</time></trkpt>
<trkpt lat="46.21153" lon="7.43204"><ele></ele><time>2025-9-12T3:39:45Z</time></trkpt>
<trkpt lat="46.21174" lon="7.43182"><ele></ele><time>2025-9-12T3:39:48Z</time></trkpt>
<trkpt lat="46.21183" lon="7.43171"><ele></ele><time>2025-9-12T3:39:51Z</time></trkpt>
<trkpt lat="46.21207" lon="7.43143"><ele></ele><time>2025-9-12T3:39:54Z</time></trkpt>
<trkpt lat="46.2122" lon="7.43129"><ele></ele><time>2025-9-12T3:39:57Z</time></trkpt>
<trkpt lat="46.21223" lon="7.43126"><ele></ele><time>2025-9-12T3:40:0Z</time></trkpt>
<trkpt lat="46.21225" lon="7.43125"><ele></ele><time>2025-9-12T3:40:3Z</time></trkpt>
<trkpt lat="46.21226" lon="7.43122"><ele></ele><time>2025-9-12T3:40:6Z</time></trkpt>
<trkpt lat="46.21228" lon="7.43119"><ele></ele><time>2025-9-12T3:40:9Z</time></trkpt>
<trkpt lat="46.2123" lon="7.43117"><ele></ele><time>2025-9-12T3:40:12Z</time></trkpt>
<trkpt lat="46.21231" lon="7.43117"><ele></ele><time>2025-9-12T3:40:15Z</time></trkpt>
<trkpt lat="46.21232" lon="7.43116"><ele></ele><time>2025-9-12T3:40:18Z</time></trkpt>
<trkpt lat="46.21234" lon="7.43116"><ele></ele><time>2025-9-12T3:40:21Z</time></trkpt>
<trkpt lat="46.21236" lon="7.43113"><ele></ele><time>2025-9-12T3:40:24Z</time></trkpt>
<trkpt lat="46.21237" lon="7.43112"><ele></ele><time>2025-9-12T3:40:27Z</time></trkpt>
<trkpt lat="46.21238" lon="7.43111"><ele></ele><time>2025-9-12T3:40:30Z</time></trkpt>
<trkpt lat="46.21244" lon="7.43107"><ele></ele><time>2025-9-12T3:40:33Z</time></trkpt>
<trkpt lat="46.21246" lon="7.43104"><ele></ele><time>2025-9-12T3:40:36Z</time></trkpt>
<trkpt lat="46.21249" lon="7.431"><ele></ele><time>2025-9-12T3:40:39Z</time></trkpt>
<trkpt lat="46.21253" lon="7.43096"><ele></ele><time>2025-9-12T3:40:42Z</time></trkpt>
<trkpt lat="46.21256" lon="7.43092"><ele></ele><time>2025-9-12T3:40:45Z</time></trkpt>
<trkpt lat="46.21261" lon="7.43086"><ele></ele><time>2025-9-12T3:40:48Z</time></trkpt>
<trkpt lat="46.21263" lon="7.43083"><ele></ele><time>2025-9-12T3:40:51Z</time></trkpt>
<trkpt lat="46.21272" lon="7.43073"><ele></ele><time>2025-9-12T3:40:54Z</time></trkpt>
<trkpt lat="46.21276" lon="7.43068"><ele></ele><time>2025-9-12T3:40:57Z</time></trkpt>
<trkpt lat="46.21278" lon="7.43063"><ele></ele><time>2025-9-12T3:41:0Z</time></trkpt>
<trkpt lat="46.21281" lon="7.43058"><ele></ele><time>2025-9-12T3:41:3Z</time></trkpt>
<trkpt lat="46.21283" lon="7.43053"><ele></ele><time>2025-9-12T3:41:6Z</time></trkpt>
<trkpt lat="46.21294" lon="7.4304"><ele></ele><time>2025-9-12T3:41:9Z</time></trkpt>
<trkpt lat="46.21305" lon="7.43028"><ele></ele><time>2025-9-12T3:41:12Z</time></trkpt>
<trkpt lat="46.21316" lon="7.43017"><ele></ele><time>2025-9-12T3:41:15Z</time></trkpt>
<trkpt lat="46.21322" lon="7.43014"><ele></ele><time>2025-9-12T3:41:18Z</time></trkpt>
<trkpt lat="46.21324" lon="7.43011"><ele></ele><time>2025-9-12T3:41:21Z</time></trkpt>
<trkpt lat="46.21329" lon="7.43004"><ele></ele><time>2025-9-12T3:41:24Z</time></trkpt>
<trkpt lat="46.21332" lon="7.43002"><ele></ele><time>2025-9-12T3:41:27Z</time></trkpt>
<trkpt lat="46.21337" lon="7.42996"><ele></ele><time>2025-9-12T3:41:30Z</time></trkpt>
<trkpt lat="46.2134" lon="7.42993"><ele></ele><time>2025-9-12T3:41:33Z</time></trkpt>
<trkpt lat="46.21343" lon="7.42991"><ele></ele><time>2025-9-12T3:41:36Z</time></trkpt>
<trkpt lat="46.21344" lon="7.4299"><ele></ele><time>2025-9-12T3:41:39Z</time></trkpt>
<trkpt lat="46.21347" lon="7.42986"><ele></ele><time>2025-9-12T3:41:42Z</time></trkpt>
<trkpt lat="46.2135" lon="7.42983"><ele></ele><time>2025-9-12T3:41:45Z</time></trkpt>
<trkpt lat="46.2136" lon="7.42975"><ele></ele><time>2025-9-12T3:41:48Z</time></trkpt>
<trkpt lat="46.21369" lon="7.4297"><ele></ele><time>2025-9-12T3:41:51Z</time></trkpt>
<trkpt lat="46.21374" lon="7.42967"><ele></ele><time>2025-9-12T3:41:54Z</time></trkpt>
<trkpt lat="46.21378" lon="7.42968"><ele></ele><time>2025-9-12T3:41:57Z</time></trkpt>
<trkpt lat="46.2138" lon="7.42967"><ele></ele><time>2025-9-12T3:42:0Z</time></trkpt>
<trkpt lat="46.21387" lon="7.42968"><ele></ele><time>2025-9-12T3:42:3Z</time></trkpt>
<trkpt lat="46.21392" lon="7.42971"><ele></ele><time>2025-9-12T3:42:6Z</time></trkpt>
<trkpt lat="46.21395" lon="7.42972"><ele></ele><time>2025-9-12T3:42:9Z</time></trkpt>
<trkpt lat="46.21403" lon="7.42973"><ele></ele><time>2025-9-12T3:42:12Z</time></trkpt>
<trkpt lat="46.21404" lon="7.42973"><ele></ele><time>2025-9-12T3:42:15Z</time></trkpt>
<trkpt lat="46.2141" lon="7.42978"><ele></ele><time>2025-9-12T3:42:18Z</time></trkpt>
<trkpt lat="46.21411" lon="7.42978"><ele></ele><time>2025-9-12T3:42:21Z</time></trkpt>
<trkpt lat="46.21416" lon="7.42981"><ele></ele><time>2025-9-12T3:42:24Z</time></trkpt>
<trkpt lat="46.21419" lon="7.42984"><ele></ele><time>2025-9-12T3:42:27Z</time></trkpt>
<trkpt lat="46.21423" lon="7.42988"><ele></ele><time>2025-9-12T3:42:30Z</time></trkpt>
<trkpt lat="46.21424" lon="7.42989"><ele></ele><time>2025-9-12T3:42:33Z</time></trkpt>
<trkpt lat="46.21435" lon="7.42998"><ele></ele><time>2025-9-12T3:42:36Z</time></trkpt>
<trkpt lat="46.21455" lon="7.43006"><ele></ele><time>2025-9-12T3:42:39Z</time></trkpt>
<trkpt lat="46.2147" lon="7.4301"><ele></ele><time>2025-9-12T3:42:42Z</time></trkpt>
<trkpt lat="46.21484" lon="7.43017"><ele></ele><time>2025-9-12T3:42:45Z</time></trkpt>
<trkpt lat="46.21491" lon="7.43023"><ele></ele><time>2025-9-12T3:42:48Z</time></trkpt>
<trkpt lat="46.21497" lon="7.43029"><ele></ele><time>2025-9-12T3:42:51Z</time></trkpt>
<trkpt lat="46.21504" lon="7.4303"><ele></ele><time>2025-9-12T3:42:54Z</time></trkpt>
<trkpt lat="46.21509" lon="7.43024"><ele></ele><time>2025-9-12T3:42:57Z</time></trkpt>
<trkpt lat="46.21509" lon="7.43017"><ele></ele><time>2025-9-12T3:43:0Z</time></trkpt>
<trkpt lat="46.21506" lon="7.43011"><ele></ele><time>2025-9-12T3:43:3Z</time></trkpt>
<trkpt lat="46.21501" lon="7.43006"><ele></ele><time>2025-9-12T3:43:6Z</time></trkpt>
<trkpt lat="46.21495" lon="7.43003"><ele></ele><time>2025-9-12T3:43:9Z</time></trkpt>
<trkpt lat="46.21489" lon="7.43001"><ele></ele><time>2025-9-12T3:43:12Z</time></trkpt>
<trkpt lat="46.21483" lon="7.42998"><ele></ele><time>2025-9-12T3:43:15Z</time></trkpt>
<trkpt lat="46.21479" lon="7.42994"><ele></ele><time>2025-9-12T3:43:18Z</time></trkpt>
<trkpt lat="46.21479" lon="7.42989"><ele></ele><time>2025-9-12T3:43:21Z</time></trkpt>
<trkpt lat="46.2148" lon="7.42986"><ele></ele><time>2025-9-12T3:43:24Z</time></trkpt>
<trkpt lat="46.21483" lon="7.42986"><ele></ele><time>2025-9-12T3:43:27Z</time></trkpt>
<trkpt lat="46.21489" lon="7.42989"><ele></ele><time>2025-9-12T3:43:30Z</time></trkpt>
<trkpt lat="46.21496" lon="7.42991"><ele></ele><time>2025-9-12T3:43:33Z</time></trkpt>
<trkpt lat="46.21511" lon="7.42997"><ele></ele><time>2025-9-12T3:43:36Z</time></trkpt>
<trkpt lat="46.2152" lon="7.43004"><ele></ele><time>2025-9-12T3:43:39Z</time></trkpt>
<trkpt lat="46.21526" lon="7.43005"><ele></ele><time>2025-9-12T3:43:42Z</time></trkpt>
<trkpt lat="46.21532" lon="7.43006"><ele></ele><time>2025-9-12T3:43:45Z</time></trkpt>
<trkpt lat="46.21548" lon="7.4301"><ele></ele><time>2025-9-12T3:43:48Z</time></trkpt>
<trkpt lat="46.2156" lon="7.43017"><ele></ele><time>2025-9-12T3:43:51Z</time></trkpt>
<trkpt lat="46.21566" lon="7.43021"><ele></ele><time>2025-9-12T3:43:54Z</time></trkpt>
<trkpt lat="46.21572" lon="7.43027"><ele></ele><time>2025-9-12T3:43:57Z</time></trkpt>
<trkpt lat="46.21583" lon="7.43039"><ele></ele><time>2025-9-12T3:44:0Z</time></trkpt>
<trkpt lat="46.21596" lon="7.43049"><ele></ele><time>2025-9-12T3:44:3Z</time></trkpt>
<trkpt lat="46.21603" lon="7.43054"><ele></ele><time>2025-9-12T3:44:6Z</time></trkpt>
<trkpt lat="46.2161" lon="7.43057"><ele></ele><time>2025-9-12T3:44:9Z</time></trkpt>
<trkpt lat="46.21625" lon="7.4306"><ele></ele><time>2025-9-12T3:44:12Z</time></trkpt>
<trkpt lat="46.21655" lon="7.43055"><ele></ele><time>2025-9-12T3:44:15Z</time></trkpt>
<trkpt lat="46.2166" lon="7.43053"><ele></ele><time>2025-9-12T3:44:18Z</time></trkpt>
<trkpt lat="46.21672" lon="7.43043"><ele></ele><time>2025-9-12T3:44:21Z</time></trkpt>
<trkpt lat="46.21679" lon="7.43039"><ele></ele><time>2025-9-12T3:44:24Z</time></trkpt>
<trkpt lat="46.21685" lon="7.43041"><ele></ele><time>2025-9-12T3:44:27Z</time></trkpt>
<trkpt lat="46.2169" lon="7.43043"><ele></ele><time>2025-9-12T3:44:30Z</time></trkpt>
<trkpt lat="46.21695" lon="7.43045"><ele></ele><time>2025-9-12T3:44:33Z</time></trkpt>
<trkpt lat="46.21706" lon="7.43047"><ele></ele><time>2025-9-12T3:44:36Z</time></trkpt>
<trkpt lat="46.21712" lon="7.43048"><ele></ele><time>2025-9-12T3:44:39Z</time></trkpt>
<trkpt lat="46.21718" lon="7.43048"><ele></ele><time>2025-9-12T3:44:42Z</time></trkpt>
<trkpt lat="46.21724" lon="7.43048"><ele></ele><time>2025-9-12T3:44:45Z</time></trkpt>
<trkpt lat="46.21749" lon="7.43047"><ele></ele><time>2025-9-12T3:44:48Z</time></trkpt>
<trkpt lat="46.21755" lon="7.43048"><ele></ele><time>2025-9-12T3:44:51Z</time></trkpt>
<trkpt lat="46.21762" lon="7.43046"><ele></ele><time>2025-9-12T3:44:54Z</time></trkpt>
<trkpt lat="46.21779" lon="7.43044"><ele></ele><time>2025-9-12T3:44:57Z</time></trkpt>
<trkpt lat="46.21794" lon="7.43047"><ele></ele><time>2025-9-12T3:45:0Z</time></trkpt>
<trkpt lat="46.21809" lon="7.43048"><ele></ele><time>2025-9-12T3:45:3Z</time></trkpt>
<trkpt lat="46.21817" lon="7.43048"><ele></ele><time>2025-9-12T3:45:6Z</time></trkpt>
<trkpt lat="46.21826" lon="7.43043"><ele></ele><time>2025-9-12T3:45:9Z</time></trkpt>
<trkpt lat="46.21834" lon="7.43041"><ele></ele><time>2025-9-12T3:45:12Z</time></trkpt>
<trkpt lat="46.2184" lon="7.43038"><ele></ele><time>2025-9-12T3:45:15Z</time></trkpt>
<trkpt lat="46.21843" lon="7.43036"><ele></ele><time>2025-9-12T3:45:18Z</time></trkpt>
<trkpt lat="46.2185" lon="7.43034"><ele></ele><time>2025-9-12T3:45:21Z</time></trkpt>
<trkpt lat="46.21854" lon="7.43034"><ele></ele><time>2025-9-12T3:45:24Z</time></trkpt>
<trkpt lat="46.21855" lon="7.43034"><ele></ele><time>2025-9-12T3:45:27Z</time></trkpt>
<trkpt lat="46.2186" lon="7.43034"><ele></ele><time>2025-9-12T3:45:30Z</time></trkpt>
<trkpt lat="46.21866" lon="7.43035"><ele></ele><time>2025-9-12T3:45:33Z</time></trkpt>
<trkpt lat="46.21881" lon="7.43034"><ele></ele><time>2025-9-12T3:45:36Z</time></trkpt>
<trkpt lat="46.21896" lon="7.43034"><ele></ele><time>2025-9-12T3:45:39Z</time></trkpt>
<trkpt lat="46.21909" lon="7.43028"><ele></ele><time>2025-9-12T3:45:42Z</time></trkpt>
<trkpt lat="46.21928" lon="7.4301"><ele></ele><time>2025-9-12T3:45:45Z</time></trkpt>
<trkpt lat="46.21937" lon="7.43004"><ele></ele><time>2025-9-12T3:45:48Z</time></trkpt>
<trkpt lat="46.21953" lon="7.42995"><ele></ele><time>2025-9-12T3:45:51Z</time></trkpt>
<trkpt lat="46.21964" lon="7.42988"><ele></ele><time>2025-9-12T3:45:54Z</time></trkpt>
<trkpt lat="46.21971" lon="7.4298"><ele></ele><time>2025-9-12T3:45:57Z</time></trkpt>
<trkpt lat="46.21979" lon="7.42969"><ele></ele><time>2025-9-12T3:46:0Z</time></trkpt>
<trkpt lat="46.21981" lon="7.42966"><ele></ele><time>2025-9-12T3:46:3Z</time></trkpt>
<trkpt lat="46.21984" lon="7.4296"><ele></ele><time>2025-9-12T3:46:6Z</time></trkpt>
<trkpt lat="46.21989" lon="7.42949"><ele></ele><time>2025-9-12T3:46:9Z</time></trkpt>
<trkpt lat="46.21992" lon="7.42944"><ele></ele><time>2025-9-12T3:46:12Z</time></trkpt>
<trkpt lat="46.21994" lon="7.42942"><ele></ele><time>2025-9-12T3:46:15Z</time></trkpt>
<trkpt lat="46.21996" lon="7.42942"><ele></ele><time>2025-9-12T3:46:18Z</time></trkpt>
<trkpt lat="46.21999" lon="7.4294"><ele></ele><time>2025-9-12T3:46:21Z</time></trkpt>
<trkpt lat="46.22001" lon="7.42938"><ele></ele><time>2025-9-12T3:46:24Z</time></trkpt>
<trkpt lat="46.22002" lon="7.42937"><ele></ele><time>2025-9-12T3:46:27Z</time></trkpt>
<trkpt lat="46.22003" lon="7.42936"><ele></ele><time>2025-9-12T3:46:30Z</time></trkpt>
<trkpt lat="46.22006" lon="7.42933"><ele></ele><time>2025-9-12T3:46:33Z</time></trkpt>
<trkpt lat="46.22008" lon="7.42931"><ele></ele><time>2025-9-12T3:46:36Z</time></trkpt>
<trkpt lat="46.22011" lon="7.42928"><ele></ele><time>2025-9-12T3:46:39Z</time></trkpt>
<trkpt lat="46.22015" lon="7.42924"><ele></ele><time>2025-9-12T3:46:42Z</time></trkpt>
<trkpt lat="46.22019" lon="7.42923"><ele></ele><time>2025-9-12T3:46:45Z</time></trkpt>
<trkpt lat="46.22024" lon="7.42922"><ele></ele><time>2025-9-12T3:46:48Z</time></trkpt>
<trkpt lat="46.22029" lon="7.42921"><ele></ele><time>2025-9-12T3:46:51Z</time></trkpt>
<trkpt lat="46.22037" lon="7.4292"><ele></ele><time>2025-9-12T3:46:54Z</time></trkpt>
<trkpt lat="46.22042" lon="7.42923"><ele></ele><time>2025-9-12T3:46:57Z</time></trkpt>
<trkpt lat="46.22058" lon="7.42932"><ele></ele><time>2025-9-12T3:47:0Z</time></trkpt>
<trkpt lat="46.22073" lon="7.42933"><ele></ele><time>2025-9-12T3:47:3Z</time></trkpt>
<trkpt lat="46.22078" lon="7.42934"><ele></ele><time>2025-9-12T3:47:6Z</time></trkpt>
<trkpt lat="46.22098" lon="7.42935"><ele></ele><time>2025-9-12T3:47:9Z</time></trkpt>
<trkpt lat="46.22103" lon="7.42934"><ele></ele><time>2025-9-12T3:47:12Z</time></trkpt>
<trkpt lat="46.22111" lon="7.42929"><ele></ele><time>2025-9-12T3:47:15Z</time></trkpt>
<trkpt lat="46.2212" lon="7.42925"><ele></ele><time>2025-9-12T3:47:18Z</time></trkpt>
<trkpt lat="46.22131" lon="7.4292"><ele></ele><time>2025-9-12T3:47:21Z</time></trkpt>
<trkpt lat="46.22141" lon="7.42919"><ele></ele><time>2025-9-12T3:47:24Z</time></trkpt>
<trkpt lat="46.22149" lon="7.42921"><ele></ele><time>2025-9-12T3:47:27Z</time></trkpt>
<trkpt lat="46.2216" lon="7.42925"><ele></ele><time>2025-9-12T3:47:30Z</time></trkpt>
<trkpt lat="46.22162" lon="7.42926"><ele></ele><time>2025-9-12T3:47:33Z</time></trkpt>
<trkpt lat="46.22167" lon="7.42927"><ele></ele><time>2025-9-12T3:47:36Z</time></trkpt>
<trkpt lat="46.22169" lon="7.42927"><ele></ele><time>2025-9-12T3:47:39Z</time></trkpt>
<trkpt lat="46.22173" lon="7.42928"><ele></ele><time>2025-9-12T3:47:42Z</time></trkpt>
<trkpt lat="46.22181" lon="7.42929"><ele></ele><time>2025-9-12T3:47:45Z</time></trkpt>
<trkpt lat="46.22189" lon="7.42926"><ele></ele><time>2025-9-12T3:47:48Z</time></trkpt>
<trkpt lat="46.22199" lon="7.42922"><ele></ele><time>2025-9-12T3:47:51Z</time></trkpt>
<trkpt lat="46.22205" lon="7.42918"><ele></ele><time>2025-9-12T3:47:54Z</time></trkpt>
<trkpt lat="46.22207" lon="7.42916"><ele></ele><time>2025-9-12T3:47:57Z</time></trkpt>
<trkpt lat="46.22209" lon="7.42914"><ele></ele><time>2025-9-12T3:48:0Z</time></trkpt>
<trkpt lat="46.22222" lon="7.42904"><ele></ele><time>2025-9-12T3:48:3Z</time></trkpt>
<trkpt lat="46.22228" lon="7.42899"><ele></ele><time>2025-9-12T3:48:6Z</time></trkpt>
<trkpt lat="46.2224" lon="7.42893"><ele></ele><time>2025-9-12T3:48:9Z</time></trkpt>
<trkpt lat="46.2226" lon="7.42887"><ele></ele><time>2025-9-12T3:48:12Z</time></trkpt>
<trkpt lat="46.22269" lon="7.42878"><ele></ele><time>2025-9-12T3:48:15Z</time></trkpt>
<trkpt lat="46.22273" lon="7.42875"><ele></ele><time>2025-9-12T3:48:18Z</time></trkpt>
<trkpt lat="46.2229" lon="7.42867"><ele></ele><time>2025-9-12T3:48:21Z</time></trkpt>
<trkpt lat="46.22316" lon="7.42854"><ele></ele><time>2025-9-12T3:48:24Z</time></trkpt>
<trkpt lat="46.22345" lon="7.42836"><ele></ele><time>2025-9-12T3:48:27Z</time></trkpt>
<trkpt lat="46.22353" lon="7.42832"><ele></ele><time>2025-9-12T3:48:30Z</time></trkpt>
<trkpt lat="46.22372" lon="7.42816"><ele></ele><time>2025-9-12T3:48:33Z</time></trkpt>
<trkpt lat="46.22382" lon="7.42807"><ele></ele><time>2025-9-12T3:48:36Z</time></trkpt>
<trkpt lat="46.22406" lon="7.42787"><ele></ele><time>2025-9-12T3:48:39Z</time></trkpt>
<trkpt lat="46.22418" lon="7.42784"><ele></ele><time>2025-9-12T3:48:42Z</time></trkpt>
<trkpt lat="46.22427" lon="7.42788"><ele></ele><time>2025-9-12T3:48:45Z</time></trkpt>
<trkpt lat="46.2244" lon="7.42794"><ele></ele><time>2025-9-12T3:48:48Z</time></trkpt>
<trkpt lat="46.22444" lon="7.42796"><ele></ele><time>2025-9-12T3:48:51Z</time></trkpt>
<trkpt lat="46.22454" lon="7.42797"><ele></ele><time>2025-9-12T3:48:54Z</time></trkpt>
<trkpt lat="46.22463" lon="7.42797"><ele></ele><time>2025-9-12T3:48:57Z</time></trkpt>
<trkpt lat="46.22479" lon="7.42794"><ele></ele><time>2025-9-12T3:49:0Z</time></trkpt>
<trkpt lat="46.22483" lon="7.4279"><ele></ele><time>2025-9-12T3:49:3Z</time></trkpt>
<trkpt lat="46.22502" lon="7.42773"><ele></ele><time>2025-9-12T3:49:6Z</time></trkpt>
<trkpt lat="46.22507" lon="7.42771"><ele></ele><time>2025-9-12T3:49:9Z</time></trkpt>
<trkpt lat="46.22512" lon="7.42769"><ele></ele><time>2025-9-12T3:49:12Z</time></trkpt>
<trkpt lat="46.22519" lon="7.4277"><ele></ele><time>2025-9-12T3:49:15Z</time></trkpt>
<trkpt lat="46.22525" lon="7.42772"><ele></ele><time>2025-9-12T3:49:18Z</time></trkpt>
<trkpt lat="46.22531" lon="7.42776"><ele></ele><time>2025-9-12T3:49:21Z</time></trkpt>
<trkpt lat="46.22538" lon="7.4278"><ele></ele><time>2025-9-12T3:49:24Z</time></trkpt>
<trkpt lat="46.22545" lon="7.42783"><ele></ele><time>2025-9-12T3:49:27Z</time></trkpt>
<trkpt lat="46.22558" lon="7.42785"><ele></ele><time>2025-9-12T3:49:30Z</time></trkpt>
<trkpt lat="46.22572" lon="7.42787"><ele></ele><time>2025-9-12T3:49:33Z</time></trkpt>
<trkpt lat="46.22575" lon="7.42788"><ele></ele><time>2025-9-12T3:49:36Z</time></trkpt>
<trkpt lat="46.22577" lon="7.4279"><ele></ele><time>2025-9-12T3:49:39Z</time></trkpt>
<trkpt lat="46.22579" lon="7.4279"><ele></ele><time>2025-9-12T3:49:42Z</time></trkpt>
<trkpt lat="46.22583" lon="7.42795"><ele></ele><time>2025-9-12T3:49:45Z</time></trkpt>
<trkpt lat="46.22586" lon="7.42797"><ele></ele><time>2025-9-12T3:49:48Z</time></trkpt>
<trkpt lat="46.22592" lon="7.42803"><ele></ele><time>2025-9-12T3:49:51Z</time></trkpt>
<trkpt lat="46.22594" lon="7.42804"><ele></ele><time>2025-9-12T3:49:54Z</time></trkpt>
<trkpt lat="46.226" lon="7.42816"><ele></ele><time>2025-9-12T3:49:57Z</time></trkpt>
<trkpt lat="46.22601" lon="7.42818"><ele></ele><time>2025-9-12T3:50:0Z</time></trkpt>
<trkpt lat="46.2261" lon="7.42831"><ele></ele><time>2025-9-12T3:50:3Z</time></trkpt>
<trkpt lat="46.22613" lon="7.42836"><ele></ele><time>2025-9-12T3:50:6Z</time></trkpt>
<trkpt lat="46.22615" lon="7.42839"><ele></ele><time>2025-9-12T3:50:9Z</time></trkpt>
<trkpt lat="46.22618" lon="7.42844"><ele></ele><time>2025-9-12T3:50:12Z</time></trkpt>
<trkpt lat="46.22622" lon="7.42852"><ele></ele><time>2025-9-12T3:50:15Z</time></trkpt>
<trkpt lat="46.22623" lon="7.42856"><ele></ele><time>2025-9-12T3:50:18Z</time></trkpt>
<trkpt lat="46.22624" lon="7.42858"><ele></ele><time>2025-9-12T3:50:21Z</time></trkpt>
<trkpt lat="46.22624" lon="7.4286"><ele></ele><time>2025-9-12T3:50:24Z</time></trkpt>
<trkpt lat="46.22625" lon="7.42861"><ele></ele><time>2025-9-12T3:50:27Z</time></trkpt>
<trkpt lat="46.22625" lon="7.42863"><ele></ele><time>2025-9-12T3:50:30Z</time></trkpt>
<trkpt lat="46.22625" lon="7.42869"><ele></ele><time>2025-9-12T3:50:33Z</time></trkpt>
<trkpt lat="46.22626" lon="7.4287"><ele></ele><time>2025-9-12T3:50:36Z</time></trkpt>
<trkpt lat="46.22635" lon="7.42882"><ele></ele><time>2025-9-12T3:50:39Z</time></trkpt>
<trkpt lat="46.22644" lon="7.42897"><ele></ele><time>2025-9-12T3:50:42Z</time></trkpt>
<trkpt lat="46.22654" lon="7.42919"><ele></ele><time>2025-9-12T3:50:45Z</time></trkpt>
<trkpt lat="46.22657" lon="7.42923"><ele></ele><time>2025-9-12T3:50:48Z</time></trkpt>
<trkpt lat="46.22666" lon="7.4294"><ele></ele><time>2025-9-12T3:50:51Z</time></trkpt>
<trkpt lat="46.22674" lon="7.42959"><ele></ele><time>2025-9-12T3:50:54Z</time></trkpt>
<trkpt lat="46.22676" lon="7.42962"><ele></ele><time>2025-9-12T3:50:57Z</time></trkpt>
<trkpt lat="46.22679" lon="7.42968"><ele></ele><time>2025-9-12T3:51:0Z</time></trkpt>
<trkpt lat="46.22683" lon="7.42974"><ele></ele><time>2025-9-12T3:51:3Z</time></trkpt>
<trkpt lat="46.22688" lon="7.42985"><ele></ele><time>2025-9-12T3:51:6Z</time></trkpt>
<trkpt lat="46.22693" lon="7.42996"><ele></ele><time>2025-9-12T3:51:9Z</time></trkpt>
<trkpt lat="46.22707" lon="7.43027"><ele></ele><time>2025-9-12T3:51:12Z</time></trkpt>
<trkpt lat="46.22722" lon="7.43052"><ele></ele><time>2025-9-12T3:51:15Z</time></trkpt>
<trkpt lat="46.22727" lon="7.43062"><ele></ele><time>2025-9-12T3:51:18Z</time></trkpt>
<trkpt lat="46.22729" lon="7.43083"><ele></ele><time>2025-9-12T3:51:21Z</time></trkpt>
<trkpt lat="46.22727" lon="7.43104"><ele></ele><time>2025-9-12T3:51:24Z</time></trkpt>
<trkpt lat="46.22726" lon="7.43111"><ele></ele><time>2025-9-12T3:51:27Z</time></trkpt>
<trkpt lat="46.22726" lon="7.43121"><ele></ele><time>2025-9-12T3:51:30Z</time></trkpt>
<trkpt lat="46.22726" lon="7.43125"><ele></ele><time>2025-9-12T3:51:33Z</time></trkpt>
<trkpt lat="46.22728" lon="7.43134"><ele></ele><time>2025-9-12T3:51:36Z</time></trkpt>
<trkpt lat="46.22731" lon="7.43144"><ele></ele><time>2025-9-12T3:51:39Z</time></trkpt>
<trkpt lat="46.22735" lon="7.43156"><ele></ele><time>2025-9-12T3:51:42Z</time></trkpt>
<trkpt lat="46.22739" lon="7.43169"><ele></ele><time>2025-9-12T3:51:45Z</time></trkpt>
<trkpt lat="46.22742" lon="7.43186"><ele></ele><time>2025-9-12T3:51:48Z</time></trkpt>
<trkpt lat="46.22748" lon="7.43208"><ele></ele><time>2025-9-12T3:51:51Z</time></trkpt>
<trkpt lat="46.2275" lon="7.43215"><ele></ele><time>2025-9-12T3:51:54Z</time></trkpt>
<trkpt lat="46.22752" lon="7.43226"><ele></ele><time>2025-9-12T3:51:57Z</time></trkpt>
<trkpt lat="46.22754" lon="7.43232"><ele></ele><time>2025-9-12T3:52:0Z</time></trkpt>
<trkpt lat="46.22755" lon="7.43239"><ele></ele><time>2025-9-12T3:52:3Z</time></trkpt>
<trkpt lat="46.22755" lon="7.4325"><ele></ele><time>2025-9-12T3:52:6Z</time></trkpt>
<trkpt lat="46.22753" lon="7.43268"><ele></ele><time>2025-9-12T3:52:9Z</time></trkpt>
<trkpt lat="46.22751" lon="7.43281"><ele></ele><time>2025-9-12T3:52:12Z</time></trkpt>
<trkpt lat="46.22751" lon="7.43295"><ele></ele><time>2025-9-12T3:52:15Z</time></trkpt>
<trkpt lat="46.22758" lon="7.4332"><ele></ele><time>2025-9-12T3:52:18Z</time></trkpt>
<trkpt lat="46.22761" lon="7.43327"><ele></ele><time>2025-9-12T3:52:21Z</time></trkpt>
<trkpt lat="46.22761" lon="7.43349"><ele></ele><time>2025-9-12T3:52:24Z</time></trkpt>
<trkpt lat="46.2276" lon="7.4336"><ele></ele><time>2025-9-12T3:52:27Z</time></trkpt>
<trkpt lat="46.22756" lon="7.43372"><ele></ele><time>2025-9-12T3:52:30Z</time></trkpt>
<trkpt lat="46.22755" lon="7.43381"><ele></ele><time>2025-9-12T3:52:33Z</time></trkpt>
<trkpt lat="46.22755" lon="7.4339"><ele></ele><time>2025-9-12T3:52:36Z</time></trkpt>
<trkpt lat="46.22757" lon="7.43414"><ele></ele><time>2025-9-12T3:52:39Z</time></trkpt>
<trkpt lat="46.22761" lon="7.43439"><ele></ele><time>2025-9-12T3:52:42Z</time></trkpt>
<trkpt lat="46.22762" lon="7.43442"><ele></ele><time>2025-9-12T3:52:45Z</time></trkpt>
<trkpt lat="46.22767" lon="7.43461"><ele></ele><time>2025-9-12T3:52:48Z</time></trkpt>
<trkpt lat="46.22769" lon="7.43467"><ele></ele><time>2025-9-12T3:52:51Z</time></trkpt>
<trkpt lat="46.22776" lon="7.4349"><ele></ele><time>2025-9-12T3:52:54Z</time></trkpt>
<trkpt lat="46.22779" lon="7.435"><ele></ele><time>2025-9-12T3:52:57Z</time></trkpt>
<trkpt lat="46.22785" lon="7.43515"><ele></ele><time>2025-9-12T3:53:0Z</time></trkpt>
<trkpt lat="46.22791" lon="7.43541"><ele></ele><time>2025-9-12T3:53:3Z</time></trkpt>
<trkpt lat="46.22793" lon="7.4356"><ele></ele><time>2025-9-12T3:53:6Z</time></trkpt>
<trkpt lat="46.22797" lon="7.4358"><ele></ele><time>2025-9-12T3:53:9Z</time></trkpt>
<trkpt lat="46.22803" lon="7.4361"><ele></ele><time>2025-9-12T3:53:12Z</time></trkpt>
<trkpt lat="46.22805" lon="7.43622"><ele></ele><time>2025-9-12T3:53:15Z</time></trkpt>
<trkpt lat="46.22806" lon="7.43629"><ele></ele><time>2025-9-12T3:53:18Z</time></trkpt>
<trkpt lat="46.22811" lon="7.43646"><ele></ele><time>2025-9-12T3:53:21Z</time></trkpt>
<trkpt lat="46.22815" lon="7.43666"><ele></ele><time>2025-9-12T3:53:24Z</time></trkpt>
<trkpt lat="46.22818" lon="7.43677"><ele></ele><time>2025-9-12T3:53:27Z</time></trkpt>
<trkpt lat="46.22819" lon="7.43681"><ele></ele><time>2025-9-12T3:53:30Z</time></trkpt>
<trkpt lat="46.22822" lon="7.43693"><ele></ele><time>2025-9-12T3:53:33Z</time></trkpt>
<trkpt lat="46.22828" lon="7.43713"><ele></ele><time>2025-9-12T3:53:36Z</time></trkpt>
<trkpt lat="46.22837" lon="7.43741"><ele></ele><time>2025-9-12T3:53:39Z</time></trkpt>
<trkpt lat="46.22841" lon="7.43755"><ele></ele><time>2025-9-12T3:53:42Z</time></trkpt>
<trkpt lat="46.22844" lon="7.4377"><ele></ele><time>2025-9-12T3:53:45Z</time></trkpt>
<trkpt lat="46.22846" lon="7.43779"><ele></ele><time>2025-9-12T3:53:48Z</time></trkpt>
<trkpt lat="46.22847" lon="7.43788"><ele></ele><time>2025-9-12T3:53:51Z</time></trkpt>
<trkpt lat="46.22851" lon="7.43807"><ele></ele><time>2025-9-12T3:53:54Z</time></trkpt>
<trkpt lat="46.22853" lon="7.43816"><ele></ele><time>2025-9-12T3:53:57Z</time></trkpt>
<trkpt lat="46.22855" lon="7.43826"><ele></ele><time>2025-9-12T3:54:0Z</time></trkpt>
<trkpt lat="46.22856" lon="7.43835"><ele></ele><time>2025-9-12T3:54:3Z</time></trkpt>
<trkpt lat="46.22859" lon="7.43854"><ele></ele><time>2025-9-12T3:54:6Z</time></trkpt>
<trkpt lat="46.22862" lon="7.43869"><ele></ele><time>2025-9-12T3:54:9Z</time></trkpt>
<trkpt lat="46.22862" lon="7.43884"><ele></ele><time>2025-9-12T3:54:12Z</time></trkpt>
<trkpt lat="46.22861" lon="7.43886"><ele></ele><time>2025-9-12T3:54:15Z</time></trkpt>
<trkpt lat="46.22861" lon="7.43888"><ele></ele><time>2025-9-12T3:54:18Z</time></trkpt>
<trkpt lat="46.22861" lon="7.43892"><ele></ele><time>2025-9-12T3:54:21Z</time></trkpt>
<trkpt lat="46.2286" lon="7.43896"><ele></ele><time>2025-9-12T3:54:24Z</time></trkpt>
<trkpt lat="46.22859" lon="7.43902"><ele></ele><time>2025-9-12T3:54:27Z</time></trkpt>
<trkpt lat="46.22858" lon="7.43905"><ele></ele><time>2025-9-12T3:54:30Z</time></trkpt>
<trkpt lat="46.22855" lon="7.43915"><ele></ele><time>2025-9-12T3:54:33Z</time></trkpt>
<trkpt lat="46.22854" lon="7.43918"><ele></ele><time>2025-9-12T3:54:36Z</time></trkpt>
<trkpt lat="46.22852" lon="7.43923"><ele></ele><time>2025-9-12T3:54:39Z</time></trkpt>
<trkpt lat="46.22851" lon="7.43929"><ele></ele><time>2025-9-12T3:54:42Z</time></trkpt>
<trkpt lat="46.22849" lon="7.43935"><ele></ele><time>2025-9-12T3:54:45Z</time></trkpt>
<trkpt lat="46.22846" lon="7.43944"><ele></ele><time>2025-9-12T3:54:48Z</time></trkpt>
<trkpt lat="46.22845" lon="7.43949"><ele></ele><time>2025-9-12T3:54:51Z</time></trkpt>
<trkpt lat="46.22843" lon="7.43954"><ele></ele><time>2025-9-12T3:54:54Z</time></trkpt>
<trkpt lat="46.2284" lon="7.43964"><ele></ele><time>2025-9-12T3:54:57Z</time></trkpt>
<trkpt lat="46.2284" lon="7.43967"><ele></ele><time>2025-9-12T3:55:0Z</time></trkpt>
<trkpt lat="46.22839" lon="7.43977"><ele></ele><time>2025-9-12T3:55:3Z</time></trkpt>
<trkpt lat="46.22836" lon="7.43988"><ele></ele><time>2025-9-12T3:55:6Z</time></trkpt>
<trkpt lat="46.22836" lon="7.43994"><ele></ele><time>2025-9-12T3:55:9Z</time></trkpt>
<trkpt lat="46.22836" lon="7.44002"><ele></ele><time>2025-9-12T3:55:12Z</time></trkpt>
<trkpt lat="46.22835" lon="7.44008"><ele></ele><time>2025-9-12T3:55:15Z</time></trkpt>
<trkpt lat="46.22836" lon="7.44019"><ele></ele><time>2025-9-12T3:55:18Z</time></trkpt>
<trkpt lat="46.22836" lon="7.4402"><ele></ele><time>2025-9-12T3:55:21Z</time></trkpt>
<trkpt lat="46.22835" lon="7.44029"><ele></ele><time>2025-9-12T3:55:24Z</time></trkpt>
<trkpt lat="46.22834" lon="7.44034"><ele></ele><time>2025-9-12T3:55:27Z</time></trkpt>
<trkpt lat="46.22834" lon="7.44036"><ele></ele><time>2025-9-12T3:55:30Z</time></trkpt>
<trkpt lat="46.22833" lon="7.44053"><ele></ele><time>2025-9-12T3:55:33Z</time></trkpt>
<trkpt lat="46.22833" lon="7.44055"><ele></ele><time>2025-9-12T3:55:36Z</time></trkpt>
<trkpt lat="46.22832" lon="7.44066"><ele></ele><time>2025-9-12T3:55:39Z</time></trkpt>
<trkpt lat="46.22832" lon="7.44077"><ele></ele><time>2025-9-12T3:55:42Z</time></trkpt>
<trkpt lat="46.22831" lon="7.44084"><ele></ele><time>2025-9-12T3:55:45Z</time></trkpt>
<trkpt lat="46.2283" lon="7.44092"><ele></ele><time>2025-9-12T3:55:48Z</time></trkpt>
<trkpt lat="46.2283" lon="7.44099"><ele></ele><time>2025-9-12T3:55:51Z</time></trkpt>
<trkpt lat="46.22828" lon="7.44109"><ele></ele><time>2025-9-12T3:55:54Z</time></trkpt>
<trkpt lat="46.22828" lon="7.44115"><ele></ele><time>2025-9-12T3:55:57Z</time></trkpt>
<trkpt lat="46.22827" lon="7.44125"><ele></ele><time>2025-9-12T3:56:0Z</time></trkpt>
<trkpt lat="46.22827" lon="7.4413"><ele></ele><time>2025-9-12T3:56:3Z</time></trkpt>
<trkpt lat="46.22828" lon="7.4414"><ele></ele><time>2025-9-12T3:56:6Z</time></trkpt>
<trkpt lat="46.22827" lon="7.44147"><ele></ele><time>2025-9-12T3:56:9Z</time></trkpt>
<trkpt lat="46.22829" lon="7.44154"><ele></ele><time>2025-9-12T3:56:12Z</time></trkpt>
<trkpt lat="46.2283" lon="7.4416"><ele></ele><time>2025-9-12T3:56:15Z</time></trkpt>
<trkpt lat="46.22831" lon="7.44166"><ele></ele><time>2025-9-12T3:56:18Z</time></trkpt>
<trkpt lat="46.22832" lon="7.44178"><ele></ele><time>2025-9-12T3:56:21Z</time></trkpt>
<trkpt lat="46.22831" lon="7.4418"><ele></ele><time>2025-9-12T3:56:24Z</time></trkpt>
<trkpt lat="46.22833" lon="7.44184"><ele></ele><time>2025-9-12T3:56:27Z</time></trkpt>
<trkpt lat="46.22835" lon="7.44189"><ele></ele><time>2025-9-12T3:56:30Z</time></trkpt>
<trkpt lat="46.22836" lon="7.44191"><ele></ele><time>2025-9-12T3:56:33Z</time></trkpt>
<trkpt lat="46.22842" lon="7.44195"><ele></ele><time>2025-9-12T3:56:36Z</time></trkpt>
<trkpt lat="46.22842" lon="7.44197"><ele></ele><time>2025-9-12T3:56:39Z</time></trkpt>
<trkpt lat="46.22841" lon="7.44202"><ele></ele><time>2025-9-12T3:56:42Z</time></trkpt>
<trkpt lat="46.22836" lon="7.44209"><ele></ele><time>2025-9-12T3:56:45Z</time></trkpt>
<trkpt lat="46.22833" lon="7.44218"><ele></ele><time>2025-9-12T3:56:48Z</time></trkpt>
<trkpt lat="46.22833" lon="7.44221"><ele></ele><time>2025-9-12T3:56:51Z</time></trkpt>
<trkpt lat="46.22832" lon="7.44232"><ele></ele><time>2025-9-12T3:56:54Z</time></trkpt>
<trkpt lat="46.22832" lon="7.44236"><ele></ele><time>2025-9-12T3:56:57Z</time></trkpt>
<trkpt lat="46.22832" lon="7.44245"><ele></ele><time>2025-9-12T3:57:0Z</time></trkpt>
<trkpt lat="46.22832" lon="7.44249"><ele></ele><time>2025-9-12T3:57:3Z</time></trkpt>
<trkpt lat="46.2283" lon="7.44262"><ele></ele><time>2025-9-12T3:57:6Z</time></trkpt>
<trkpt lat="46.22829" lon="7.44266"><ele></ele><time>2025-9-12T3:57:9Z</time></trkpt>
<trkpt lat="46.22828" lon="7.44273"><ele></ele><time>2025-9-12T3:57:12Z</time></trkpt>
<trkpt lat="46.22828" lon="7.44274"><ele></ele><time>2025-9-12T3:57:15Z</time></trkpt>
<trkpt lat="46.22827" lon="7.4428"><ele></ele><time>2025-9-12T3:57:18Z</time></trkpt>
<trkpt lat="46.22828" lon="7.44285"><ele></ele><time>2025-9-12T3:57:21Z</time></trkpt>
<trkpt lat="46.22829" lon="7.44289"><ele></ele><time>2025-9-12T3:57:24Z</time></trkpt>
<trkpt lat="46.2283" lon="7.44297"><ele></ele><time>2025-9-12T3:57:27Z</time></trkpt>
<trkpt lat="46.22829" lon="7.44304"><ele></ele><time>2025-9-12T3:57:30Z</time></trkpt>
<trkpt lat="46.22828" lon="7.44309"><ele></ele><time>2025-9-12T3:57:33Z</time></trkpt>
<trkpt lat="46.22825" lon="7.44316"><ele></ele><time>2025-9-12T3:57:36Z</time></trkpt>
<trkpt lat="46.22824" lon="7.44324"><ele></ele><time>2025-9-12T3:57:39Z</time></trkpt>
<trkpt lat="46.22824" lon="7.4433"><ele></ele><time>2025-9-12T3:57:42Z</time></trkpt>
<trkpt lat="46.22823" lon="7.44334"><ele></ele><time>2025-9-12T3:57:45Z</time></trkpt>
<trkpt lat="46.22823" lon="7.44343"><ele></ele><time>2025-9-12T3:57:48Z</time></trkpt>
<trkpt lat="46.22823" lon="7.44346"><ele></ele><time>2025-9-12T3:57:51Z</time></trkpt>
<trkpt lat="46.22822" lon="7.44357"><ele></ele><time>2025-9-12T3:57:54Z</time></trkpt>
<trkpt lat="46.22821" lon="7.4437"><ele></ele><time>2025-9-12T3:57:57Z</time></trkpt>
<trkpt lat="46.22821" lon="7.44372"><ele></ele><time>2025-9-12T3:58:0Z</time></trkpt>
<trkpt lat="46.22821" lon="7.44383"><ele></ele><time>2025-9-12T3:58:3Z</time></trkpt>
<trkpt lat="46.22821" lon="7.44385"><ele></ele><time>2025-9-12T3:58:6Z</time></trkpt>
<trkpt lat="46.22821" lon="7.44392"><ele></ele><time>2025-9-12T3:58:9Z</time></trkpt>
<trkpt lat="46.2282" lon="7.44393"><ele></ele><time>2025-9-12T3:58:12Z</time></trkpt>
<trkpt lat="46.2282" lon="7.44395"><ele></ele><time>2025-9-12T3:58:15Z</time></trkpt>
<trkpt lat="46.22819" lon="7.44407"><ele></ele><time>2025-9-12T3:58:18Z</time></trkpt>
<trkpt lat="46.22819" lon="7.44409"><ele></ele><time>2025-9-12T3:58:21Z</time></trkpt>
<trkpt lat="46.22818" lon="7.44422"><ele></ele><time>2025-9-12T3:58:24Z</time></trkpt>
<trkpt lat="46.22815" lon="7.44435"><ele></ele><time>2025-9-12T3:58:27Z</time></trkpt>
<trkpt lat="46.22814" lon="7.44448"><ele></ele><time>2025-9-12T3:58:30Z</time></trkpt>
<trkpt lat="46.22811" lon="7.44463"><ele></ele><time>2025-9-12T3:58:33Z</time></trkpt>
<trkpt lat="46.22808" lon="7.44479"><ele></ele><time>2025-9-12T3:58:36Z</time></trkpt>
<trkpt lat="46.22805" lon="7.4449"><ele></ele><time>2025-9-12T3:58:39Z</time></trkpt>
<trkpt lat="46.22804" lon="7.44496"><ele></ele><time>2025-9-12T3:58:42Z</time></trkpt>
<trkpt lat="46.22803" lon="7.44502"><ele></ele><time>2025-9-12T3:58:45Z</time></trkpt>
<trkpt lat="46.228" lon="7.44511"><ele></ele><time>2025-9-12T3:58:48Z</time></trkpt>
<trkpt lat="46.22801" lon="7.44513"><ele></ele><time>2025-9-12T3:58:51Z</time></trkpt>
<trkpt lat="46.22801" lon="7.44515"><ele></ele><time>2025-9-12T3:58:54Z</time></trkpt>
<trkpt lat="46.22801" lon="7.44522"><ele></ele><time>2025-9-12T3:58:57Z</time></trkpt>
<trkpt lat="46.228" lon="7.44525"><ele></ele><time>2025-9-12T3:59:0Z</time></trkpt>
<trkpt lat="46.22798" lon="7.44535"><ele></ele><time>2025-9-12T3:59:3Z</time></trkpt>
<trkpt lat="46.22797" lon="7.4454"><ele></ele><time>2025-9-12T3:59:6Z</time></trkpt>
<trkpt lat="46.22791" lon="7.44548"><ele></ele><time>2025-9-12T3:59:9Z</time></trkpt>
<trkpt lat="46.22787" lon="7.44557"><ele></ele><time>2025-9-12T3:59:12Z</time></trkpt>
<trkpt lat="46.22787" lon="7.44559"><ele></ele><time>2025-9-12T3:59:15Z</time></trkpt>
<trkpt lat="46.22785" lon="7.44567"><ele></ele><time>2025-9-12T3:59:18Z</time></trkpt>
<trkpt lat="46.22784" lon="7.44572"><ele></ele><time>2025-9-12T3:59:21Z</time></trkpt>
<trkpt lat="46.22785" lon="7.44573"><ele></ele><time>2025-9-12T3:59:24Z</time></trkpt>
<trkpt lat="46.22784" lon="7.44575"><ele></ele><time>2025-9-12T3:59:27Z</time></trkpt>
<trkpt lat="46.22783" lon="7.44576"><ele></ele><time>2025-9-12T3:59:30Z</time></trkpt>
<trkpt lat="46.22782" lon="7.44579"><ele></ele><time>2025-9-12T3:59:33Z</time></trkpt>
<trkpt lat="46.22781" lon="7.44584"><ele></ele><time>2025-9-12T3:59:36Z</time></trkpt>
<trkpt lat="46.22779" lon="7.44586"><ele></ele><time>2025-9-12T3:59:39Z</time></trkpt>
<trkpt lat="46.22777" lon="7.44581"><ele></ele><time>2025-9-12T3:59:42Z</time></trkpt>
<trkpt lat="46.22776" lon="7.44565"><ele></ele><time>2025-9-12T3:59:45Z</time></trkpt>
<trkpt lat="46.22776" lon="7.4456"><ele></ele><time>2025-9-12T3:59:48Z</time></trkpt>
<trkpt lat="46.22777" lon="7.44543"><ele></ele><time>2025-9-12T3:59:51Z</time></trkpt>
<trkpt lat="46.22777" lon="7.44539"><ele></ele><time>2025-9-12T3:59:54Z</time></trkpt>
<trkpt lat="46.22775" lon="7.44532"><ele></ele><time>2025-9-12T3:59:57Z</time></trkpt>
<trkpt lat="46.2277" lon="7.44527"><ele></ele><time>2025-9-12T4:0:0Z</time></trkpt>
<trkpt lat="46.22767" lon="7.44524"><ele></ele><time>2025-9-12T4:0:3Z</time></trkpt>
<trkpt lat="46.22762" lon="7.44516"><ele></ele><time>2025-9-12T4:0:6Z</time></trkpt>
<trkpt lat="46.2276" lon="7.44514"><ele></ele><time>2025-9-12T4:0:9Z</time></trkpt>
<trkpt lat="46.22759" lon="7.44504"><ele></ele><time>2025-9-12T4:0:12Z</time></trkpt>
<trkpt lat="46.22759" lon="7.445"><ele></ele><time>2025-9-12T4:0:15Z</time></trkpt>
<trkpt lat="46.22759" lon="7.44485"><ele></ele><time>2025-9-12T4:0:18Z</time></trkpt>
<trkpt lat="46.22758" lon="7.44471"><ele></ele><time>2025-9-12T4:0:21Z</time></trkpt>
<trkpt lat="46.22761" lon="7.44457"><ele></ele><time>2025-9-12T4:0:24Z</time></trkpt>
<trkpt lat="46.22759" lon="7.44458"><ele></ele><time>2025-9-12T4:0:27Z</time></trkpt>
<trkpt lat="46.22759" lon="7.44463"><ele></ele><time>2025-9-12T4:0:30Z</time></trkpt>
<trkpt lat="46.22759" lon="7.44474"><ele></ele><time>2025-9-12T4:0:33Z</time></trkpt>
<trkpt lat="46.22759" lon="7.44479"><ele></ele><time>2025-9-12T4:0:36Z</time></trkpt>
<trkpt lat="46.22757" lon="7.44496"><ele></ele><time>2025-9-12T4:0:39Z</time></trkpt>
<trkpt lat="46.22758" lon="7.44501"><ele></ele><time>2025-9-12T4:0:42Z</time></trkpt>
<trkpt lat="46.22761" lon="7.44511"><ele></ele><time>2025-9-12T4:0:45Z</time></trkpt>
<trkpt lat="46.22769" lon="7.44521"><ele></ele><time>2025-9-12T4:0:48Z</time></trkpt>
<trkpt lat="46.22772" lon="7.44526"><ele></ele><time>2025-9-12T4:0:51Z</time></trkpt>
<trkpt lat="46.22776" lon="7.44532"><ele></ele><time>2025-9-12T4:0:54Z</time></trkpt>
<trkpt lat="46.22778" lon="7.44547"><ele></ele><time>2025-9-12T4:0:57Z</time></trkpt>
<trkpt lat="46.22778" lon="7.44566"><ele></ele><time>2025-9-12T4:1:0Z</time></trkpt>
<trkpt lat="46.22779" lon="7.44576"><ele></ele><time>2025-9-12T4:1:3Z</time></trkpt>
<trkpt lat="46.2278" lon="7.44585"><ele></ele><time>2025-9-12T4:1:6Z</time></trkpt>
<trkpt lat="46.22781" lon="7.44593"><ele></ele><time>2025-9-12T4:1:9Z</time></trkpt>
<trkpt lat="46.22783" lon="7.44609"><ele></ele><time>2025-9-12T4:1:12Z</time></trkpt>
<trkpt lat="46.22784" lon="7.44613"><ele></ele><time>2025-9-12T4:1:15Z</time></trkpt>
<trkpt lat="46.22787" lon="7.44622"><ele></ele><time>2025-9-12T4:1:18Z</time></trkpt>
<trkpt lat="46.22788" lon="7.44625"><ele></ele><time>2025-9-12T4:1:21Z</time></trkpt>
<trkpt lat="46.2279" lon="7.44635"><ele></ele><time>2025-9-12T4:1:24Z</time></trkpt>
<trkpt lat="46.22791" lon="7.44643"><ele></ele><time>2025-9-12T4:1:27Z</time></trkpt>
<trkpt lat="46.22793" lon="7.44648"><ele></ele><time>2025-9-12T4:1:30Z</time></trkpt>
<trkpt lat="46.22794" lon="7.44658"><ele></ele><time>2025-9-12T4:1:33Z</time></trkpt>
<trkpt lat="46.22794" lon="7.4466"><ele></ele><time>2025-9-12T4:1:36Z</time></trkpt>
<trkpt lat="46.22794" lon="7.44663"><ele></ele><time>2025-9-12T4:1:39Z</time></trkpt>
<trkpt lat="46.22794" lon="7.44675"><ele></ele><time>2025-9-12T4:1:42Z</time></trkpt>
<trkpt lat="46.22794" lon="7.44677"><ele></ele><time>2025-9-12T4:1:45Z</time></trkpt>
<trkpt lat="46.22796" lon="7.4469"><ele></ele><time>2025-9-12T4:1:48Z</time></trkpt>
<trkpt lat="46.22796" lon="7.44694"><ele></ele><time>2025-9-12T4:1:51Z</time></trkpt>
<trkpt lat="46.22796" lon="7.44699"><ele></ele><time>2025-9-12T4:1:54Z</time></trkpt>
<trkpt lat="46.22797" lon="7.44705"><ele></ele><time>2025-9-12T4:1:57Z</time></trkpt>
<trkpt lat="46.22797" lon="7.44708"><ele></ele><time>2025-9-12T4:2:0Z</time></trkpt>
<trkpt lat="46.22797" lon="7.44712"><ele></ele><time>2025-9-12T4:2:3Z</time></trkpt>
<trkpt lat="46.22799" lon="7.44722"><ele></ele><time>2025-9-12T4:2:6Z</time></trkpt>
<trkpt lat="46.228" lon="7.44728"><ele></ele><time>2025-9-12T4:2:9Z</time></trkpt>
<trkpt lat="46.22801" lon="7.44738"><ele></ele><time>2025-9-12T4:2:12Z</time></trkpt>
<trkpt lat="46.22803" lon="7.4475"><ele></ele><time>2025-9-12T4:2:15Z</time></trkpt>
<trkpt lat="46.22803" lon="7.44752"><ele></ele><time>2025-9-12T4:2:18Z</time></trkpt>
<trkpt lat="46.22807" lon="7.44767"><ele></ele><time>2025-9-12T4:2:21Z</time></trkpt>
<trkpt lat="46.22808" lon="7.44769"><ele></ele><time>2025-9-12T4:2:24Z</time></trkpt>
<trkpt lat="46.22809" lon="7.44779"><ele></ele><time>2025-9-12T4:2:27Z</time></trkpt>
<trkpt lat="46.2281" lon="7.44781"><ele></ele><time>2025-9-12T4:2:30Z</time></trkpt>
<trkpt lat="46.22809" lon="7.44786"><ele></ele><time>2025-9-12T4:2:33Z</time></trkpt>
<trkpt lat="46.22807" lon="7.44789"><ele></ele><time>2025-9-12T4:2:36Z</time></trkpt>
<trkpt lat="46.22805" lon="7.44789"><ele></ele><time>2025-9-12T4:2:39Z</time></trkpt>
<trkpt lat="46.22803" lon="7.44789"><ele></ele><time>2025-9-12T4:2:42Z</time></trkpt>
<trkpt lat="46.22802" lon="7.44787"><ele></ele><time>2025-9-12T4:2:45Z</time></trkpt>
<trkpt lat="46.22801" lon="7.44783"><ele></ele><time>2025-9-12T4:2:48Z</time></trkpt>
<trkpt lat="46.22799" lon="7.44777"><ele></ele><time>2025-9-12T4:2:51Z</time></trkpt>
<trkpt lat="46.22797" lon="7.44768"><ele></ele><time>2025-9-12T4:2:54Z</time></trkpt>
<trkpt lat="46.22791" lon="7.44757"><ele></ele><time>2025-9-12T4:2:57Z</time></trkpt>
<trkpt lat="46.22785" lon="7.44748"><ele></ele><time>2025-9-12T4:3:0Z</time></trkpt>
<trkpt lat="46.22784" lon="7.44746"><ele></ele><time>2025-9-12T4:3:3Z</time></trkpt>
<trkpt lat="46.2278" lon="7.44738"><ele></ele><time>2025-9-12T4:3:6Z</time></trkpt>
<trkpt lat="46.22777" lon="7.44731"><ele></ele><time>2025-9-12T4:3:9Z</time></trkpt>
<trkpt lat="46.22776" lon="7.44728"><ele></ele><time>2025-9-12T4:3:12Z</time></trkpt>
<trkpt lat="46.22773" lon="7.44718"><ele></ele><time>2025-9-12T4:3:15Z</time></trkpt>
<trkpt lat="46.22772" lon="7.44714"><ele></ele><time>2025-9-12T4:3:18Z</time></trkpt>
<trkpt lat="46.22771" lon="7.44707"><ele></ele><time>2025-9-12T4:3:21Z</time></trkpt>
<trkpt lat="46.22768" lon="7.447"><ele></ele><time>2025-9-12T4:3:24Z</time></trkpt>
<trkpt lat="46.22766" lon="7.44695"><ele></ele><time>2025-9-12T4:3:27Z</time></trkpt>
<trkpt lat="46.22764" lon="7.44687"><ele></ele><time>2025-9-12T4:3:30Z</time></trkpt>
<trkpt lat="46.22764" lon="7.44685"><ele></ele><time>2025-9-12T4:3:33Z</time></trkpt>
<trkpt lat="46.22761" lon="7.44672"><ele></ele><time>2025-9-12T4:3:36Z</time></trkpt>
<trkpt lat="46.22761" lon="7.4467"><ele></ele><time>2025-9-12T4:3:39Z</time></trkpt>
<trkpt lat="46.22756" lon="7.44661"><ele></ele><time>2025-9-12T4:3:42Z</time></trkpt>
<trkpt lat="46.22753" lon="7.44657"><ele></ele><time>2025-9-12T4:3:45Z</time></trkpt>
<trkpt lat="46.2275" lon="7.44652"><ele></ele><time>2025-9-12T4:3:48Z</time></trkpt>
<trkpt lat="46.22747" lon="7.44649"><ele></ele><time>2025-9-12T4:3:51Z</time></trkpt>
<trkpt lat="46.22743" lon="7.44644"><ele></ele><time>2025-9-12T4:3:54Z</time></trkpt>
<trkpt lat="46.2274" lon="7.4464"><ele></ele><time>2025-9-12T4:3:57Z</time></trkpt>
<trkpt lat="46.22737" lon="7.44629"><ele></ele><time>2025-9-12T4:4:0Z</time></trkpt>
<trkpt lat="46.22737" lon="7.44625"><ele></ele><time>2025-9-12T4:4:3Z</time></trkpt>
<trkpt lat="46.22736" lon="7.4462"><ele></ele><time>2025-9-12T4:4:6Z</time></trkpt>
<trkpt lat="46.22734" lon="7.44615"><ele></ele><time>2025-9-12T4:4:9Z</time></trkpt>
<trkpt lat="46.22734" lon="7.44613"><ele></ele><time>2025-9-12T4:4:12Z</time></trkpt>
<trkpt lat="46.22734" lon="7.44613"><ele></ele><time>2025-9-12T4:4:15Z</time></trkpt>
<trkpt lat="46.22731" lon="7.44602"><ele></ele><time>2025-9-12T4:4:18Z</time></trkpt>
<trkpt lat="46.2273" lon="7.44599"><ele></ele><time>2025-9-12T4:4:21Z</time></trkpt>
<trkpt lat="46.22729" lon="7.44591"><ele></ele><time>2025-9-12T4:4:24Z</time></trkpt>
<trkpt lat="46.22727" lon="7.44585"><ele></ele><time>2025-9-12T4:4:27Z</time></trkpt>
<trkpt lat="46.22726" lon="7.4458"><ele></ele><time>2025-9-12T4:4:30Z</time></trkpt>
<trkpt lat="46.22725" lon="7.44573"><ele></ele><time>2025-9-12T4:4:33Z</time></trkpt>
<trkpt lat="46.22724" lon="7.4457"><ele></ele><time>2025-9-12T4:4:36Z</time></trkpt>
<trkpt lat="46.22722" lon="7.44559"><ele></ele><time>2025-9-12T4:4:39Z</time></trkpt>
<trkpt lat="46.22721" lon="7.44547"><ele></ele><time>2025-9-12T4:4:42Z</time></trkpt>
<trkpt lat="46.22721" lon="7.44544"><ele></ele><time>2025-9-12T4:4:45Z</time></trkpt>
<trkpt lat="46.22719" lon="7.44533"><ele></ele><time>2025-9-12T4:4:48Z</time></trkpt>
<trkpt lat="46.22719" lon="7.44527"><ele></ele><time>2025-9-12T4:4:51Z</time></trkpt>
<trkpt lat="46.22718" lon="7.44517"><ele></ele><time>2025-9-12T4:4:54Z</time></trkpt>
<trkpt lat="46.22716" lon="7.44514"><ele></ele><time>2025-9-12T4:4:57Z</time></trkpt>
<trkpt lat="46.22714" lon="7.44508"><ele></ele><time>2025-9-12T4:5:0Z</time></trkpt>
<trkpt lat="46.22713" lon="7.44502"><ele></ele><time>2025-9-12T4:5:3Z</time></trkpt>
<trkpt lat="46.2271" lon="7.44494"><ele></ele><time>2025-9-12T4:5:6Z</time></trkpt>
<trkpt lat="46.22707" lon="7.44486"><ele></ele><time>2025-9-12T4:5:9Z</time></trkpt>
<trkpt lat="46.22706" lon="7.44482"><ele></ele><time>2025-9-12T4:5:12Z</time></trkpt>
<trkpt lat="46.22703" lon="7.44477"><ele></ele><time>2025-9-12T4:5:15Z</time></trkpt>
<trkpt lat="46.227" lon="7.44469"><ele></ele><time>2025-9-12T4:5:18Z</time></trkpt>
<trkpt lat="46.22699" lon="7.44464"><ele></ele><time>2025-9-12T4:5:21Z</time></trkpt>
<trkpt lat="46.22698" lon="7.44458"><ele></ele><time>2025-9-12T4:5:24Z</time></trkpt>
<trkpt lat="46.22696" lon="7.44453"><ele></ele><time>2025-9-12T4:5:27Z</time></trkpt>
<trkpt lat="46.22695" lon="7.44446"><ele></ele><time>2025-9-12T4:5:30Z</time></trkpt>
<trkpt lat="46.22695" lon="7.44445"><ele></ele><time>2025-9-12T4:5:33Z</time></trkpt>
<trkpt lat="46.22694" lon="7.44438"><ele></ele><time>2025-9-12T4:5:36Z</time></trkpt>
<trkpt lat="46.22692" lon="7.44433"><ele></ele><time>2025-9-12T4:5:39Z</time></trkpt>
<trkpt lat="46.22689" lon="7.44423"><ele></ele><time>2025-9-12T4:5:42Z</time></trkpt>
<trkpt lat="46.22689" lon="7.4442"><ele></ele><time>2025-9-12T4:5:45Z</time></trkpt>
<trkpt lat="46.22687" lon="7.44412"><ele></ele><time>2025-9-12T4:5:48Z</time></trkpt>
<trkpt lat="46.22685" lon="7.44408"><ele></ele><time>2025-9-12T4:5:51Z</time></trkpt>
<trkpt lat="46.22684" lon="7.44403"><ele></ele><time>2025-9-12T4:5:54Z</time></trkpt>
<trkpt lat="46.22683" lon="7.44394"><ele></ele><time>2025-9-12T4:5:57Z</time></trkpt>
<trkpt lat="46.22683" lon="7.44393"><ele></ele><time>2025-9-12T4:6:0Z</time></trkpt>
<trkpt lat="46.22682" lon="7.44391"><ele></ele><time>2025-9-12T4:6:3Z</time></trkpt>
<trkpt lat="46.22681" lon="7.44384"><ele></ele><time>2025-9-12T4:6:6Z</time></trkpt>
<trkpt lat="46.2268" lon="7.44379"><ele></ele><time>2025-9-12T4:6:9Z</time></trkpt>
<trkpt lat="46.22679" lon="7.4437"><ele></ele><time>2025-9-12T4:6:12Z</time></trkpt>
<trkpt lat="46.22678" lon="7.44363"><ele></ele><time>2025-9-12T4:6:15Z</time></trkpt>
<trkpt lat="46.22677" lon="7.44359"><ele></ele><time>2025-9-12T4:6:18Z</time></trkpt>
<trkpt lat="46.22677" lon="7.44349"><ele></ele><time>2025-9-12T4:6:21Z</time></trkpt>
<trkpt lat="46.22677" lon="7.44345"><ele></ele><time>2025-9-12T4:6:24Z</time></trkpt>
<trkpt lat="46.22678" lon="7.44333"><ele></ele><time>2025-9-12T4:6:27Z</time></trkpt>
<trkpt lat="46.22678" lon="7.4432"><ele></ele><time>2025-9-12T4:6:30Z</time></trkpt>
<trkpt lat="46.22677" lon="7.44316"><ele></ele><time>2025-9-12T4:6:33Z</time></trkpt>
<trkpt lat="46.22677" lon="7.44314"><ele></ele><time>2025-9-12T4:6:36Z</time></trkpt>
<trkpt lat="46.22678" lon="7.44309"><ele></ele><time>2025-9-12T4:6:39Z</time></trkpt>
<trkpt lat="46.22676" lon="7.443"><ele></ele><time>2025-9-12T4:6:42Z</time></trkpt>
<trkpt lat="46.22675" lon="7.44296"><ele></ele><time>2025-9-12T4:6:45Z</time></trkpt>
<trkpt lat="46.22673" lon="7.44286"><ele></ele><time>2025-9-12T4:6:48Z</time></trkpt>
<trkpt lat="46.22672" lon="7.44282"><ele></ele><time>2025-9-12T4:6:51Z</time></trkpt>
<trkpt lat="46.22671" lon="7.44276"><ele></ele><time>2025-9-12T4:6:54Z</time></trkpt>
<trkpt lat="46.22669" lon="7.44268"><ele></ele><time>2025-9-12T4:6:57Z</time></trkpt>
<trkpt lat="46.22667" lon="7.44262"><ele></ele><time>2025-9-12T4:7:0Z</time></trkpt>
<trkpt lat="46.22665" lon="7.44252"><ele></ele><time>2025-9-12T4:7:3Z</time></trkpt>
<trkpt lat="46.22661" lon="7.44239"><ele></ele><time>2025-9-12T4:7:6Z</time></trkpt>
<trkpt lat="46.2266" lon="7.44237"><ele></ele><time>2025-9-12T4:7:9Z</time></trkpt>
<trkpt lat="46.22656" lon="7.44223"><ele></ele><time>2025-9-12T4:7:12Z</time></trkpt>
<trkpt lat="46.22651" lon="7.4421"><ele></ele><time>2025-9-12T4:7:15Z</time></trkpt>
<trkpt lat="46.2265" lon="7.44208"><ele></ele><time>2025-9-12T4:7:18Z</time></trkpt>
<trkpt lat="46.22647" lon="7.44195"><ele></ele><time>2025-9-12T4:7:21Z</time></trkpt>
<trkpt lat="46.22644" lon="7.44185"><ele></ele><time>2025-9-12T4:7:24Z</time></trkpt>
<trkpt lat="46.22643" lon="7.44183"><ele></ele><time>2025-9-12T4:7:27Z</time></trkpt>
<trkpt lat="46.2264" lon="7.44172"><ele></ele><time>2025-9-12T4:7:30Z</time></trkpt>
<trkpt lat="46.22639" lon="7.44169"><ele></ele><time>2025-9-12T4:7:33Z</time></trkpt>
<trkpt lat="46.22638" lon="7.44163"><ele></ele><time>2025-9-12T4:7:36Z</time></trkpt>
<trkpt lat="46.22638" lon="7.44162"><ele></ele><time>2025-9-12T4:7:39Z</time></trkpt>
<trkpt lat="46.22637" lon="7.4416"><ele></ele><time>2025-9-12T4:7:42Z</time></trkpt>
<trkpt lat="46.22635" lon="7.44158"><ele></ele><time>2025-9-12T4:7:45Z</time></trkpt>
<trkpt lat="46.22634" lon="7.44156"><ele></ele><time>2025-9-12T4:7:48Z</time></trkpt>
<trkpt lat="46.22631" lon="7.44148"><ele></ele><time>2025-9-12T4:7:51Z</time></trkpt>
<trkpt lat="46.2263" lon="7.44143"><ele></ele><time>2025-9-12T4:7:54Z</time></trkpt>
<trkpt lat="46.2263" lon="7.44139"><ele></ele><time>2025-9-12T4:7:57Z</time></trkpt>
<trkpt lat="46.22628" lon="7.4413"><ele></ele><time>2025-9-12T4:8:0Z</time></trkpt>
<trkpt lat="46.22627" lon="7.44124"><ele></ele><time>2025-9-12T4:8:3Z</time></trkpt>
<trkpt lat="46.22626" lon="7.44119"><ele></ele><time>2025-9-12T4:8:6Z</time></trkpt>
<trkpt lat="46.22625" lon="7.44108"><ele></ele><time>2025-9-12T4:8:9Z</time></trkpt>
<trkpt lat="46.22624" lon="7.44102"><ele></ele><time>2025-9-12T4:8:12Z</time></trkpt>
<trkpt lat="46.22624" lon="7.44094"><ele></ele><time>2025-9-12T4:8:15Z</time></trkpt>
<trkpt lat="46.22621" lon="7.4408"><ele></ele><time>2025-9-12T4:8:18Z</time></trkpt>
<trkpt lat="46.22621" lon="7.44078"><ele></ele><time>2025-9-12T4:8:21Z</time></trkpt>
<trkpt lat="46.22618" lon="7.4407"><ele></ele><time>2025-9-12T4:8:24Z</time></trkpt>
<trkpt lat="46.22616" lon="7.44064"><ele></ele><time>2025-9-12T4:8:27Z</time></trkpt>
<trkpt lat="46.22614" lon="7.44059"><ele></ele><time>2025-9-12T4:8:30Z</time></trkpt>
<trkpt lat="46.2261" lon="7.4405"><ele></ele><time>2025-9-12T4:8:33Z</time></trkpt>
<trkpt lat="46.22609" lon="7.44047"><ele></ele><time>2025-9-12T4:8:36Z</time></trkpt>
<trkpt lat="46.22603" lon="7.44036"><ele></ele><time>2025-9-12T4:8:39Z</time></trkpt>
<trkpt lat="46.226" lon="7.44023"><ele></ele><time>2025-9-12T4:8:42Z</time></trkpt>
<trkpt lat="46.22597" lon="7.44013"><ele></ele><time>2025-9-12T4:8:45Z</time></trkpt>
<trkpt lat="46.22595" lon="7.44007"><ele></ele><time>2025-9-12T4:8:48Z</time></trkpt>
<trkpt lat="46.22591" lon="7.43998"><ele></ele><time>2025-9-12T4:8:51Z</time></trkpt>
<trkpt lat="46.22587" lon="7.43993"><ele></ele><time>2025-9-12T4:8:54Z</time></trkpt>
<trkpt lat="46.2258" lon="7.4398"><ele></ele><time>2025-9-12T4:8:57Z</time></trkpt>
<trkpt lat="46.22579" lon="7.43978"><ele></ele><time>2025-9-12T4:9:0Z</time></trkpt>
<trkpt lat="46.22573" lon="7.43964"><ele></ele><time>2025-9-12T4:9:3Z</time></trkpt>
<trkpt lat="46.22572" lon="7.43963"><ele></ele><time>2025-9-12T4:9:6Z</time></trkpt>
<trkpt lat="46.22565" lon="7.43954"><ele></ele><time>2025-9-12T4:9:9Z</time></trkpt>
<trkpt lat="46.22564" lon="7.43952"><ele></ele><time>2025-9-12T4:9:12Z</time></trkpt>
<trkpt lat="46.22562" lon="7.43947"><ele></ele><time>2025-9-12T4:9:15Z</time></trkpt>
<trkpt lat="46.22559" lon="7.4394"><ele></ele><time>2025-9-12T4:9:18Z</time></trkpt>
<trkpt lat="46.22559" lon="7.43939"><ele></ele><time>2025-9-12T4:9:21Z</time></trkpt>
<trkpt lat="46.22556" lon="7.43928"><ele></ele><time>2025-9-12T4:9:24Z</time></trkpt>
<trkpt lat="46.22556" lon="7.43926"><ele></ele><time>2025-9-12T4:9:27Z</time></trkpt>
<trkpt lat="46.2255" lon="7.43916"><ele></ele><time>2025-9-12T4:9:30Z</time></trkpt>
<trkpt lat="46.22543" lon="7.43907"><ele></ele><time>2025-9-12T4:9:33Z</time></trkpt>
<trkpt lat="46.22542" lon="7.43906"><ele></ele><time>2025-9-12T4:9:36Z</time></trkpt>
<trkpt lat="46.22536" lon="7.43897"><ele></ele><time>2025-9-12T4:9:39Z</time></trkpt>
<trkpt lat="46.22533" lon="7.43893"><ele></ele><time>2025-9-12T4:9:42Z</time></trkpt>
<trkpt lat="46.22527" lon="7.43888"><ele></ele><time>2025-9-12T4:9:45Z</time></trkpt>
<trkpt lat="46.22524" lon="7.43884"><ele></ele><time>2025-9-12T4:9:48Z</time></trkpt>
<trkpt lat="46.22519" lon="7.43875"><ele></ele><time>2025-9-12T4:9:51Z</time></trkpt>
<trkpt lat="46.22517" lon="7.43873"><ele></ele><time>2025-9-12T4:9:54Z</time></trkpt>
<trkpt lat="46.22511" lon="7.43866"><ele></ele><time>2025-9-12T4:9:57Z</time></trkpt>
<trkpt lat="46.22509" lon="7.43862"><ele></ele><time>2025-9-12T4:10:0Z</time></trkpt>
<trkpt lat="46.22507" lon="7.4386"><ele></ele><time>2025-9-12T4:10:3Z</time></trkpt>
<trkpt lat="46.22502" lon="7.43855"><ele></ele><time>2025-9-12T4:10:6Z</time></trkpt>
<trkpt lat="46.22498" lon="7.43851"><ele></ele><time>2025-9-12T4:10:9Z</time></trkpt>
<trkpt lat="46.22494" lon="7.43847"><ele></ele><time>2025-9-12T4:10:12Z</time></trkpt>
<trkpt lat="46.2249" lon="7.43841"><ele></ele><time>2025-9-12T4:10:15Z</time></trkpt>
<trkpt lat="46.22488" lon="7.43838"><ele></ele><time>2025-9-12T4:10:18Z</time></trkpt>
<trkpt lat="46.22481" lon="7.43831"><ele></ele><time>2025-9-12T4:10:21Z</time></trkpt>
<trkpt lat="46.2248" lon="7.4383"><ele></ele><time>2025-9-12T4:10:24Z</time></trkpt>
<trkpt lat="46.22473" lon="7.43822"><ele></ele><time>2025-9-12T4:10:27Z</time></trkpt>
<trkpt lat="46.22468" lon="7.43814"><ele></ele><time>2025-9-12T4:10:30Z</time></trkpt>
<trkpt lat="46.22461" lon="7.43802"><ele></ele><time>2025-9-12T4:10:33Z</time></trkpt>
<trkpt lat="46.2246" lon="7.43801"><ele></ele><time>2025-9-12T4:10:36Z</time></trkpt>
<trkpt lat="46.22455" lon="7.43787"><ele></ele><time>2025-9-12T4:10:39Z</time></trkpt>
<trkpt lat="46.22449" lon="7.43773"><ele></ele><time>2025-9-12T4:10:42Z</time></trkpt>
<trkpt lat="46.22448" lon="7.43771"><ele></ele><time>2025-9-12T4:10:45Z</time></trkpt>
<trkpt lat="46.22444" lon="7.43763"><ele></ele><time>2025-9-12T4:10:48Z</time></trkpt>
<trkpt lat="46.22437" lon="7.43752"><ele></ele><time>2025-9-12T4:10:51Z</time></trkpt>
<trkpt lat="46.22436" lon="7.43751"><ele></ele><time>2025-9-12T4:10:54Z</time></trkpt>
<trkpt lat="46.22431" lon="7.43743"><ele></ele><time>2025-9-12T4:10:57Z</time></trkpt>
<trkpt lat="46.2243" lon="7.43741"><ele></ele><time>2025-9-12T4:11:0Z</time></trkpt>
<trkpt lat="46.22427" lon="7.43735"><ele></ele><time>2025-9-12T4:11:3Z</time></trkpt>
<trkpt lat="46.22423" lon="7.4373"><ele></ele><time>2025-9-12T4:11:6Z</time></trkpt>
<trkpt lat="46.22422" lon="7.43727"><ele></ele><time>2025-9-12T4:11:9Z</time></trkpt>
<trkpt lat="46.22416" lon="7.43719"><ele></ele><time>2025-9-12T4:11:12Z</time></trkpt>
<trkpt lat="46.22415" lon="7.43718"><ele></ele><time>2025-9-12T4:11:15Z</time></trkpt>
<trkpt lat="46.22411" lon="7.43709"><ele></ele><time>2025-9-12T4:11:18Z</time></trkpt>
<trkpt lat="46.22409" lon="7.43706"><ele></ele><time>2025-9-12T4:11:21Z</time></trkpt>
<trkpt lat="46.22403" lon="7.43695"><ele></ele><time>2025-9-12T4:11:24Z</time></trkpt>
<trkpt lat="46.22403" lon="7.43693"><ele></ele><time>2025-9-12T4:11:27Z</time></trkpt>
<trkpt lat="46.224" lon="7.43686"><ele></ele><time>2025-9-12T4:11:30Z</time></trkpt>
<trkpt lat="46.22397" lon="7.43682"><ele></ele><time>2025-9-12T4:11:33Z</time></trkpt>
<trkpt lat="46.22395" lon="7.43678"><ele></ele><time>2025-9-12T4:11:36Z</time></trkpt>
<trkpt lat="46.22391" lon="7.43671"><ele></ele><time>2025-9-12T4:11:39Z</time></trkpt>
<trkpt lat="46.22389" lon="7.43668"><ele></ele><time>2025-9-12T4:11:42Z</time></trkpt>
<trkpt lat="46.22384" lon="7.43661"><ele></ele><time>2025-9-12T4:11:45Z</time></trkpt>
<trkpt lat="46.22381" lon="7.4366"><ele></ele><time>2025-9-12T4:11:48Z</time></trkpt>
<trkpt lat="46.22374" lon="7.43653"><ele></ele><time>2025-9-12T4:11:51Z</time></trkpt>
<trkpt lat="46.22369" lon="7.43647"><ele></ele><time>2025-9-12T4:11:54Z</time></trkpt>
<trkpt lat="46.22367" lon="7.43646"><ele></ele><time>2025-9-12T4:11:57Z</time></trkpt>
<trkpt lat="46.22366" lon="7.43644"><ele></ele><time>2025-9-12T4:12:0Z</time></trkpt>
<trkpt lat="46.22365" lon="7.43642"><ele></ele><time>2025-9-12T4:12:3Z</time></trkpt>
<trkpt lat="46.22359" lon="7.43633"><ele></ele><time>2025-9-12T4:12:6Z</time></trkpt>
<trkpt lat="46.22353" lon="7.43627"><ele></ele><time>2025-9-12T4:12:9Z</time></trkpt>
<trkpt lat="46.22352" lon="7.43624"><ele></ele><time>2025-9-12T4:12:12Z</time></trkpt>
<trkpt lat="46.22349" lon="7.43618"><ele></ele><time>2025-9-12T4:12:15Z</time></trkpt>
<trkpt lat="46.22344" lon="7.43613"><ele></ele><time>2025-9-12T4:12:18Z</time></trkpt>
<trkpt lat="46.2234" lon="7.43608"><ele></ele><time>2025-9-12T4:12:21Z</time></trkpt>
<trkpt lat="46.22336" lon="7.43603"><ele></ele><time>2025-9-12T4:12:24Z</time></trkpt>
<trkpt lat="46.22333" lon="7.43599"><ele></ele><time>2025-9-12T4:12:27Z</time></trkpt>
<trkpt lat="46.22328" lon="7.43596"><ele></ele><time>2025-9-12T4:12:30Z</time></trkpt>
<trkpt lat="46.22326" lon="7.43594"><ele></ele><time>2025-9-12T4:12:33Z</time></trkpt>
<trkpt lat="46.22319" lon="7.43587"><ele></ele><time>2025-9-12T4:12:36Z</time></trkpt>
<trkpt lat="46.22314" lon="7.43582"><ele></ele><time>2025-9-12T4:12:39Z</time></trkpt>
<trkpt lat="46.22309" lon="7.43577"><ele></ele><time>2025-9-12T4:12:42Z</time></trkpt>
<trkpt lat="46.22305" lon="7.43574"><ele></ele><time>2025-9-12T4:12:45Z</time></trkpt>
<trkpt lat="46.22298" lon="7.43571"><ele></ele><time>2025-9-12T4:12:48Z</time></trkpt>
<trkpt lat="46.22293" lon="7.43566"><ele></ele><time>2025-9-12T4:12:51Z</time></trkpt>
<trkpt lat="46.2229" lon="7.43563"><ele></ele><time>2025-9-12T4:12:54Z</time></trkpt>
<trkpt lat="46.22287" lon="7.43559"><ele></ele><time>2025-9-12T4:12:57Z</time></trkpt>
<trkpt lat="46.22283" lon="7.43556"><ele></ele><time>2025-9-12T4:13:0Z</time></trkpt>
<trkpt lat="46.2228" lon="7.43552"><ele></ele><time>2025-9-12T4:13:3Z</time></trkpt>
<trkpt lat="46.22275" lon="7.43547"><ele></ele><time>2025-9-12T4:13:6Z</time></trkpt>
<trkpt lat="46.22273" lon="7.43543"><ele></ele><time>2025-9-12T4:13:9Z</time></trkpt>
<trkpt lat="46.22269" lon="7.43537"><ele></ele><time>2025-9-12T4:13:12Z</time></trkpt>
<trkpt lat="46.22266" lon="7.43536"><ele></ele><time>2025-9-12T4:13:15Z</time></trkpt>
<trkpt lat="46.22264" lon="7.43534"><ele></ele><time>2025-9-12T4:13:18Z</time></trkpt>
<trkpt lat="46.22263" lon="7.4353"><ele></ele><time>2025-9-12T4:13:21Z</time></trkpt>
<trkpt lat="46.22263" lon="7.43529"><ele></ele><time>2025-9-12T4:13:24Z</time></trkpt>
<trkpt lat="46.22261" lon="7.43526"><ele></ele><time>2025-9-12T4:13:27Z</time></trkpt>
<trkpt lat="46.22259" lon="7.43523"><ele></ele><time>2025-9-12T4:13:30Z</time></trkpt>
<trkpt lat="46.22257" lon="7.4352"><ele></ele><time>2025-9-12T4:13:33Z</time></trkpt>
<trkpt lat="46.22254" lon="7.43514"><ele></ele><time>2025-9-12T4:13:36Z</time></trkpt>
<trkpt lat="46.22252" lon="7.43511"><ele></ele><time>2025-9-12T4:13:39Z</time></trkpt>
<trkpt lat="46.22248" lon="7.43505"><ele></ele><time>2025-9-12T4:13:42Z</time></trkpt>
<trkpt lat="46.22243" lon="7.43498"><ele></ele><time>2025-9-12T4:13:45Z</time></trkpt>
<trkpt lat="46.22238" lon="7.43495"><ele></ele><time>2025-9-12T4:13:48Z</time></trkpt>
<trkpt lat="46.22236" lon="7.43494"><ele></ele><time>2025-9-12T4:13:51Z</time></trkpt>
<trkpt lat="46.22229" lon="7.43489"><ele></ele><time>2025-9-12T4:13:54Z</time></trkpt>
<trkpt lat="46.22228" lon="7.43488"><ele></ele><time>2025-9-12T4:13:57Z</time></trkpt>
<trkpt lat="46.22227" lon="7.43486"><ele></ele><time>2025-9-12T4:14:0Z</time></trkpt>
<trkpt lat="46.22223" lon="7.43483"><ele></ele><time>2025-9-12T4:14:3Z</time></trkpt>
<trkpt lat="46.22222" lon="7.43483"><ele></ele><time>2025-9-12T4:14:6Z</time></trkpt>
<trkpt lat="46.2222" lon="7.43482"><ele></ele><time>2025-9-12T4:14:9Z</time></trkpt>
<trkpt lat="46.22216" lon="7.43483"><ele></ele><time>2025-9-12T4:14:12Z</time></trkpt>
<trkpt lat="46.22214" lon="7.43484"><ele></ele><time>2025-9-12T4:14:15Z</time></trkpt>
<trkpt lat="46.22213" lon="7.43485"><ele></ele><time>2025-9-12T4:14:18Z</time></trkpt>
<trkpt lat="46.22207" lon="7.43496"><ele></ele><time>2025-9-12T4:14:21Z</time></trkpt>
<trkpt lat="46.22207" lon="7.435"><ele></ele><time>2025-9-12T4:14:24Z</time></trkpt>
<trkpt lat="46.22204" lon="7.43506"><ele></ele><time>2025-9-12T4:14:27Z</time></trkpt>
<trkpt lat="46.22201" lon="7.43514"><ele></ele><time>2025-9-12T4:14:30Z</time></trkpt>
<trkpt lat="46.22201" lon="7.43515"><ele></ele><time>2025-9-12T4:14:33Z</time></trkpt>
<trkpt lat="46.22199" lon="7.43522"><ele></ele><time>2025-9-12T4:14:36Z</time></trkpt>
<trkpt lat="46.22198" lon="7.43527"><ele></ele><time>2025-9-12T4:14:39Z</time></trkpt>
<trkpt lat="46.22196" lon="7.43533"><ele></ele><time>2025-9-12T4:14:42Z</time></trkpt>
<trkpt lat="46.22195" lon="7.43542"><ele></ele><time>2025-9-12T4:14:45Z</time></trkpt>
<trkpt lat="46.22194" lon="7.43545"><ele></ele><time>2025-9-12T4:14:48Z</time></trkpt>
<trkpt lat="46.2219" lon="7.43556"><ele></ele><time>2025-9-12T4:14:51Z</time></trkpt>
<trkpt lat="46.2219" lon="7.43557"><ele></ele><time>2025-9-12T4:14:54Z</time></trkpt>
<trkpt lat="46.22182" lon="7.43565"><ele></ele><time>2025-9-12T4:14:57Z</time></trkpt>
<trkpt lat="46.2218" lon="7.43567"><ele></ele><time>2025-9-12T4:15:0Z</time></trkpt>
<trkpt lat="46.22171" lon="7.43568"><ele></ele><time>2025-9-12T4:15:3Z</time></trkpt>
<trkpt lat="46.22168" lon="7.43568"><ele></ele><time>2025-9-12T4:15:6Z</time></trkpt>
<trkpt lat="46.22167" lon="7.43568"><ele></ele><time>2025-9-12T4:15:9Z</time></trkpt>
<trkpt lat="46.22165" lon="7.43567"><ele></ele><time>2025-9-12T4:15:12Z</time></trkpt>
<trkpt lat="46.22161" lon="7.43566"><ele></ele><time>2025-9-12T4:15:15Z</time></trkpt>
<trkpt lat="46.2216" lon="7.43565"><ele></ele><time>2025-9-12T4:15:18Z</time></trkpt>
<trkpt lat="46.22159" lon="7.43565"><ele></ele><time>2025-9-12T4:15:21Z</time></trkpt>
<trkpt lat="46.22155" lon="7.43564"><ele></ele><time>2025-9-12T4:15:24Z</time></trkpt>
<trkpt lat="46.22146" lon="7.43559"><ele></ele><time>2025-9-12T4:15:27Z</time></trkpt>
<trkpt lat="46.22141" lon="7.43552"><ele></ele><time>2025-9-12T4:15:30Z</time></trkpt>
<trkpt lat="46.22137" lon="7.43549"><ele></ele><time>2025-9-12T4:15:33Z</time></trkpt>
<trkpt lat="46.22133" lon="7.43545"><ele></ele><time>2025-9-12T4:15:36Z</time></trkpt>
<trkpt lat="46.22129" lon="7.43542"><ele></ele><time>2025-9-12T4:15:39Z</time></trkpt>
<trkpt lat="46.22127" lon="7.43542"><ele></ele><time>2025-9-12T4:15:42Z</time></trkpt>
<trkpt lat="46.22124" lon="7.43548"><ele></ele><time>2025-9-12T4:15:45Z</time></trkpt>
<trkpt lat="46.22124" lon="7.4355"><ele></ele><time>2025-9-12T4:15:48Z</time></trkpt>
<trkpt lat="46.22128" lon="7.43559"><ele></ele><time>2025-9-12T4:15:51Z</time></trkpt>
<trkpt lat="46.22132" lon="7.43563"><ele></ele><time>2025-9-12T4:15:54Z</time></trkpt>
<trkpt lat="46.22134" lon="7.43565"><ele></ele><time>2025-9-12T4:15:57Z</time></trkpt>
<trkpt lat="46.2214" lon="7.43572"><ele></ele><time>2025-9-12T4:16:0Z</time></trkpt>
<trkpt lat="46.22141" lon="7.43574"><ele></ele><time>2025-9-12T4:16:3Z</time></trkpt>
<trkpt lat="46.22146" lon="7.43579"><ele></ele><time>2025-9-12T4:16:6Z</time></trkpt>
<trkpt lat="46.22152" lon="7.43585"><ele></ele><time>2025-9-12T4:16:9Z</time></trkpt>
<trkpt lat="46.22153" lon="7.43585"><ele></ele><time>2025-9-12T4:16:12Z</time></trkpt>
<trkpt lat="46.2216" lon="7.43588"><ele></ele><time>2025-9-12T4:16:15Z</time></trkpt>
<trkpt lat="46.22161" lon="7.43588"><ele></ele><time>2025-9-12T4:16:18Z</time></trkpt>
<trkpt lat="46.22163" lon="7.43588"><ele></ele><time>2025-9-12T4:16:21Z</time></trkpt>
<trkpt lat="46.22165" lon="7.43588"><ele></ele><time>2025-9-12T4:16:24Z</time></trkpt>
<trkpt lat="46.2217" lon="7.43589"><ele></ele><time>2025-9-12T4:16:27Z</time></trkpt>
<trkpt lat="46.22171" lon="7.43589"><ele></ele><time>2025-9-12T4:16:30Z</time></trkpt>
<trkpt lat="46.22177" lon="7.43591"><ele></ele><time>2025-9-12T4:16:33Z</time></trkpt>
<trkpt lat="46.22179" lon="7.43593"><ele></ele><time>2025-9-12T4:16:36Z</time></trkpt>
<trkpt lat="46.22182" lon="7.43595"><ele></ele><time>2025-9-12T4:16:39Z</time></trkpt>
<trkpt lat="46.22185" lon="7.43596"><ele></ele><time>2025-9-12T4:16:42Z</time></trkpt>
<trkpt lat="46.22188" lon="7.43598"><ele></ele><time>2025-9-12T4:16:45Z</time></trkpt>
<trkpt lat="46.22194" lon="7.43603"><ele></ele><time>2025-9-12T4:16:48Z</time></trkpt>
<trkpt lat="46.222" lon="7.43609"><ele></ele><time>2025-9-12T4:16:51Z</time></trkpt>
<trkpt lat="46.22204" lon="7.43613"><ele></ele><time>2025-9-12T4:16:54Z</time></trkpt>
<trkpt lat="46.22207" lon="7.43617"><ele></ele><time>2025-9-12T4:16:57Z</time></trkpt>
<trkpt lat="46.2221" lon="7.43621"><ele></ele><time>2025-9-12T4:17:0Z</time></trkpt>
<trkpt lat="46.22211" lon="7.43625"><ele></ele><time>2025-9-12T4:17:3Z</time></trkpt>
<trkpt lat="46.22215" lon="7.43632"><ele></ele><time>2025-9-12T4:17:6Z</time></trkpt>
<trkpt lat="46.22216" lon="7.43634"><ele></ele><time>2025-9-12T4:17:9Z</time></trkpt>
<trkpt lat="46.22221" lon="7.43643"><ele></ele><time>2025-9-12T4:17:12Z</time></trkpt>
<trkpt lat="46.22222" lon="7.43645"><ele></ele><time>2025-9-12T4:17:15Z</time></trkpt>
<trkpt lat="46.22227" lon="7.43655"><ele></ele><time>2025-9-12T4:17:18Z</time></trkpt>
<trkpt lat="46.22227" lon="7.43657"><ele></ele><time>2025-9-12T4:17:21Z</time></trkpt>
<trkpt lat="46.2223" lon="7.43661"><ele></ele><time>2025-9-12T4:17:24Z</time></trkpt>
<trkpt lat="46.22233" lon="7.43665"><ele></ele><time>2025-9-12T4:17:27Z</time></trkpt>
<trkpt lat="46.22235" lon="7.43669"><ele></ele><time>2025-9-12T4:17:30Z</time></trkpt>
<trkpt lat="46.22239" lon="7.43677"><ele></ele><time>2025-9-12T4:17:33Z</time></trkpt>
<trkpt lat="46.2224" lon="7.43679"><ele></ele><time>2025-9-12T4:17:36Z</time></trkpt>
<trkpt lat="46.22247" lon="7.43685"><ele></ele><time>2025-9-12T4:17:39Z</time></trkpt>
<trkpt lat="46.22252" lon="7.43694"><ele></ele><time>2025-9-12T4:17:42Z</time></trkpt>
<trkpt lat="46.22253" lon="7.43695"><ele></ele><time>2025-9-12T4:17:45Z</time></trkpt>
<trkpt lat="46.22256" lon="7.437"><ele></ele><time>2025-9-12T4:17:48Z</time></trkpt>
<trkpt lat="46.2226" lon="7.43705"><ele></ele><time>2025-9-12T4:17:51Z</time></trkpt>
<trkpt lat="46.22261" lon="7.43706"><ele></ele><time>2025-9-12T4:17:54Z</time></trkpt>
<trkpt lat="46.22265" lon="7.43716"><ele></ele><time>2025-9-12T4:17:57Z</time></trkpt>
<trkpt lat="46.22266" lon="7.43718"><ele></ele><time>2025-9-12T4:18:0Z</time></trkpt>
<trkpt lat="46.2227" lon="7.43724"><ele></ele><time>2025-9-12T4:18:3Z</time></trkpt>
<trkpt lat="46.22272" lon="7.43727"><ele></ele><time>2025-9-12T4:18:6Z</time></trkpt>
<trkpt lat="46.22275" lon="7.43735"><ele></ele><time>2025-9-12T4:18:9Z</time></trkpt>
<trkpt lat="46.22276" lon="7.43738"><ele></ele><time>2025-9-12T4:18:12Z</time></trkpt>
<trkpt lat="46.22279" lon="7.43744"><ele></ele><time>2025-9-12T4:18:15Z</time></trkpt>
<trkpt lat="46.22281" lon="7.43753"><ele></ele><time>2025-9-12T4:18:18Z</time></trkpt>
<trkpt lat="46.22281" lon="7.43756"><ele></ele><time>2025-9-12T4:18:21Z</time></trkpt>
<trkpt lat="46.22282" lon="7.43768"><ele></ele><time>2025-9-12T4:18:24Z</time></trkpt>
<trkpt lat="46.22285" lon="7.43778"><ele></ele><time>2025-9-12T4:18:27Z</time></trkpt>
<trkpt lat="46.22285" lon="7.4378"><ele></ele><time>2025-9-12T4:18:30Z</time></trkpt>
<trkpt lat="46.22288" lon="7.4379"><ele></ele><time>2025-9-12T4:18:33Z</time></trkpt>
<trkpt lat="46.22289" lon="7.43794"><ele></ele><time>2025-9-12T4:18:36Z</time></trkpt>
<trkpt lat="46.22291" lon="7.43803"><ele></ele><time>2025-9-12T4:18:39Z</time></trkpt>
<trkpt lat="46.22291" lon="7.43805"><ele></ele><time>2025-9-12T4:18:42Z</time></trkpt>
<trkpt lat="46.22291" lon="7.43815"><ele></ele><time>2025-9-12T4:18:45Z</time></trkpt>
<trkpt lat="46.22293" lon="7.43827"><ele></ele><time>2025-9-12T4:18:48Z</time></trkpt>
<trkpt lat="46.22294" lon="7.43842"><ele></ele><time>2025-9-12T4:18:51Z</time></trkpt>
<trkpt lat="46.22294" lon="7.43843"><ele></ele><time>2025-9-12T4:18:54Z</time></trkpt>
<trkpt lat="46.22295" lon="7.43856"><ele></ele><time>2025-9-12T4:18:57Z</time></trkpt>
<trkpt lat="46.22297" lon="7.43866"><ele></ele><time>2025-9-12T4:19:0Z</time></trkpt>
<trkpt lat="46.22298" lon="7.43867"><ele></ele><time>2025-9-12T4:19:3Z</time></trkpt>
<trkpt lat="46.22301" lon="7.43879"><ele></ele><time>2025-9-12T4:19:6Z</time></trkpt>
<trkpt lat="46.22302" lon="7.43881"><ele></ele><time>2025-9-12T4:19:9Z</time></trkpt>
<trkpt lat="46.22305" lon="7.43885"><ele></ele><time>2025-9-12T4:19:12Z</time></trkpt>
<trkpt lat="46.22308" lon="7.43892"><ele></ele><time>2025-9-12T4:19:15Z</time></trkpt>
<trkpt lat="46.22309" lon="7.43897"><ele></ele><time>2025-9-12T4:19:18Z</time></trkpt>
<trkpt lat="46.22312" lon="7.43907"><ele></ele><time>2025-9-12T4:19:21Z</time></trkpt>
<trkpt lat="46.22312" lon="7.4391"><ele></ele><time>2025-9-12T4:19:24Z</time></trkpt>
<trkpt lat="46.22314" lon="7.43921"><ele></ele><time>2025-9-12T4:19:27Z</time></trkpt>
<trkpt lat="46.22315" lon="7.43922"><ele></ele><time>2025-9-12T4:19:30Z</time></trkpt>
<trkpt lat="46.22314" lon="7.43925"><ele></ele><time>2025-9-12T4:19:33Z</time></trkpt>
<trkpt lat="46.22315" lon="7.43932"><ele></ele><time>2025-9-12T4:19:36Z</time></trkpt>
<trkpt lat="46.22317" lon="7.4394"><ele></ele><time>2025-9-12T4:19:39Z</time></trkpt>
<trkpt lat="46.22318" lon="7.43947"><ele></ele><time>2025-9-12T4:19:42Z</time></trkpt>
<trkpt lat="46.22319" lon="7.43953"><ele></ele><time>2025-9-12T4:19:45Z</time></trkpt>
<trkpt lat="46.22319" lon="7.43957"><ele></ele><time>2025-9-12T4:19:48Z</time></trkpt>
<trkpt lat="46.22321" lon="7.43969"><ele></ele><time>2025-9-12T4:19:51Z</time></trkpt>
<trkpt lat="46.22321" lon="7.43971"><ele></ele><time>2025-9-12T4:19:54Z</time></trkpt>
<trkpt lat="46.22322" lon="7.43982"><ele></ele><time>2025-9-12T4:19:57Z</time></trkpt>
<trkpt lat="46.22322" lon="7.43983"><ele></ele><time>2025-9-12T4:20:0Z</time></trkpt>
<trkpt lat="46.22321" lon="7.43987"><ele></ele><time>2025-9-12T4:20:3Z</time></trkpt>
<trkpt lat="46.22322" lon="7.43992"><ele></ele><time>2025-9-12T4:20:6Z</time></trkpt>
<trkpt lat="46.22322" lon="7.43995"><ele></ele><time>2025-9-12T4:20:9Z</time></trkpt>
<trkpt lat="46.22322" lon="7.44003"><ele></ele><time>2025-9-12T4:20:12Z</time></trkpt>
<trkpt lat="46.22322" lon="7.44013"><ele></ele><time>2025-9-12T4:20:15Z</time></trkpt>
<trkpt lat="46.22322" lon="7.44015"><ele></ele><time>2025-9-12T4:20:18Z</time></trkpt>
<trkpt lat="46.22323" lon="7.44027"><ele></ele><time>2025-9-12T4:20:21Z</time></trkpt>
<trkpt lat="46.22322" lon="7.44029"><ele></ele><time>2025-9-12T4:20:24Z</time></trkpt>
<trkpt lat="46.22321" lon="7.4404"><ele></ele><time>2025-9-12T4:20:27Z</time></trkpt>
<trkpt lat="46.22321" lon="7.44043"><ele></ele><time>2025-9-12T4:20:30Z</time></trkpt>
<trkpt lat="46.22319" lon="7.44055"><ele></ele><time>2025-9-12T4:20:33Z</time></trkpt>
<trkpt lat="46.22318" lon="7.4406"><ele></ele><time>2025-9-12T4:20:36Z</time></trkpt>
<trkpt lat="46.22316" lon="7.44065"><ele></ele><time>2025-9-12T4:20:39Z</time></trkpt>
<trkpt lat="46.22314" lon="7.44071"><ele></ele><time>2025-9-12T4:20:42Z</time></trkpt>
<trkpt lat="46.22313" lon="7.44076"><ele></ele><time>2025-9-12T4:20:45Z</time></trkpt>
<trkpt lat="46.22312" lon="7.44085"><ele></ele><time>2025-9-12T4:20:48Z</time></trkpt>
<trkpt lat="46.22311" lon="7.44087"><ele></ele><time>2025-9-12T4:20:51Z</time></trkpt>
<trkpt lat="46.22313" lon="7.44095"><ele></ele><time>2025-9-12T4:20:54Z</time></trkpt>
<trkpt lat="46.22315" lon="7.44104"><ele></ele><time>2025-9-12T4:20:57Z</time></trkpt>
<trkpt lat="46.22316" lon="7.44106"><ele></ele><time>2025-9-12T4:21:0Z</time></trkpt>
<trkpt lat="46.22318" lon="7.44113"><ele></ele><time>2025-9-12T4:21:3Z</time></trkpt>
<trkpt lat="46.2232" lon="7.44119"><ele></ele><time>2025-9-12T4:21:6Z</time></trkpt>
<trkpt lat="46.2232" lon="7.44121"><ele></ele><time>2025-9-12T4:21:9Z</time></trkpt>
<trkpt lat="46.22323" lon="7.44133"><ele></ele><time>2025-9-12T4:21:12Z</time></trkpt>
<trkpt lat="46.22324" lon="7.44142"><ele></ele><time>2025-9-12T4:21:15Z</time></trkpt>
<trkpt lat="46.22324" lon="7.44146"><ele></ele><time>2025-9-12T4:21:18Z</time></trkpt>
<trkpt lat="46.22324" lon="7.44157"><ele></ele><time>2025-9-12T4:21:21Z</time></trkpt>
<trkpt lat="46.22323" lon="7.44158"><ele></ele><time>2025-9-12T4:21:24Z</time></trkpt>
<trkpt lat="46.22321" lon="7.44167"><ele></ele><time>2025-9-12T4:21:27Z</time></trkpt>
<trkpt lat="46.2232" lon="7.44171"><ele></ele><time>2025-9-12T4:21:30Z</time></trkpt>
<trkpt lat="46.22319" lon="7.44177"><ele></ele><time>2025-9-12T4:21:33Z</time></trkpt>
<trkpt lat="46.22319" lon="7.44178"><ele></ele><time>2025-9-12T4:21:36Z</time></trkpt>
<trkpt lat="46.2232" lon="7.44185"><ele></ele><time>2025-9-12T4:21:39Z</time></trkpt>
<trkpt lat="46.22321" lon="7.4419"><ele></ele><time>2025-9-12T4:21:42Z</time></trkpt>
<trkpt lat="46.22321" lon="7.44193"><ele></ele><time>2025-9-12T4:21:45Z</time></trkpt>
<trkpt lat="46.22323" lon="7.44195"><ele></ele><time>2025-9-12T4:21:48Z</time></trkpt>
<trkpt lat="46.22325" lon="7.442"><ele></ele><time>2025-9-12T4:21:51Z</time></trkpt>
<trkpt lat="46.22325" lon="7.44201"><ele></ele><time>2025-9-12T4:21:54Z</time></trkpt>
<trkpt lat="46.22327" lon="7.44209"><ele></ele><time>2025-9-12T4:21:57Z</time></trkpt>
<trkpt lat="46.22327" lon="7.4421"><ele></ele><time>2025-9-12T4:22:0Z</time></trkpt>
<trkpt lat="46.22328" lon="7.44215"><ele></ele><time>2025-9-12T4:22:3Z</time></trkpt>
<trkpt lat="46.22331" lon="7.44222"><ele></ele><time>2025-9-12T4:22:6Z</time></trkpt>
<trkpt lat="46.22333" lon="7.44234"><ele></ele><time>2025-9-12T4:22:9Z</time></trkpt>
<trkpt lat="46.22333" lon="7.44246"><ele></ele><time>2025-9-12T4:22:12Z</time></trkpt>
<trkpt lat="46.22333" lon="7.44249"><ele></ele><time>2025-9-12T4:22:15Z</time></trkpt>
<trkpt lat="46.22334" lon="7.44257"><ele></ele><time>2025-9-12T4:22:18Z</time></trkpt>
<trkpt lat="46.22334" lon="7.44265"><ele></ele><time>2025-9-12T4:22:21Z</time></trkpt>
<trkpt lat="46.22333" lon="7.44268"><ele></ele><time>2025-9-12T4:22:24Z</time></trkpt>
<trkpt lat="46.22332" lon="7.44277"><ele></ele><time>2025-9-12T4:22:27Z</time></trkpt>
<trkpt lat="46.22331" lon="7.44279"><ele></ele><time>2025-9-12T4:22:30Z</time></trkpt>
<trkpt lat="46.2233" lon="7.44287"><ele></ele><time>2025-9-12T4:22:33Z</time></trkpt>
<trkpt lat="46.2233" lon="7.44293"><ele></ele><time>2025-9-12T4:22:36Z</time></trkpt>
<trkpt lat="46.2233" lon="7.44298"><ele></ele><time>2025-9-12T4:22:39Z</time></trkpt>
<trkpt lat="46.2233" lon="7.44303"><ele></ele><time>2025-9-12T4:22:42Z</time></trkpt>
<trkpt lat="46.22331" lon="7.44305"><ele></ele><time>2025-9-12T4:22:45Z</time></trkpt>
<trkpt lat="46.22331" lon="7.44307"><ele></ele><time>2025-9-12T4:22:48Z</time></trkpt>
<trkpt lat="46.2233" lon="7.44312"><ele></ele><time>2025-9-12T4:22:51Z</time></trkpt>
<trkpt lat="46.2233" lon="7.44314"><ele></ele><time>2025-9-12T4:22:54Z</time></trkpt>
<trkpt lat="46.2233" lon="7.44315"><ele></ele><time>2025-9-12T4:22:57Z</time></trkpt>
<trkpt lat="46.22331" lon="7.4432"><ele></ele><time>2025-9-12T4:23:0Z</time></trkpt>
<trkpt lat="46.22332" lon="7.44324"><ele></ele><time>2025-9-12T4:23:3Z</time></trkpt>
<trkpt lat="46.22333" lon="7.44327"><ele></ele><time>2025-9-12T4:23:6Z</time></trkpt>
<trkpt lat="46.22335" lon="7.44331"><ele></ele><time>2025-9-12T4:23:9Z</time></trkpt>
<trkpt lat="46.22336" lon="7.44333"><ele></ele><time>2025-9-12T4:23:12Z</time></trkpt>
<trkpt lat="46.22337" lon="7.44335"><ele></ele><time>2025-9-12T4:23:15Z</time></trkpt>
<trkpt lat="46.2234" lon="7.44342"><ele></ele><time>2025-9-12T4:23:18Z</time></trkpt>
<trkpt lat="46.22342" lon="7.44349"><ele></ele><time>2025-9-12T4:23:21Z</time></trkpt>
<trkpt lat="46.22342" lon="7.44351"><ele></ele><time>2025-9-12T4:23:24Z</time></trkpt>
<trkpt lat="46.22342" lon="7.44361"><ele></ele><time>2025-9-12T4:23:27Z</time></trkpt>
<trkpt lat="46.22341" lon="7.44364"><ele></ele><time>2025-9-12T4:23:30Z</time></trkpt>
<trkpt lat="46.2234" lon="7.44371"><ele></ele><time>2025-9-12T4:23:33Z</time></trkpt>
<trkpt lat="46.22339" lon="7.44377"><ele></ele><time>2025-9-12T4:23:36Z</time></trkpt>
<trkpt lat="46.22338" lon="7.44381"><ele></ele><time>2025-9-12T4:23:39Z</time></trkpt>
<trkpt lat="46.22337" lon="7.4439"><ele></ele><time>2025-9-12T4:23:42Z</time></trkpt>
<trkpt lat="46.22336" lon="7.44394"><ele></ele><time>2025-9-12T4:23:45Z</time></trkpt>
<trkpt lat="46.22335" lon="7.44401"><ele></ele><time>2025-9-12T4:23:48Z</time></trkpt>
<trkpt lat="46.22336" lon="7.44405"><ele></ele><time>2025-9-12T4:23:51Z</time></trkpt>
<trkpt lat="46.22336" lon="7.4441"><ele></ele><time>2025-9-12T4:23:54Z</time></trkpt>
<trkpt lat="46.22336" lon="7.44418"><ele></ele><time>2025-9-12T4:23:57Z</time></trkpt>
<trkpt lat="46.22337" lon="7.44421"><ele></ele><time>2025-9-12T4:24:0Z</time></trkpt>
<trkpt lat="46.22338" lon="7.44431"><ele></ele><time>2025-9-12T4:24:3Z</time></trkpt>
<trkpt lat="46.22343" lon="7.44443"><ele></ele><time>2025-9-12T4:24:6Z</time></trkpt>
<trkpt lat="46.22347" lon="7.44454"><ele></ele><time>2025-9-12T4:24:9Z</time></trkpt>
<trkpt lat="46.22351" lon="7.44467"><ele></ele><time>2025-9-12T4:24:12Z</time></trkpt>
<trkpt lat="46.22351" lon="7.44471"><ele></ele><time>2025-9-12T4:24:15Z</time></trkpt>
<trkpt lat="46.22351" lon="7.44477"><ele></ele><time>2025-9-12T4:24:18Z</time></trkpt>
<trkpt lat="46.2235" lon="7.44485"><ele></ele><time>2025-9-12T4:24:21Z</time></trkpt>
<trkpt lat="46.2235" lon="7.44489"><ele></ele><time>2025-9-12T4:24:24Z</time></trkpt>
<trkpt lat="46.22352" lon="7.445"><ele></ele><time>2025-9-12T4:24:27Z</time></trkpt>
<trkpt lat="46.22352" lon="7.4451"><ele></ele><time>2025-9-12T4:24:30Z</time></trkpt>
<trkpt lat="46.22354" lon="7.44514"><ele></ele><time>2025-9-12T4:24:33Z</time></trkpt>
<trkpt lat="46.22354" lon="7.44517"><ele></ele><time>2025-9-12T4:24:36Z</time></trkpt>
<trkpt lat="46.22355" lon="7.44527"><ele></ele><time>2025-9-12T4:24:39Z</time></trkpt>
<trkpt lat="46.22356" lon="7.44528"><ele></ele><time>2025-9-12T4:24:42Z</time></trkpt>
<trkpt lat="46.22356" lon="7.44535"><ele></ele><time>2025-9-12T4:24:45Z</time></trkpt>
<trkpt lat="46.22356" lon="7.44538"><ele></ele><time>2025-9-12T4:24:48Z</time></trkpt>
<trkpt lat="46.22357" lon="7.44542"><ele></ele><time>2025-9-12T4:24:51Z</time></trkpt>
<trkpt lat="46.22357" lon="7.44549"><ele></ele><time>2025-9-12T4:24:54Z</time></trkpt>
<trkpt lat="46.22357" lon="7.44553"><ele></ele><time>2025-9-12T4:24:57Z</time></trkpt>
<trkpt lat="46.22357" lon="7.44561"><ele></ele><time>2025-9-12T4:25:0Z</time></trkpt>
<trkpt lat="46.22355" lon="7.44566"><ele></ele><time>2025-9-12T4:25:3Z</time></trkpt>
<trkpt lat="46.22353" lon="7.44572"><ele></ele><time>2025-9-12T4:25:6Z</time></trkpt>
<trkpt lat="46.2235" lon="7.4458"><ele></ele><time>2025-9-12T4:25:9Z</time></trkpt>
<trkpt lat="46.2235" lon="7.44581"><ele></ele><time>2025-9-12T4:25:12Z</time></trkpt>
<trkpt lat="46.22347" lon="7.44586"><ele></ele><time>2025-9-12T4:25:15Z</time></trkpt>
<trkpt lat="46.22347" lon="7.44588"><ele></ele><time>2025-9-12T4:25:18Z</time></trkpt>
<trkpt lat="46.22347" lon="7.44593"><ele></ele><time>2025-9-12T4:25:21Z</time></trkpt>
<trkpt lat="46.22346" lon="7.44604"><ele></ele><time>2025-9-12T4:25:24Z</time></trkpt>
<trkpt lat="46.22346" lon="7.44606"><ele></ele><time>2025-9-12T4:25:27Z</time></trkpt>
<trkpt lat="46.22346" lon="7.4462"><ele></ele><time>2025-9-12T4:25:30Z</time></trkpt>
<trkpt lat="46.22346" lon="7.44622"><ele></ele><time>2025-9-12T4:25:33Z</time></trkpt>
<trkpt lat="46.22346" lon="7.44624"><ele></ele><time>2025-9-12T4:25:36Z</time></trkpt>
<trkpt lat="46.22344" lon="7.44637"><ele></ele><time>2025-9-12T4:25:39Z</time></trkpt>
<trkpt lat="46.22344" lon="7.44646"><ele></ele><time>2025-9-12T4:25:42Z</time></trkpt>
<trkpt lat="46.22344" lon="7.44651"><ele></ele><time>2025-9-12T4:25:45Z</time></trkpt>
<trkpt lat="46.22342" lon="7.44665"><ele></ele><time>2025-9-12T4:25:48Z</time></trkpt>
<trkpt lat="46.22342" lon="7.44667"><ele></ele><time>2025-9-12T4:25:51Z</time></trkpt>
<trkpt lat="46.2234" lon="7.44674"><ele></ele><time>2025-9-12T4:25:54Z</time></trkpt>
<trkpt lat="46.2234" lon="7.44676"><ele></ele><time>2025-9-12T4:25:57Z</time></trkpt>
<trkpt lat="46.22337" lon="7.44683"><ele></ele><time>2025-9-12T4:26:0Z</time></trkpt>
<trkpt lat="46.22336" lon="7.44688"><ele></ele><time>2025-9-12T4:26:3Z</time></trkpt>
<trkpt lat="46.22335" lon="7.44696"><ele></ele><time>2025-9-12T4:26:6Z</time></trkpt>
<trkpt lat="46.22335" lon="7.44702"><ele></ele><time>2025-9-12T4:26:9Z</time></trkpt>
<trkpt lat="46.22335" lon="7.44705"><ele></ele><time>2025-9-12T4:26:12Z</time></trkpt>
<trkpt lat="46.22336" lon="7.44713"><ele></ele><time>2025-9-12T4:26:15Z</time></trkpt>
<trkpt lat="46.22336" lon="7.44714"><ele></ele><time>2025-9-12T4:26:18Z</time></trkpt>
<trkpt lat="46.22336" lon="7.44716"><ele></ele><time>2025-9-12T4:26:21Z</time></trkpt>
<trkpt lat="46.22337" lon="7.4473"><ele></ele><time>2025-9-12T4:26:24Z</time></trkpt>
<trkpt lat="46.22337" lon="7.44731"><ele></ele><time>2025-9-12T4:26:27Z</time></trkpt>
<trkpt lat="46.22337" lon="7.44741"><ele></ele><time>2025-9-12T4:26:30Z</time></trkpt>
<trkpt lat="46.22338" lon="7.44744"><ele></ele><time>2025-9-12T4:26:33Z</time></trkpt>
<trkpt lat="46.22338" lon="7.44751"><ele></ele><time>2025-9-12T4:26:36Z</time></trkpt>
<trkpt lat="46.22337" lon="7.44759"><ele></ele><time>2025-9-12T4:26:39Z</time></trkpt>
<trkpt lat="46.22337" lon="7.44762"><ele></ele><time>2025-9-12T4:26:42Z</time></trkpt>
<trkpt lat="46.22336" lon="7.44765"><ele></ele><time>2025-9-12T4:26:45Z</time></trkpt>
<trkpt lat="46.22333" lon="7.44771"><ele></ele><time>2025-9-12T4:26:48Z</time></trkpt>
<trkpt lat="46.22332" lon="7.44774"><ele></ele><time>2025-9-12T4:26:51Z</time></trkpt>
<trkpt lat="46.22325" lon="7.44782"><ele></ele><time>2025-9-12T4:26:54Z</time></trkpt>
<trkpt lat="46.22318" lon="7.44791"><ele></ele><time>2025-9-12T4:26:57Z</time></trkpt>
<trkpt lat="46.22313" lon="7.44799"><ele></ele><time>2025-9-12T4:27:0Z</time></trkpt>
<trkpt lat="46.22313" lon="7.44801"><ele></ele><time>2025-9-12T4:27:3Z</time></trkpt>
<trkpt lat="46.22307" lon="7.44813"><ele></ele><time>2025-9-12T4:27:6Z</time></trkpt>
<trkpt lat="46.22304" lon="7.44822"><ele></ele><time>2025-9-12T4:27:9Z</time></trkpt>
<trkpt lat="46.22303" lon="7.44824"><ele></ele><time>2025-9-12T4:27:12Z</time></trkpt>
<trkpt lat="46.22301" lon="7.44829"><ele></ele><time>2025-9-12T4:27:15Z</time></trkpt>
<trkpt lat="46.22301" lon="7.44836"><ele></ele><time>2025-9-12T4:27:18Z</time></trkpt>
<trkpt lat="46.22301" lon="7.44843"><ele></ele><time>2025-9-12T4:27:21Z</time></trkpt>
<trkpt lat="46.22303" lon="7.4485"><ele></ele><time>2025-9-12T4:27:24Z</time></trkpt>
<trkpt lat="46.22304" lon="7.44855"><ele></ele><time>2025-9-12T4:27:27Z</time></trkpt>
<trkpt lat="46.22305" lon="7.44862"><ele></ele><time>2025-9-12T4:27:30Z</time></trkpt>
<trkpt lat="46.22306" lon="7.4487"><ele></ele><time>2025-9-12T4:27:33Z</time></trkpt>
<trkpt lat="46.22306" lon="7.44879"><ele></ele><time>2025-9-12T4:27:36Z</time></trkpt>
<trkpt lat="46.22306" lon="7.44886"><ele></ele><time>2025-9-12T4:27:39Z</time></trkpt>
<trkpt lat="46.22305" lon="7.44892"><ele></ele><time>2025-9-12T4:27:42Z</time></trkpt>
<trkpt lat="46.22303" lon="7.44899"><ele></ele><time>2025-9-12T4:27:45Z</time></trkpt>
<trkpt lat="46.22303" lon="7.44901"><ele></ele><time>2025-9-12T4:27:48Z</time></trkpt>
<trkpt lat="46.22302" lon="7.44902"><ele></ele><time>2025-9-12T4:27:51Z</time></trkpt>
<trkpt lat="46.223" lon="7.44912"><ele></ele><time>2025-9-12T4:27:54Z</time></trkpt>
<trkpt lat="46.223" lon="7.44914"><ele></ele><time>2025-9-12T4:27:57Z</time></trkpt>
<trkpt lat="46.22299" lon="7.4492"><ele></ele><time>2025-9-12T4:28:0Z</time></trkpt>
<trkpt lat="46.22298" lon="7.44923"><ele></ele><time>2025-9-12T4:28:3Z</time></trkpt>
<trkpt lat="46.22298" lon="7.44924"><ele></ele><time>2025-9-12T4:28:6Z</time></trkpt>
<trkpt lat="46.22298" lon="7.44927"><ele></ele><time>2025-9-12T4:28:9Z</time></trkpt>
<trkpt lat="46.22296" lon="7.44935"><ele></ele><time>2025-9-12T4:28:12Z</time></trkpt>
<trkpt lat="46.22295" lon="7.44938"><ele></ele><time>2025-9-12T4:28:15Z</time></trkpt>
<trkpt lat="46.22295" lon="7.44945"><ele></ele><time>2025-9-12T4:28:18Z</time></trkpt>
<trkpt lat="46.22293" lon="7.44955"><ele></ele><time>2025-9-12T4:28:21Z</time></trkpt>
<trkpt lat="46.22293" lon="7.44957"><ele></ele><time>2025-9-12T4:28:24Z</time></trkpt>
<trkpt lat="46.22292" lon="7.44965"><ele></ele><time>2025-9-12T4:28:27Z</time></trkpt>
<trkpt lat="46.22292" lon="7.44974"><ele></ele><time>2025-9-12T4:28:30Z</time></trkpt>
<trkpt lat="46.22291" lon="7.44978"><ele></ele><time>2025-9-12T4:28:33Z</time></trkpt>
<trkpt lat="46.22291" lon="7.44989"><ele></ele><time>2025-9-12T4:28:36Z</time></trkpt>
<trkpt lat="46.2229" lon="7.45"><ele></ele><time>2025-9-12T4:28:39Z</time></trkpt>
<trkpt lat="46.2229" lon="7.45001"><ele></ele><time>2025-9-12T4:28:42Z</time></trkpt>
<trkpt lat="46.22288" lon="7.45014"><ele></ele><time>2025-9-12T4:28:45Z</time></trkpt>
<trkpt lat="46.22288" lon="7.45015"><ele></ele><time>2025-9-12T4:28:48Z</time></trkpt>
<trkpt lat="46.22287" lon="7.45025"><ele></ele><time>2025-9-12T4:28:51Z</time></trkpt>
<trkpt lat="46.22287" lon="7.45026"><ele></ele><time>2025-9-12T4:28:54Z</time></trkpt>
<trkpt lat="46.22285" lon="7.45036"><ele></ele><time>2025-9-12T4:28:57Z</time></trkpt>
<trkpt lat="46.22285" lon="7.45037"><ele></ele><time>2025-9-12T4:29:0Z</time></trkpt>
<trkpt lat="46.22284" lon="7.45041"><ele></ele><time>2025-9-12T4:29:3Z</time></trkpt>
<trkpt lat="46.22284" lon="7.45042"><ele></ele><time>2025-9-12T4:29:6Z</time></trkpt>
<trkpt lat="46.22285" lon="7.45044"><ele></ele><time>2025-9-12T4:29:9Z</time></trkpt>
<trkpt lat="46.22284" lon="7.45047"><ele></ele><time>2025-9-12T4:29:12Z</time></trkpt>
<trkpt lat="46.22283" lon="7.45049"><ele></ele><time>2025-9-12T4:29:15Z</time></trkpt>
<trkpt lat="46.22282" lon="7.45053"><ele></ele><time>2025-9-12T4:29:18Z</time></trkpt>
<trkpt lat="46.22281" lon="7.45057"><ele></ele><time>2025-9-12T4:29:21Z</time></trkpt>
<trkpt lat="46.2228" lon="7.45068"><ele></ele><time>2025-9-12T4:29:24Z</time></trkpt>
<trkpt lat="46.22281" lon="7.45069"><ele></ele><time>2025-9-12T4:29:27Z</time></trkpt>
<trkpt lat="46.22283" lon="7.45076"><ele></ele><time>2025-9-12T4:29:30Z</time></trkpt>
<trkpt lat="46.22284" lon="7.45082"><ele></ele><time>2025-9-12T4:29:33Z</time></trkpt>
<trkpt lat="46.22284" lon="7.45083"><ele></ele><time>2025-9-12T4:29:36Z</time></trkpt>
<trkpt lat="46.22285" lon="7.45088"><ele></ele><time>2025-9-12T4:29:39Z</time></trkpt>
<trkpt lat="46.22285" lon="7.45096"><ele></ele><time>2025-9-12T4:29:42Z</time></trkpt>
<trkpt lat="46.22287" lon="7.45107"><ele></ele><time>2025-9-12T4:29:45Z</time></trkpt>
<trkpt lat="46.22287" lon="7.45113"><ele></ele><time>2025-9-12T4:29:48Z</time></trkpt>
<trkpt lat="46.22288" lon="7.45117"><ele></ele><time>2025-9-12T4:29:51Z</time></trkpt>
<trkpt lat="46.22288" lon="7.45127"><ele></ele><time>2025-9-12T4:29:54Z</time></trkpt>
<trkpt lat="46.22286" lon="7.45139"><ele></ele><time>2025-9-12T4:29:57Z</time></trkpt>
<trkpt lat="46.22284" lon="7.45144"><ele></ele><time>2025-9-12T4:30:0Z</time></trkpt>
<trkpt lat="46.22282" lon="7.45152"><ele></ele><time>2025-9-12T4:30:3Z</time></trkpt>
<trkpt lat="46.22278" lon="7.45167"><ele></ele><time>2025-9-12T4:30:6Z</time></trkpt>
<trkpt lat="46.22277" lon="7.45172"><ele></ele><time>2025-9-12T4:30:9Z</time></trkpt>
<trkpt lat="46.22276" lon="7.45187"><ele></ele><time>2025-9-12T4:30:12Z</time></trkpt>
<trkpt lat="46.2228" lon="7.45203"><ele></ele><time>2025-9-12T4:30:15Z</time></trkpt>
<trkpt lat="46.22281" lon="7.45206"><ele></ele><time>2025-9-12T4:30:18Z</time></trkpt>
<trkpt lat="46.22284" lon="7.45221"><ele></ele><time>2025-9-12T4:30:21Z</time></trkpt>
<trkpt lat="46.22285" lon="7.45227"><ele></ele><time>2025-9-12T4:30:24Z</time></trkpt>
<trkpt lat="46.22286" lon="7.45233"><ele></ele><time>2025-9-12T4:30:27Z</time></trkpt>
<trkpt lat="46.2229" lon="7.45243"><ele></ele><time>2025-9-12T4:30:30Z</time></trkpt>
<trkpt lat="46.22292" lon="7.45246"><ele></ele><time>2025-9-12T4:30:33Z</time></trkpt>
<trkpt lat="46.22295" lon="7.45257"><ele></ele><time>2025-9-12T4:30:36Z</time></trkpt>
<trkpt lat="46.22296" lon="7.45263"><ele></ele><time>2025-9-12T4:30:39Z</time></trkpt>
<trkpt lat="46.22295" lon="7.45274"><ele></ele><time>2025-9-12T4:30:42Z</time></trkpt>
<trkpt lat="46.22294" lon="7.45279"><ele></ele><time>2025-9-12T4:30:45Z</time></trkpt>
<trkpt lat="46.22293" lon="7.45282"><ele></ele><time>2025-9-12T4:30:48Z</time></trkpt>
<trkpt lat="46.22291" lon="7.45287"><ele></ele><time>2025-9-12T4:30:51Z</time></trkpt>
<trkpt lat="46.2229" lon="7.45291"><ele></ele><time>2025-9-12T4:30:54Z</time></trkpt>
<trkpt lat="46.22289" lon="7.45299"><ele></ele><time>2025-9-12T4:30:57Z</time></trkpt>
<trkpt lat="46.22289" lon="7.45301"><ele></ele><time>2025-9-12T4:31:0Z</time></trkpt>
<trkpt lat="46.22286" lon="7.45307"><ele></ele><time>2025-9-12T4:31:3Z</time></trkpt>
<trkpt lat="46.22285" lon="7.45308"><ele></ele><time>2025-9-12T4:31:6Z</time></trkpt>
<trkpt lat="46.22282" lon="7.45307"><ele></ele><time>2025-9-12T4:31:9Z</time></trkpt>
<trkpt lat="46.22282" lon="7.45305"><ele></ele><time>2025-9-12T4:31:12Z</time></trkpt>
<trkpt lat="46.2228" lon="7.45305"><ele></ele><time>2025-9-12T4:31:15Z</time></trkpt>
<trkpt lat="46.22279" lon="7.45307"><ele></ele><time>2025-9-12T4:31:18Z</time></trkpt>
<trkpt lat="46.22278" lon="7.4532"><ele></ele><time>2025-9-12T4:31:21Z</time></trkpt>
<trkpt lat="46.22276" lon="7.45323"><ele></ele><time>2025-9-12T4:31:24Z</time></trkpt>
<trkpt lat="46.22272" lon="7.45331"><ele></ele><time>2025-9-12T4:31:27Z</time></trkpt>
<trkpt lat="46.22268" lon="7.45336"><ele></ele><time>2025-9-12T4:31:30Z</time></trkpt>
<trkpt lat="46.22264" lon="7.45341"><ele></ele><time>2025-9-12T4:31:33Z</time></trkpt>
<trkpt lat="46.2226" lon="7.45347"><ele></ele><time>2025-9-12T4:31:36Z</time></trkpt>
<trkpt lat="46.22259" lon="7.45348"><ele></ele><time>2025-9-12T4:31:39Z</time></trkpt>
<trkpt lat="46.22255" lon="7.45356"><ele></ele><time>2025-9-12T4:31:42Z</time></trkpt>
<trkpt lat="46.22254" lon="7.45361"><ele></ele><time>2025-9-12T4:31:45Z</time></trkpt>
<trkpt lat="46.2225" lon="7.45367"><ele></ele><time>2025-9-12T4:31:48Z</time></trkpt>
<trkpt lat="46.22247" lon="7.45372"><ele></ele><time>2025-9-12T4:31:51Z</time></trkpt>
<trkpt lat="46.22245" lon="7.45374"><ele></ele><time>2025-9-12T4:31:54Z</time></trkpt>
<trkpt lat="46.22237" lon="7.45378"><ele></ele><time>2025-9-12T4:31:57Z</time></trkpt>
<trkpt lat="46.22227" lon="7.45381"><ele></ele><time>2025-9-12T4:32:0Z</time></trkpt>
<trkpt lat="46.22225" lon="7.45383"><ele></ele><time>2025-9-12T4:32:3Z</time></trkpt>
<trkpt lat="46.22221" lon="7.45386"><ele></ele><time>2025-9-12T4:32:6Z</time></trkpt>
<trkpt lat="46.22216" lon="7.45389"><ele></ele><time>2025-9-12T4:32:9Z</time></trkpt>
<trkpt lat="46.22215" lon="7.45392"><ele></ele><time>2025-9-12T4:32:12Z</time></trkpt>
<trkpt lat="46.2221" lon="7.45404"><ele></ele><time>2025-9-12T4:32:15Z</time></trkpt>
<trkpt lat="46.22209" lon="7.45406"><ele></ele><time>2025-9-12T4:32:18Z</time></trkpt>
<trkpt lat="46.22205" lon="7.45415"><ele></ele><time>2025-9-12T4:32:21Z</time></trkpt>
<trkpt lat="46.22204" lon="7.45416"><ele></ele><time>2025-9-12T4:32:24Z</time></trkpt>
<trkpt lat="46.222" lon="7.45425"><ele></ele><time>2025-9-12T4:32:27Z</time></trkpt>
<trkpt lat="46.22199" lon="7.45426"><ele></ele><time>2025-9-12T4:32:30Z</time></trkpt>
<trkpt lat="46.22194" lon="7.45433"><ele></ele><time>2025-9-12T4:32:33Z</time></trkpt>
<trkpt lat="46.22188" lon="7.4544"><ele></ele><time>2025-9-12T4:32:36Z</time></trkpt>
<trkpt lat="46.22185" lon="7.45445"><ele></ele><time>2025-9-12T4:32:39Z</time></trkpt>
<trkpt lat="46.22179" lon="7.4545"><ele></ele><time>2025-9-12T4:32:42Z</time></trkpt>
<trkpt lat="46.22179" lon="7.45452"><ele></ele><time>2025-9-12T4:32:45Z</time></trkpt>
<trkpt lat="46.22173" lon="7.4546"><ele></ele><time>2025-9-12T4:32:48Z</time></trkpt>
<trkpt lat="46.22171" lon="7.45462"><ele></ele><time>2025-9-12T4:32:51Z</time></trkpt>
<trkpt lat="46.22167" lon="7.45466"><ele></ele><time>2025-9-12T4:32:54Z</time></trkpt>
<trkpt lat="46.22166" lon="7.4547"><ele></ele><time>2025-9-12T4:32:57Z</time></trkpt>
<trkpt lat="46.22164" lon="7.45476"><ele></ele><time>2025-9-12T4:33:0Z</time></trkpt>
<trkpt lat="46.22161" lon="7.45481"><ele></ele><time>2025-9-12T4:33:3Z</time></trkpt>
<trkpt lat="46.22159" lon="7.45485"><ele></ele><time>2025-9-12T4:33:6Z</time></trkpt>
<trkpt lat="46.22157" lon="7.45488"><ele></ele><time>2025-9-12T4:33:9Z</time></trkpt>
<trkpt lat="46.22151" lon="7.45495"><ele></ele><time>2025-9-12T4:33:12Z</time></trkpt>
<trkpt lat="46.22147" lon="7.45499"><ele></ele><time>2025-9-12T4:33:15Z</time></trkpt>
<trkpt lat="46.22143" lon="7.45504"><ele></ele><time>2025-9-12T4:33:18Z</time></trkpt>
<trkpt lat="46.22141" lon="7.45507"><ele></ele><time>2025-9-12T4:33:21Z</time></trkpt>
<trkpt lat="46.22137" lon="7.45512"><ele></ele><time>2025-9-12T4:33:24Z</time></trkpt>
<trkpt lat="46.22137" lon="7.45513"><ele></ele><time>2025-9-12T4:33:27Z</time></trkpt>
<trkpt lat="46.22134" lon="7.45518"><ele></ele><time>2025-9-12T4:33:30Z</time></trkpt>
<trkpt lat="46.22132" lon="7.45521"><ele></ele><time>2025-9-12T4:33:33Z</time></trkpt>
<trkpt lat="46.22128" lon="7.45528"><ele></ele><time>2025-9-12T4:33:36Z</time></trkpt>
<trkpt lat="46.22125" lon="7.45533"><ele></ele><time>2025-9-12T4:33:39Z</time></trkpt>
<trkpt lat="46.2212" lon="7.45544"><ele></ele><time>2025-9-12T4:33:42Z</time></trkpt>
<trkpt lat="46.22119" lon="7.45547"><ele></ele><time>2025-9-12T4:33:45Z</time></trkpt>
<trkpt lat="46.22115" lon="7.45557"><ele></ele><time>2025-9-12T4:33:48Z</time></trkpt>
<trkpt lat="46.22114" lon="7.45562"><ele></ele><time>2025-9-12T4:33:51Z</time></trkpt>
<trkpt lat="46.22111" lon="7.45574"><ele></ele><time>2025-9-12T4:33:54Z</time></trkpt>
<trkpt lat="46.2211" lon="7.45584"><ele></ele><time>2025-9-12T4:33:57Z</time></trkpt>
<trkpt lat="46.22109" lon="7.45589"><ele></ele><time>2025-9-12T4:34:0Z</time></trkpt>
<trkpt lat="46.22106" lon="7.45602"><ele></ele><time>2025-9-12T4:34:3Z</time></trkpt>
<trkpt lat="46.22106" lon="7.45605"><ele></ele><time>2025-9-12T4:34:6Z</time></trkpt>
<trkpt lat="46.22104" lon="7.4561"><ele></ele><time>2025-9-12T4:34:9Z</time></trkpt>
<trkpt lat="46.22103" lon="7.45613"><ele></ele><time>2025-9-12T4:34:12Z</time></trkpt>
<trkpt lat="46.22102" lon="7.45615"><ele></ele><time>2025-9-12T4:34:15Z</time></trkpt>
<trkpt lat="46.221" lon="7.45621"><ele></ele><time>2025-9-12T4:34:18Z</time></trkpt>
<trkpt lat="46.22099" lon="7.4563"><ele></ele><time>2025-9-12T4:34:21Z</time></trkpt>
<trkpt lat="46.22098" lon="7.45632"><ele></ele><time>2025-9-12T4:34:24Z</time></trkpt>
<trkpt lat="46.22096" lon="7.45635"><ele></ele><time>2025-9-12T4:34:27Z</time></trkpt>
<trkpt lat="46.22095" lon="7.45639"><ele></ele><time>2025-9-12T4:34:30Z</time></trkpt>
<trkpt lat="46.22095" lon="7.45641"><ele></ele><time>2025-9-12T4:34:33Z</time></trkpt>
<trkpt lat="46.22092" lon="7.45649"><ele></ele><time>2025-9-12T4:34:36Z</time></trkpt>
<trkpt lat="46.22092" lon="7.45651"><ele></ele><time>2025-9-12T4:34:39Z</time></trkpt>
<trkpt lat="46.22089" lon="7.45661"><ele></ele><time>2025-9-12T4:34:42Z</time></trkpt>
<trkpt lat="46.22088" lon="7.45664"><ele></ele><time>2025-9-12T4:34:45Z</time></trkpt>
<trkpt lat="46.22086" lon="7.4567"><ele></ele><time>2025-9-12T4:34:48Z</time></trkpt>
<trkpt lat="46.22084" lon="7.45677"><ele></ele><time>2025-9-12T4:34:51Z</time></trkpt>
<trkpt lat="46.22083" lon="7.45684"><ele></ele><time>2025-9-12T4:34:54Z</time></trkpt>
<trkpt lat="46.22082" lon="7.45689"><ele></ele><time>2025-9-12T4:34:57Z</time></trkpt>
<trkpt lat="46.2208" lon="7.45694"><ele></ele><time>2025-9-12T4:35:0Z</time></trkpt>
<trkpt lat="46.22078" lon="7.45699"><ele></ele><time>2025-9-12T4:35:3Z</time></trkpt>
<trkpt lat="46.22075" lon="7.45708"><ele></ele><time>2025-9-12T4:35:6Z</time></trkpt>
<trkpt lat="46.22074" lon="7.4571"><ele></ele><time>2025-9-12T4:35:9Z</time></trkpt>
<trkpt lat="46.22072" lon="7.4572"><ele></ele><time>2025-9-12T4:35:12Z</time></trkpt>
<trkpt lat="46.22072" lon="7.45722"><ele></ele><time>2025-9-12T4:35:15Z</time></trkpt>
<trkpt lat="46.22071" lon="7.45729"><ele></ele><time>2025-9-12T4:35:18Z</time></trkpt>
<trkpt lat="46.2207" lon="7.45738"><ele></ele><time>2025-9-12T4:35:21Z</time></trkpt>
<trkpt lat="46.2207" lon="7.4574"><ele></ele><time>2025-9-12T4:35:24Z</time></trkpt>
<trkpt lat="46.22071" lon="7.45748"><ele></ele><time>2025-9-12T4:35:27Z</time></trkpt>
<trkpt lat="46.2207" lon="7.45752"><ele></ele><time>2025-9-12T4:35:30Z</time></trkpt>
<trkpt lat="46.22069" lon="7.45758"><ele></ele><time>2025-9-12T4:35:33Z</time></trkpt>
<trkpt lat="46.22069" lon="7.45761"><ele></ele><time>2025-9-12T4:35:36Z</time></trkpt>
<trkpt lat="46.22069" lon="7.45762"><ele></ele><time>2025-9-12T4:35:39Z</time></trkpt>
<trkpt lat="46.22068" lon="7.45768"><ele></ele><time>2025-9-12T4:35:42Z</time></trkpt>
<trkpt lat="46.22067" lon="7.45769"><ele></ele><time>2025-9-12T4:35:45Z</time></trkpt>
<trkpt lat="46.22067" lon="7.45775"><ele></ele><time>2025-9-12T4:35:48Z</time></trkpt>
<trkpt lat="46.22066" lon="7.45788"><ele></ele><time>2025-9-12T4:35:51Z</time></trkpt>
<trkpt lat="46.22066" lon="7.45796"><ele></ele><time>2025-9-12T4:35:54Z</time></trkpt>
<trkpt lat="46.22066" lon="7.45799"><ele></ele><time>2025-9-12T4:35:57Z</time></trkpt>
<trkpt lat="46.22065" lon="7.45803"><ele></ele><time>2025-9-12T4:36:0Z</time></trkpt>
<trkpt lat="46.22065" lon="7.45808"><ele></ele><time>2025-9-12T4:36:3Z</time></trkpt>
<trkpt lat="46.22065" lon="7.45813"><ele></ele><time>2025-9-12T4:36:6Z</time></trkpt>
<trkpt lat="46.22065" lon="7.45818"><ele></ele><time>2025-9-12T4:36:9Z</time></trkpt>
<trkpt lat="46.22066" lon="7.45823"><ele></ele><time>2025-9-12T4:36:12Z</time></trkpt>
<trkpt lat="46.22065" lon="7.4583"><ele></ele><time>2025-9-12T4:36:15Z</time></trkpt>
<trkpt lat="46.22065" lon="7.45836"><ele></ele><time>2025-9-12T4:36:18Z</time></trkpt>
<trkpt lat="46.22065" lon="7.45843"><ele></ele><time>2025-9-12T4:36:21Z</time></trkpt>
<trkpt lat="46.22065" lon="7.45846"><ele></ele><time>2025-9-12T4:36:24Z</time></trkpt>
<trkpt lat="46.22065" lon="7.45855"><ele></ele><time>2025-9-12T4:36:27Z</time></trkpt>
<trkpt lat="46.22064" lon="7.45857"><ele></ele><time>2025-9-12T4:36:30Z</time></trkpt>
<trkpt lat="46.22062" lon="7.45864"><ele></ele><time>2025-9-12T4:36:33Z</time></trkpt>
<trkpt lat="46.22062" lon="7.45864"><ele></ele><time>2025-9-12T4:36:36Z</time></trkpt>
<trkpt lat="46.22061" lon="7.45872"><ele></ele><time>2025-9-12T4:36:39Z</time></trkpt>
<trkpt lat="46.2206" lon="7.45874"><ele></ele><time>2025-9-12T4:36:42Z</time></trkpt>
<trkpt lat="46.22059" lon="7.45877"><ele></ele><time>2025-9-12T4:36:45Z</time></trkpt>
<trkpt lat="46.22057" lon="7.45882"><ele></ele><time>2025-9-12T4:36:48Z</time></trkpt>
<trkpt lat="46.22055" lon="7.4589"><ele></ele><time>2025-9-12T4:36:51Z</time></trkpt>
<trkpt lat="46.22056" lon="7.45892"><ele></ele><time>2025-9-12T4:36:54Z</time></trkpt>
<trkpt lat="46.22056" lon="7.45903"><ele></ele><time>2025-9-12T4:36:57Z</time></trkpt>
<trkpt lat="46.22056" lon="7.45905"><ele></ele><time>2025-9-12T4:37:0Z</time></trkpt>
<trkpt lat="46.22056" lon="7.45917"><ele></ele><time>2025-9-12T4:37:3Z</time></trkpt>
<trkpt lat="46.22056" lon="7.4592"><ele></ele><time>2025-9-12T4:37:6Z</time></trkpt>
<trkpt lat="46.22057" lon="7.45926"><ele></ele><time>2025-9-12T4:37:9Z</time></trkpt>
<trkpt lat="46.22055" lon="7.45929"><ele></ele><time>2025-9-12T4:37:12Z</time></trkpt>
<trkpt lat="46.22053" lon="7.45938"><ele></ele><time>2025-9-12T4:37:15Z</time></trkpt>
<trkpt lat="46.22052" lon="7.45943"><ele></ele><time>2025-9-12T4:37:18Z</time></trkpt>
<trkpt lat="46.22051" lon="7.45946"><ele></ele><time>2025-9-12T4:37:21Z</time></trkpt>
<trkpt lat="46.2205" lon="7.45951"><ele></ele><time>2025-9-12T4:37:24Z</time></trkpt>
<trkpt lat="46.22046" lon="7.4596"><ele></ele><time>2025-9-12T4:37:27Z</time></trkpt>
<trkpt lat="46.22041" lon="7.45972"><ele></ele><time>2025-9-12T4:37:30Z</time></trkpt>
<trkpt lat="46.22038" lon="7.45983"><ele></ele><time>2025-9-12T4:37:33Z</time></trkpt>
<trkpt lat="46.22037" lon="7.45984"><ele></ele><time>2025-9-12T4:37:36Z</time></trkpt>
<trkpt lat="46.22037" lon="7.45993"><ele></ele><time>2025-9-12T4:37:39Z</time></trkpt>
<trkpt lat="46.22037" lon="7.45995"><ele></ele><time>2025-9-12T4:37:42Z</time></trkpt>
<trkpt lat="46.22035" lon="7.46003"><ele></ele><time>2025-9-12T4:37:45Z</time></trkpt>
<trkpt lat="46.22035" lon="7.46005"><ele></ele><time>2025-9-12T4:37:48Z</time></trkpt>
<trkpt lat="46.22034" lon="7.46014"><ele></ele><time>2025-9-12T4:37:51Z</time></trkpt>
<trkpt lat="46.22033" lon="7.46016"><ele></ele><time>2025-9-12T4:37:54Z</time></trkpt>
<trkpt lat="46.22032" lon="7.46028"><ele></ele><time>2025-9-12T4:37:57Z</time></trkpt>
<trkpt lat="46.22032" lon="7.46029"><ele></ele><time>2025-9-12T4:38:0Z</time></trkpt>
<trkpt lat="46.22032" lon="7.46037"><ele></ele><time>2025-9-12T4:38:3Z</time></trkpt>
<trkpt lat="46.22032" lon="7.4604"><ele></ele><time>2025-9-12T4:38:6Z</time></trkpt>
<trkpt lat="46.22032" lon="7.46041"><ele></ele><time>2025-9-12T4:38:9Z</time></trkpt>
<trkpt lat="46.22032" lon="7.46052"><ele></ele><time>2025-9-12T4:38:12Z</time></trkpt>
<trkpt lat="46.22032" lon="7.46055"><ele></ele><time>2025-9-12T4:38:15Z</time></trkpt>
<trkpt lat="46.2203" lon="7.4606"><ele></ele><time>2025-9-12T4:38:18Z</time></trkpt>
<trkpt lat="46.22026" lon="7.4607"><ele></ele><time>2025-9-12T4:38:21Z</time></trkpt>
<trkpt lat="46.22026" lon="7.46071"><ele></ele><time>2025-9-12T4:38:24Z</time></trkpt>
<trkpt lat="46.22024" lon="7.46081"><ele></ele><time>2025-9-12T4:38:27Z</time></trkpt>
<trkpt lat="46.22023" lon="7.46086"><ele></ele><time>2025-9-12T4:38:30Z</time></trkpt>
<trkpt lat="46.2202" lon="7.46092"><ele></ele><time>2025-9-12T4:38:33Z</time></trkpt>
<trkpt lat="46.22019" lon="7.46094"><ele></ele><time>2025-9-12T4:38:36Z</time></trkpt>
<trkpt lat="46.22015" lon="7.46099"><ele></ele><time>2025-9-12T4:38:39Z</time></trkpt>
<trkpt lat="46.22013" lon="7.46101"><ele></ele><time>2025-9-12T4:38:42Z</time></trkpt>
<trkpt lat="46.22011" lon="7.46106"><ele></ele><time>2025-9-12T4:38:45Z</time></trkpt>
<trkpt lat="46.2201" lon="7.4611"><ele></ele><time>2025-9-12T4:38:48Z</time></trkpt>
<trkpt lat="46.22007" lon="7.46113"><ele></ele><time>2025-9-12T4:38:51Z</time></trkpt>
<trkpt lat="46.22003" lon="7.4612"><ele></ele><time>2025-9-12T4:38:54Z</time></trkpt>
<trkpt lat="46.22001" lon="7.46122"><ele></ele><time>2025-9-12T4:38:57Z</time></trkpt>
<trkpt lat="46.21998" lon="7.4613"><ele></ele><time>2025-9-12T4:39:0Z</time></trkpt>
<trkpt lat="46.21997" lon="7.46131"><ele></ele><time>2025-9-12T4:39:3Z</time></trkpt>
<trkpt lat="46.21995" lon="7.46139"><ele></ele><time>2025-9-12T4:39:6Z</time></trkpt>
<trkpt lat="46.21991" lon="7.46149"><ele></ele><time>2025-9-12T4:39:9Z</time></trkpt>
<trkpt lat="46.21991" lon="7.4615"><ele></ele><time>2025-9-12T4:39:12Z</time></trkpt>
<trkpt lat="46.21989" lon="7.46159"><ele></ele><time>2025-9-12T4:39:15Z</time></trkpt>
<trkpt lat="46.21988" lon="7.46162"><ele></ele><time>2025-9-12T4:39:18Z</time></trkpt>
<trkpt lat="46.21987" lon="7.46165"><ele></ele><time>2025-9-12T4:39:21Z</time></trkpt>
<trkpt lat="46.21985" lon="7.46168"><ele></ele><time>2025-9-12T4:39:24Z</time></trkpt>
<trkpt lat="46.21985" lon="7.46174"><ele></ele><time>2025-9-12T4:39:27Z</time></trkpt>
<trkpt lat="46.21985" lon="7.46179"><ele></ele><time>2025-9-12T4:39:30Z</time></trkpt>
<trkpt lat="46.21983" lon="7.46185"><ele></ele><time>2025-9-12T4:39:33Z</time></trkpt>
<trkpt lat="46.21983" lon="7.46186"><ele></ele><time>2025-9-12T4:39:36Z</time></trkpt>
<trkpt lat="46.21981" lon="7.46195"><ele></ele><time>2025-9-12T4:39:39Z</time></trkpt>
<trkpt lat="46.21981" lon="7.46196"><ele></ele><time>2025-9-12T4:39:42Z</time></trkpt>
<trkpt lat="46.21981" lon="7.46203"><ele></ele><time>2025-9-12T4:39:45Z</time></trkpt>
<trkpt lat="46.21981" lon="7.46205"><ele></ele><time>2025-9-12T4:39:48Z</time></trkpt>
<trkpt lat="46.21981" lon="7.46207"><ele></ele><time>2025-9-12T4:39:51Z</time></trkpt>
<trkpt lat="46.21982" lon="7.46214"><ele></ele><time>2025-9-12T4:39:54Z</time></trkpt>
<trkpt lat="46.21981" lon="7.4622"><ele></ele><time>2025-9-12T4:39:57Z</time></trkpt>
<trkpt lat="46.21982" lon="7.46226"><ele></ele><time>2025-9-12T4:40:0Z</time></trkpt>
<trkpt lat="46.21982" lon="7.46229"><ele></ele><time>2025-9-12T4:40:3Z</time></trkpt>
<trkpt lat="46.21982" lon="7.46236"><ele></ele><time>2025-9-12T4:40:6Z</time></trkpt>
<trkpt lat="46.21982" lon="7.4624"><ele></ele><time>2025-9-12T4:40:9Z</time></trkpt>
<trkpt lat="46.21981" lon="7.46245"><ele></ele><time>2025-9-12T4:40:12Z</time></trkpt>
<trkpt lat="46.21979" lon="7.46249"><ele></ele><time>2025-9-12T4:40:15Z</time></trkpt>
<trkpt lat="46.21978" lon="7.46253"><ele></ele><time>2025-9-12T4:40:18Z</time></trkpt>
<trkpt lat="46.21976" lon="7.46259"><ele></ele><time>2025-9-12T4:40:21Z</time></trkpt>
<trkpt lat="46.21975" lon="7.46266"><ele></ele><time>2025-9-12T4:40:24Z</time></trkpt>
<trkpt lat="46.21974" lon="7.46271"><ele></ele><time>2025-9-12T4:40:27Z</time></trkpt>
<trkpt lat="46.21973" lon="7.46277"><ele></ele><time>2025-9-12T4:40:30Z</time></trkpt>
<trkpt lat="46.21971" lon="7.46282"><ele></ele><time>2025-9-12T4:40:33Z</time></trkpt>
<trkpt lat="46.21969" lon="7.46286"><ele></ele><time>2025-9-12T4:40:36Z</time></trkpt>
<trkpt lat="46.21966" lon="7.46296"><ele></ele><time>2025-9-12T4:40:39Z</time></trkpt>
<trkpt lat="46.21965" lon="7.46304"><ele></ele><time>2025-9-12T4:40:42Z</time></trkpt>
<trkpt lat="46.21965" lon="7.46307"><ele></ele><time>2025-9-12T4:40:45Z</time></trkpt>
<trkpt lat="46.21964" lon="7.46316"><ele></ele><time>2025-9-12T4:40:48Z</time></trkpt>
<trkpt lat="46.21964" lon="7.46319"><ele></ele><time>2025-9-12T4:40:51Z</time></trkpt>
<trkpt lat="46.21965" lon="7.46326"><ele></ele><time>2025-9-12T4:40:54Z</time></trkpt>
<trkpt lat="46.21966" lon="7.46329"><ele></ele><time>2025-9-12T4:40:57Z</time></trkpt>
<trkpt lat="46.21967" lon="7.46338"><ele></ele><time>2025-9-12T4:41:0Z</time></trkpt>
<trkpt lat="46.21967" lon="7.46341"><ele></ele><time>2025-9-12T4:41:3Z</time></trkpt>
<trkpt lat="46.21967" lon="7.46347"><ele></ele><time>2025-9-12T4:41:6Z</time></trkpt>
<trkpt lat="46.21966" lon="7.46353"><ele></ele><time>2025-9-12T4:41:9Z</time></trkpt>
<trkpt lat="46.21965" lon="7.46357"><ele></ele><time>2025-9-12T4:41:12Z</time></trkpt>
<trkpt lat="46.21963" lon="7.46366"><ele></ele><time>2025-9-12T4:41:15Z</time></trkpt>
<trkpt lat="46.21963" lon="7.46368"><ele></ele><time>2025-9-12T4:41:18Z</time></trkpt>
<trkpt lat="46.21961" lon="7.46374"><ele></ele><time>2025-9-12T4:41:21Z</time></trkpt>
<trkpt lat="46.2196" lon="7.46375"><ele></ele><time>2025-9-12T4:41:24Z</time></trkpt>
<trkpt lat="46.2196" lon="7.46379"><ele></ele><time>2025-9-12T4:41:27Z</time></trkpt>
<trkpt lat="46.21959" lon="7.46387"><ele></ele><time>2025-9-12T4:41:30Z</time></trkpt>
<trkpt lat="46.21958" lon="7.46389"><ele></ele><time>2025-9-12T4:41:33Z</time></trkpt>
<trkpt lat="46.21957" lon="7.46395"><ele></ele><time>2025-9-12T4:41:36Z</time></trkpt>
<trkpt lat="46.21955" lon="7.464"><ele></ele><time>2025-9-12T4:41:39Z</time></trkpt>
<trkpt lat="46.21954" lon="7.46404"><ele></ele><time>2025-9-12T4:41:42Z</time></trkpt>
<trkpt lat="46.21953" lon="7.46407"><ele></ele><time>2025-9-12T4:41:45Z</time></trkpt>
<trkpt lat="46.21953" lon="7.46414"><ele></ele><time>2025-9-12T4:41:48Z</time></trkpt>
<trkpt lat="46.21953" lon="7.4642"><ele></ele><time>2025-9-12T4:41:51Z</time></trkpt>
<trkpt lat="46.21953" lon="7.46421"><ele></ele><time>2025-9-12T4:41:54Z</time></trkpt>
<trkpt lat="46.21952" lon="7.46426"><ele></ele><time>2025-9-12T4:41:57Z</time></trkpt>
<trkpt lat="46.21951" lon="7.46429"><ele></ele><time>2025-9-12T4:42:0Z</time></trkpt>
<trkpt lat="46.21951" lon="7.46433"><ele></ele><time>2025-9-12T4:42:3Z</time></trkpt>
<trkpt lat="46.2195" lon="7.46437"><ele></ele><time>2025-9-12T4:42:6Z</time></trkpt>
<trkpt lat="46.2195" lon="7.46442"><ele></ele><time>2025-9-12T4:42:9Z</time></trkpt>
<trkpt lat="46.2195" lon="7.46445"><ele></ele><time>2025-9-12T4:42:12Z</time></trkpt>
<trkpt lat="46.2195" lon="7.46456"><ele></ele><time>2025-9-12T4:42:15Z</time></trkpt>
<trkpt lat="46.2195" lon="7.46458"><ele></ele><time>2025-9-12T4:42:18Z</time></trkpt>
<trkpt lat="46.2195" lon="7.4647"><ele></ele><time>2025-9-12T4:42:21Z</time></trkpt>
<trkpt lat="46.2195" lon="7.46482"><ele></ele><time>2025-9-12T4:42:24Z</time></trkpt>
<trkpt lat="46.2195" lon="7.46484"><ele></ele><time>2025-9-12T4:42:27Z</time></trkpt>
<trkpt lat="46.2195" lon="7.46493"><ele></ele><time>2025-9-12T4:42:30Z</time></trkpt>
<trkpt lat="46.21949" lon="7.46495"><ele></ele><time>2025-9-12T4:42:33Z</time></trkpt>
<trkpt lat="46.21946" lon="7.46503"><ele></ele><time>2025-9-12T4:42:36Z</time></trkpt>
<trkpt lat="46.21945" lon="7.46507"><ele></ele><time>2025-9-12T4:42:39Z</time></trkpt>
<trkpt lat="46.21943" lon="7.46516"><ele></ele><time>2025-9-12T4:42:42Z</time></trkpt>
<trkpt lat="46.21941" lon="7.4652"><ele></ele><time>2025-9-12T4:42:45Z</time></trkpt>
<trkpt lat="46.21938" lon="7.46531"><ele></ele><time>2025-9-12T4:42:48Z</time></trkpt>
<trkpt lat="46.21937" lon="7.46534"><ele></ele><time>2025-9-12T4:42:51Z</time></trkpt>
<trkpt lat="46.21936" lon="7.46542"><ele></ele><time>2025-9-12T4:42:54Z</time></trkpt>
<trkpt lat="46.21936" lon="7.46543"><ele></ele><time>2025-9-12T4:42:57Z</time></trkpt>
<trkpt lat="46.21935" lon="7.46554"><ele></ele><time>2025-9-12T4:43:0Z</time></trkpt>
<trkpt lat="46.21935" lon="7.46556"><ele></ele><time>2025-9-12T4:43:3Z</time></trkpt>
<trkpt lat="46.21932" lon="7.46568"><ele></ele><time>2025-9-12T4:43:6Z</time></trkpt>
<trkpt lat="46.21928" lon="7.46579"><ele></ele><time>2025-9-12T4:43:9Z</time></trkpt>
<trkpt lat="46.21927" lon="7.4658"><ele></ele><time>2025-9-12T4:43:12Z</time></trkpt>
<trkpt lat="46.21921" lon="7.46591"><ele></ele><time>2025-9-12T4:43:15Z</time></trkpt>
<trkpt lat="46.2192" lon="7.46592"><ele></ele><time>2025-9-12T4:43:18Z</time></trkpt>
<trkpt lat="46.21916" lon="7.46603"><ele></ele><time>2025-9-12T4:43:21Z</time></trkpt>
<trkpt lat="46.21914" lon="7.46608"><ele></ele><time>2025-9-12T4:43:24Z</time></trkpt>
<trkpt lat="46.21912" lon="7.46614"><ele></ele><time>2025-9-12T4:43:27Z</time></trkpt>
<trkpt lat="46.2191" lon="7.4662"><ele></ele><time>2025-9-12T4:43:30Z</time></trkpt>
<trkpt lat="46.21908" lon="7.46625"><ele></ele><time>2025-9-12T4:43:33Z</time></trkpt>
<trkpt lat="46.21906" lon="7.46631"><ele></ele><time>2025-9-12T4:43:36Z</time></trkpt>
<trkpt lat="46.21905" lon="7.46635"><ele></ele><time>2025-9-12T4:43:39Z</time></trkpt>
<trkpt lat="46.21904" lon="7.46636"><ele></ele><time>2025-9-12T4:43:42Z</time></trkpt>
<trkpt lat="46.219" lon="7.46649"><ele></ele><time>2025-9-12T4:43:45Z</time></trkpt>
<trkpt lat="46.21899" lon="7.46658"><ele></ele><time>2025-9-12T4:43:48Z</time></trkpt>
<trkpt lat="46.219" lon="7.46661"><ele></ele><time>2025-9-12T4:43:51Z</time></trkpt>
<trkpt lat="46.21902" lon="7.46666"><ele></ele><time>2025-9-12T4:43:54Z</time></trkpt>
<trkpt lat="46.21905" lon="7.4667"><ele></ele><time>2025-9-12T4:43:57Z</time></trkpt>
<trkpt lat="46.21906" lon="7.46671"><ele></ele><time>2025-9-12T4:44:0Z</time></trkpt>
<trkpt lat="46.21912" lon="7.46678"><ele></ele><time>2025-9-12T4:44:3Z</time></trkpt>
<trkpt lat="46.21913" lon="7.46678"><ele></ele><time>2025-9-12T4:44:6Z</time></trkpt>
<trkpt lat="46.21921" lon="7.46681"><ele></ele><time>2025-9-12T4:44:9Z</time></trkpt>
<trkpt lat="46.21928" lon="7.46685"><ele></ele><time>2025-9-12T4:44:12Z</time></trkpt>
<trkpt lat="46.21935" lon="7.46693"><ele></ele><time>2025-9-12T4:44:15Z</time></trkpt>
<trkpt lat="46.21935" lon="7.46695"><ele></ele><time>2025-9-12T4:44:18Z</time></trkpt>
<trkpt lat="46.21933" lon="7.46701"><ele></ele><time>2025-9-12T4:44:21Z</time></trkpt>
<trkpt lat="46.2193" lon="7.46702"><ele></ele><time>2025-9-12T4:44:24Z</time></trkpt>
<trkpt lat="46.21922" lon="7.46701"><ele></ele><time>2025-9-12T4:44:27Z</time></trkpt>
<trkpt lat="46.2192" lon="7.467"><ele></ele><time>2025-9-12T4:44:30Z</time></trkpt>
<trkpt lat="46.21918" lon="7.467"><ele></ele><time>2025-9-12T4:44:33Z</time></trkpt>
<trkpt lat="46.21918" lon="7.467"><ele></ele><time>2025-9-12T4:44:36Z</time></trkpt>
<trkpt lat="46.21918" lon="7.467"><ele></ele><time>2025-9-12T4:44:39Z</time></trkpt>
<trkpt lat="46.21918" lon="7.467"><ele></ele><time>2025-9-12T4:44:42Z</time></trkpt>
<trkpt lat="46.21918" lon="7.46699"><ele></ele><time>2025-9-12T4:44:45Z</time></trkpt>
<trkpt lat="46.21919" lon="7.467"><ele></ele><time>2025-9-12T4:44:48Z</time></trkpt>
<trkpt lat="46.21919" lon="7.467"><ele></ele><time>2025-9-12T4:44:51Z</time></trkpt>
<trkpt lat="46.21918" lon="7.467"><ele></ele><time>2025-9-12T4:44:54Z</time></trkpt>
<trkpt lat="46.21918" lon="7.467"><ele></ele><time>2025-9-12T4:44:57Z</time></trkpt>
<trkpt lat="46.21917" lon="7.467"><ele></ele><time>2025-9-12T4:45:0Z</time></trkpt>
<trkpt lat="46.21918" lon="7.467"><ele></ele><time>2025-9-12T4:45:3Z</time></trkpt>
<trkpt lat="46.21918" lon="7.467"><ele></ele><time>2025-9-12T4:45:6Z</time></trkpt>
<trkpt lat="46.21918" lon="7.467"><ele></ele><time>2025-9-12T4:45:9Z</time></trkpt>
<trkpt lat="46.21918" lon="7.467"><ele></ele><time>2025-9-12T4:45:12Z</time></trkpt>
<trkpt lat="46.21918" lon="7.467"><ele></ele><time>2025-9-12T4:45:15Z</time></trkpt>
<trkpt lat="46.21918" lon="7.467"><ele></ele><time>2025-9-12T4:45:18Z</time></trkpt>
<trkpt lat="46.21918" lon="7.467"><ele></ele><time>2025-9-12T4:45:21Z</time></trkpt>
<trkpt lat="46.21918" lon="7.467"><ele></ele><time>2025-9-12T4:45:24Z</time></trkpt>
<trkpt lat="46.21918" lon="7.467"><ele></ele><time>2025-9-12T4:45:27Z</time></trkpt>
<trkpt lat="46.21918" lon="7.467"><ele></ele><time>2025-9-12T4:45:30Z</time></trkpt>
<trkpt lat="46.21918" lon="7.467"><ele></ele><time>2025-9-12T4:45:33Z</time></trkpt>
<trkpt lat="46.21918" lon="7.467"><ele></ele><time>2025-9-12T4:45:36Z</time></trkpt>
<trkpt lat="46.21918" lon="7.467"><ele></ele><time>2025-9-12T4:45:39Z</time></trkpt>
<trkpt lat="46.21915" lon="7.46699"><ele></ele><time>2025-9-12T4:45:42Z</time></trkpt>
<trkpt lat="46.21914" lon="7.46702"><ele></ele><time>2025-9-12T4:45:45Z</time></trkpt>
<trkpt lat="46.2191" lon="7.46702"><ele></ele><time>2025-9-12T4:45:48Z</time></trkpt>
<trkpt lat="46.21906" lon="7.46703"><ele></ele><time>2025-9-12T4:45:51Z</time></trkpt>
<trkpt lat="46.21904" lon="7.46704"><ele></ele><time>2025-9-12T4:45:54Z</time></trkpt>
<trkpt lat="46.21902" lon="7.46704"><ele></ele><time>2025-9-12T4:45:57Z</time></trkpt>
<trkpt lat="46.219" lon="7.46705"><ele></ele><time>2025-9-12T4:46:0Z</time></trkpt>
<trkpt lat="46.219" lon="7.46706"><ele></ele><time>2025-9-12T4:46:3Z</time></trkpt>
<trkpt lat="46.21898" lon="7.46708"><ele></ele><time>2025-9-12T4:46:6Z</time></trkpt>
<trkpt lat="46.21896" lon="7.46711"><ele></ele><time>2025-9-12T4:46:9Z</time></trkpt>
<trkpt lat="46.2189" lon="7.46716"><ele></ele><time>2025-9-12T4:46:12Z</time></trkpt>
<trkpt lat="46.21889" lon="7.46717"><ele></ele><time>2025-9-12T4:46:15Z</time></trkpt>
<trkpt lat="46.21885" lon="7.4672"><ele></ele><time>2025-9-12T4:46:18Z</time></trkpt>
<trkpt lat="46.21881" lon="7.46722"><ele></ele><time>2025-9-12T4:46:21Z</time></trkpt>
<trkpt lat="46.2188" lon="7.46723"><ele></ele><time>2025-9-12T4:46:24Z</time></trkpt>
<trkpt lat="46.21877" lon="7.46724"><ele></ele><time>2025-9-12T4:46:27Z</time></trkpt>
<trkpt lat="46.21873" lon="7.46725"><ele></ele><time>2025-9-12T4:46:30Z</time></trkpt>
<trkpt lat="46.2187" lon="7.46724"><ele></ele><time>2025-9-12T4:46:33Z</time></trkpt>
<trkpt lat="46.21868" lon="7.46722"><ele></ele><time>2025-9-12T4:46:36Z</time></trkpt>
<trkpt lat="46.21862" lon="7.46717"><ele></ele><time>2025-9-12T4:46:39Z</time></trkpt>
<trkpt lat="46.21861" lon="7.46716"><ele></ele><time>2025-9-12T4:46:42Z</time></trkpt>
<trkpt lat="46.21859" lon="7.46708"><ele></ele><time>2025-9-12T4:46:45Z</time></trkpt>
<trkpt lat="46.21859" lon="7.46707"><ele></ele><time>2025-9-12T4:46:48Z</time></trkpt>
<trkpt lat="46.21859" lon="7.46706"><ele></ele><time>2025-9-12T4:46:51Z</time></trkpt>
<trkpt lat="46.21858" lon="7.46701"><ele></ele><time>2025-9-12T4:46:54Z</time></trkpt>
<trkpt lat="46.21858" lon="7.46699"><ele></ele><time>2025-9-12T4:46:57Z</time></trkpt>
<trkpt lat="46.21858" lon="7.46694"><ele></ele><time>2025-9-12T4:47:0Z</time></trkpt>
<trkpt lat="46.21858" lon="7.46688"><ele></ele><time>2025-9-12T4:47:3Z</time></trkpt>
<trkpt lat="46.2186" lon="7.46682"><ele></ele><time>2025-9-12T4:47:6Z</time></trkpt>
<trkpt lat="46.21861" lon="7.4668"><ele></ele><time>2025-9-12T4:47:9Z</time></trkpt>
<trkpt lat="46.21863" lon="7.46673"><ele></ele><time>2025-9-12T4:47:12Z</time></trkpt>
<trkpt lat="46.21864" lon="7.46669"><ele></ele><time>2025-9-12T4:47:15Z</time></trkpt>
<trkpt lat="46.21866" lon="7.46664"><ele></ele><time>2025-9-12T4:47:18Z</time></trkpt>
<trkpt lat="46.21868" lon="7.46657"><ele></ele><time>2025-9-12T4:47:21Z</time></trkpt>
<trkpt lat="46.21868" lon="7.46656"><ele></ele><time>2025-9-12T4:47:24Z</time></trkpt>
<trkpt lat="46.2187" lon="7.46648"><ele></ele><time>2025-9-12T4:47:27Z</time></trkpt>
<trkpt lat="46.2187" lon="7.46645"><ele></ele><time>2025-9-12T4:47:30Z</time></trkpt>
<trkpt lat="46.21873" lon="7.46637"><ele></ele><time>2025-9-12T4:47:33Z</time></trkpt>
<trkpt lat="46.21873" lon="7.46636"><ele></ele><time>2025-9-12T4:47:36Z</time></trkpt>
<trkpt lat="46.21874" lon="7.4663"><ele></ele><time>2025-9-12T4:47:39Z</time></trkpt>
<trkpt lat="46.21876" lon="7.46627"><ele></ele><time>2025-9-12T4:47:42Z</time></trkpt>
<trkpt lat="46.21877" lon="7.46626"><ele></ele><time>2025-9-12T4:47:45Z</time></trkpt>
<trkpt lat="46.21877" lon="7.46623"><ele></ele><time>2025-9-12T4:47:48Z</time></trkpt>
<trkpt lat="46.21879" lon="7.46614"><ele></ele><time>2025-9-12T4:47:51Z</time></trkpt>
<trkpt lat="46.21879" lon="7.46612"><ele></ele><time>2025-9-12T4:47:54Z</time></trkpt>
<trkpt lat="46.2188" lon="7.46607"><ele></ele><time>2025-9-12T4:47:57Z</time></trkpt>
<trkpt lat="46.2188" lon="7.46604"><ele></ele><time>2025-9-12T4:48:0Z</time></trkpt>
<trkpt lat="46.21881" lon="7.46601"><ele></ele><time>2025-9-12T4:48:3Z</time></trkpt>
<trkpt lat="46.21881" lon="7.46599"><ele></ele><time>2025-9-12T4:48:6Z</time></trkpt>
<trkpt lat="46.21882" lon="7.46597"><ele></ele><time>2025-9-12T4:48:9Z</time></trkpt>
<trkpt lat="46.21883" lon="7.46589"><ele></ele><time>2025-9-12T4:48:12Z</time></trkpt>
<trkpt lat="46.21882" lon="7.46585"><ele></ele><time>2025-9-12T4:48:15Z</time></trkpt>
<trkpt lat="46.21883" lon="7.4658"><ele></ele><time>2025-9-12T4:48:18Z</time></trkpt>
<trkpt lat="46.21882" lon="7.46575"><ele></ele><time>2025-9-12T4:48:21Z</time></trkpt>
<trkpt lat="46.21882" lon="7.46574"><ele></ele><time>2025-9-12T4:48:24Z</time></trkpt>
<trkpt lat="46.21882" lon="7.46572"><ele></ele><time>2025-9-12T4:48:27Z</time></trkpt>
<trkpt lat="46.21882" lon="7.46568"><ele></ele><time>2025-9-12T4:48:30Z</time></trkpt>
<trkpt lat="46.21881" lon="7.46563"><ele></ele><time>2025-9-12T4:48:33Z</time></trkpt>
<trkpt lat="46.2188" lon="7.46562"><ele></ele><time>2025-9-12T4:48:36Z</time></trkpt>
<trkpt lat="46.2188" lon="7.46556"><ele></ele><time>2025-9-12T4:48:39Z</time></trkpt>
<trkpt lat="46.2188" lon="7.4655"><ele></ele><time>2025-9-12T4:48:42Z</time></trkpt>
<trkpt lat="46.21881" lon="7.46546"><ele></ele><time>2025-9-12T4:48:45Z</time></trkpt>
<trkpt lat="46.2188" lon="7.46541"><ele></ele><time>2025-9-12T4:48:48Z</time></trkpt>
<trkpt lat="46.2188" lon="7.46536"><ele></ele><time>2025-9-12T4:48:51Z</time></trkpt>
<trkpt lat="46.2188" lon="7.46531"><ele></ele><time>2025-9-12T4:48:54Z</time></trkpt>
<trkpt lat="46.2188" lon="7.46528"><ele></ele><time>2025-9-12T4:48:57Z</time></trkpt>
<trkpt lat="46.21878" lon="7.46519"><ele></ele><time>2025-9-12T4:49:0Z</time></trkpt>
<trkpt lat="46.21877" lon="7.46517"><ele></ele><time>2025-9-12T4:49:3Z</time></trkpt>
<trkpt lat="46.21876" lon="7.46509"><ele></ele><time>2025-9-12T4:49:6Z</time></trkpt>
<trkpt lat="46.21874" lon="7.46506"><ele></ele><time>2025-9-12T4:49:9Z</time></trkpt>
<trkpt lat="46.21874" lon="7.46502"><ele></ele><time>2025-9-12T4:49:12Z</time></trkpt>
<trkpt lat="46.21873" lon="7.46496"><ele></ele><time>2025-9-12T4:49:15Z</time></trkpt>
<trkpt lat="46.21872" lon="7.46495"><ele></ele><time>2025-9-12T4:49:18Z</time></trkpt>
<trkpt lat="46.21869" lon="7.46487"><ele></ele><time>2025-9-12T4:49:21Z</time></trkpt>
<trkpt lat="46.21869" lon="7.46485"><ele></ele><time>2025-9-12T4:49:24Z</time></trkpt>
<trkpt lat="46.21868" lon="7.46483"><ele></ele><time>2025-9-12T4:49:27Z</time></trkpt>
<trkpt lat="46.21866" lon="7.4648"><ele></ele><time>2025-9-12T4:49:30Z</time></trkpt>
<trkpt lat="46.21865" lon="7.46475"><ele></ele><time>2025-9-12T4:49:33Z</time></trkpt>
<trkpt lat="46.21862" lon="7.46472"><ele></ele><time>2025-9-12T4:49:36Z</time></trkpt>
<trkpt lat="46.2186" lon="7.46465"><ele></ele><time>2025-9-12T4:49:39Z</time></trkpt>
<trkpt lat="46.21859" lon="7.46463"><ele></ele><time>2025-9-12T4:49:42Z</time></trkpt>
<trkpt lat="46.21858" lon="7.46459"><ele></ele><time>2025-9-12T4:49:45Z</time></trkpt>
<trkpt lat="46.21857" lon="7.46458"><ele></ele><time>2025-9-12T4:49:48Z</time></trkpt>
<trkpt lat="46.21855" lon="7.46453"><ele></ele><time>2025-9-12T4:49:51Z</time></trkpt>
<trkpt lat="46.21854" lon="7.4645"><ele></ele><time>2025-9-12T4:49:54Z</time></trkpt>
<trkpt lat="46.21851" lon="7.46443"><ele></ele><time>2025-9-12T4:49:57Z</time></trkpt>
<trkpt lat="46.21849" lon="7.46439"><ele></ele><time>2025-9-12T4:50:0Z</time></trkpt>
<trkpt lat="46.21849" lon="7.46433"><ele></ele><time>2025-9-12T4:50:3Z</time></trkpt>
<trkpt lat="46.21848" lon="7.46431"><ele></ele><time>2025-9-12T4:50:6Z</time></trkpt>
<trkpt lat="46.21847" lon="7.46426"><ele></ele><time>2025-9-12T4:50:9Z</time></trkpt>
<trkpt lat="46.21846" lon="7.46424"><ele></ele><time>2025-9-12T4:50:12Z</time></trkpt>
<trkpt lat="46.21843" lon="7.46414"><ele></ele><time>2025-9-12T4:50:15Z</time></trkpt>
<trkpt lat="46.21841" lon="7.46411"><ele></ele><time>2025-9-12T4:50:18Z</time></trkpt>
<trkpt lat="46.21841" lon="7.46408"><ele></ele><time>2025-9-12T4:50:21Z</time></trkpt>
<trkpt lat="46.21839" lon="7.46402"><ele></ele><time>2025-9-12T4:50:24Z</time></trkpt>
<trkpt lat="46.21838" lon="7.46399"><ele></ele><time>2025-9-12T4:50:27Z</time></trkpt>
<trkpt lat="46.21836" lon="7.46391"><ele></ele><time>2025-9-12T4:50:30Z</time></trkpt>
<trkpt lat="46.21834" lon="7.46387"><ele></ele><time>2025-9-12T4:50:33Z</time></trkpt>
<trkpt lat="46.21832" lon="7.46379"><ele></ele><time>2025-9-12T4:50:36Z</time></trkpt>
<trkpt lat="46.21831" lon="7.46378"><ele></ele><time>2025-9-12T4:50:39Z</time></trkpt>
<trkpt lat="46.2183" lon="7.46374"><ele></ele><time>2025-9-12T4:50:42Z</time></trkpt>
<trkpt lat="46.21829" lon="7.46369"><ele></ele><time>2025-9-12T4:50:45Z</time></trkpt>
<trkpt lat="46.21828" lon="7.46366"><ele></ele><time>2025-9-12T4:50:48Z</time></trkpt>
<trkpt lat="46.21828" lon="7.46359"><ele></ele><time>2025-9-12T4:50:51Z</time></trkpt>
<trkpt lat="46.21827" lon="7.46354"><ele></ele><time>2025-9-12T4:50:54Z</time></trkpt>
<trkpt lat="46.21826" lon="7.46349"><ele></ele><time>2025-9-12T4:50:57Z</time></trkpt>
<trkpt lat="46.21825" lon="7.46343"><ele></ele><time>2025-9-12T4:51:0Z</time></trkpt>
<trkpt lat="46.21824" lon="7.46338"><ele></ele><time>2025-9-12T4:51:3Z</time></trkpt>
<trkpt lat="46.21824" lon="7.46328"><ele></ele><time>2025-9-12T4:51:6Z</time></trkpt>
<trkpt lat="46.21824" lon="7.46324"><ele></ele><time>2025-9-12T4:51:9Z</time></trkpt>
<trkpt lat="46.21824" lon="7.46313"><ele></ele><time>2025-9-12T4:51:12Z</time></trkpt>
<trkpt lat="46.21823" lon="7.46307"><ele></ele><time>2025-9-12T4:51:15Z</time></trkpt>
<trkpt lat="46.21823" lon="7.46301"><ele></ele><time>2025-9-12T4:51:18Z</time></trkpt>
<trkpt lat="46.21822" lon="7.4629"><ele></ele><time>2025-9-12T4:51:21Z</time></trkpt>
<trkpt lat="46.21821" lon="7.46286"><ele></ele><time>2025-9-12T4:51:24Z</time></trkpt>
<trkpt lat="46.21819" lon="7.46278"><ele></ele><time>2025-9-12T4:51:27Z</time></trkpt>
<trkpt lat="46.21819" lon="7.46274"><ele></ele><time>2025-9-12T4:51:30Z</time></trkpt>
<trkpt lat="46.21815" lon="7.46264"><ele></ele><time>2025-9-12T4:51:33Z</time></trkpt>
<trkpt lat="46.21813" lon="7.46254"><ele></ele><time>2025-9-12T4:51:36Z</time></trkpt>
<trkpt lat="46.21813" lon="7.46251"><ele></ele><time>2025-9-12T4:51:39Z</time></trkpt>
<trkpt lat="46.21812" lon="7.46241"><ele></ele><time>2025-9-12T4:51:42Z</time></trkpt>
<trkpt lat="46.21812" lon="7.46229"><ele></ele><time>2025-9-12T4:51:45Z</time></trkpt>
<trkpt lat="46.21812" lon="7.46227"><ele></ele><time>2025-9-12T4:51:48Z</time></trkpt>
<trkpt lat="46.21812" lon="7.46226"><ele></ele><time>2025-9-12T4:51:51Z</time></trkpt>
<trkpt lat="46.21812" lon="7.46216"><ele></ele><time>2025-9-12T4:51:54Z</time></trkpt>
<trkpt lat="46.21811" lon="7.46215"><ele></ele><time>2025-9-12T4:51:57Z</time></trkpt>
<trkpt lat="46.2181" lon="7.46206"><ele></ele><time>2025-9-12T4:52:0Z</time></trkpt>
<trkpt lat="46.2181" lon="7.46203"><ele></ele><time>2025-9-12T4:52:3Z</time></trkpt>
<trkpt lat="46.2181" lon="7.46199"><ele></ele><time>2025-9-12T4:52:6Z</time></trkpt>
<trkpt lat="46.21811" lon="7.46198"><ele></ele><time>2025-9-12T4:52:9Z</time></trkpt>
<trkpt lat="46.21811" lon="7.46193"><ele></ele><time>2025-9-12T4:52:12Z</time></trkpt>
<trkpt lat="46.21811" lon="7.46189"><ele></ele><time>2025-9-12T4:52:15Z</time></trkpt>
<trkpt lat="46.2181" lon="7.46184"><ele></ele><time>2025-9-12T4:52:18Z</time></trkpt>
<trkpt lat="46.21809" lon="7.46182"><ele></ele><time>2025-9-12T4:52:21Z</time></trkpt>
<trkpt lat="46.21807" lon="7.46177"><ele></ele><time>2025-9-12T4:52:24Z</time></trkpt>
<trkpt lat="46.21807" lon="7.46175"><ele></ele><time>2025-9-12T4:52:27Z</time></trkpt>
<trkpt lat="46.21804" lon="7.46168"><ele></ele><time>2025-9-12T4:52:30Z</time></trkpt>
<trkpt lat="46.218" lon="7.4616"><ele></ele><time>2025-9-12T4:52:33Z</time></trkpt>
<trkpt lat="46.21798" lon="7.46154"><ele></ele><time>2025-9-12T4:52:36Z</time></trkpt>
<trkpt lat="46.21796" lon="7.4615"><ele></ele><time>2025-9-12T4:52:39Z</time></trkpt>
<trkpt lat="46.21795" lon="7.46149"><ele></ele><time>2025-9-12T4:52:42Z</time></trkpt>
<trkpt lat="46.21793" lon="7.46144"><ele></ele><time>2025-9-12T4:52:45Z</time></trkpt>
<trkpt lat="46.2179" lon="7.46142"><ele></ele><time>2025-9-12T4:52:48Z</time></trkpt>
<trkpt lat="46.21788" lon="7.46139"><ele></ele><time>2025-9-12T4:52:51Z</time></trkpt>
<trkpt lat="46.21785" lon="7.46134"><ele></ele><time>2025-9-12T4:52:54Z</time></trkpt>
<trkpt lat="46.21784" lon="7.46133"><ele></ele><time>2025-9-12T4:52:57Z</time></trkpt>
<trkpt lat="46.21784" lon="7.46132"><ele></ele><time>2025-9-12T4:53:0Z</time></trkpt>
<trkpt lat="46.21779" lon="7.46124"><ele></ele><time>2025-9-12T4:53:3Z</time></trkpt>
<trkpt lat="46.21779" lon="7.46123"><ele></ele><time>2025-9-12T4:53:6Z</time></trkpt>
<trkpt lat="46.21775" lon="7.46115"><ele></ele><time>2025-9-12T4:53:9Z</time></trkpt>
<trkpt lat="46.21774" lon="7.46114"><ele></ele><time>2025-9-12T4:53:12Z</time></trkpt>
<trkpt lat="46.21773" lon="7.46108"><ele></ele><time>2025-9-12T4:53:15Z</time></trkpt>
<trkpt lat="46.21772" lon="7.46104"><ele></ele><time>2025-9-12T4:53:18Z</time></trkpt>
<trkpt lat="46.21772" lon="7.46102"><ele></ele><time>2025-9-12T4:53:21Z</time></trkpt>
<trkpt lat="46.21772" lon="7.461"><ele></ele><time>2025-9-12T4:53:24Z</time></trkpt>
<trkpt lat="46.21772" lon="7.46095"><ele></ele><time>2025-9-12T4:53:27Z</time></trkpt>
<trkpt lat="46.21772" lon="7.46093"><ele></ele><time>2025-9-12T4:53:30Z</time></trkpt>
<trkpt lat="46.21771" lon="7.46092"><ele></ele><time>2025-9-12T4:53:33Z</time></trkpt>
<trkpt lat="46.2177" lon="7.46086"><ele></ele><time>2025-9-12T4:53:36Z</time></trkpt>
<trkpt lat="46.2177" lon="7.46085"><ele></ele><time>2025-9-12T4:53:39Z</time></trkpt>
<trkpt lat="46.21769" lon="7.46078"><ele></ele><time>2025-9-12T4:53:42Z</time></trkpt>
<trkpt lat="46.21769" lon="7.46077"><ele></ele><time>2025-9-12T4:53:45Z</time></trkpt>
<trkpt lat="46.21767" lon="7.4607"><ele></ele><time>2025-9-12T4:53:48Z</time></trkpt>
<trkpt lat="46.21767" lon="7.46069"><ele></ele><time>2025-9-12T4:53:51Z</time></trkpt>
<trkpt lat="46.21765" lon="7.46063"><ele></ele><time>2025-9-12T4:53:54Z</time></trkpt>
<trkpt lat="46.21763" lon="7.4606"><ele></ele><time>2025-9-12T4:53:57Z</time></trkpt>
<trkpt lat="46.21761" lon="7.46057"><ele></ele><time>2025-9-12T4:54:0Z</time></trkpt>
<trkpt lat="46.21758" lon="7.46055"><ele></ele><time>2025-9-12T4:54:3Z</time></trkpt>
<trkpt lat="46.21758" lon="7.46052"><ele></ele><time>2025-9-12T4:54:6Z</time></trkpt>
<trkpt lat="46.21757" lon="7.46047"><ele></ele><time>2025-9-12T4:54:9Z</time></trkpt>
<trkpt lat="46.21756" lon="7.46045"><ele></ele><time>2025-9-12T4:54:12Z</time></trkpt>
<trkpt lat="46.21754" lon="7.46041"><ele></ele><time>2025-9-12T4:54:15Z</time></trkpt>
<trkpt lat="46.21753" lon="7.46039"><ele></ele><time>2025-9-12T4:54:18Z</time></trkpt>
<trkpt lat="46.21749" lon="7.46032"><ele></ele><time>2025-9-12T4:54:21Z</time></trkpt>
<trkpt lat="46.21749" lon="7.46031"><ele></ele><time>2025-9-12T4:54:24Z</time></trkpt>
<trkpt lat="46.21749" lon="7.46029"><ele></ele><time>2025-9-12T4:54:27Z</time></trkpt>
<trkpt lat="46.21748" lon="7.46025"><ele></ele><time>2025-9-12T4:54:30Z</time></trkpt>
<trkpt lat="46.21746" lon="7.46023"><ele></ele><time>2025-9-12T4:54:33Z</time></trkpt>
<trkpt lat="46.21746" lon="7.46022"><ele></ele><time>2025-9-12T4:54:36Z</time></trkpt>
<trkpt lat="46.21745" lon="7.4602"><ele></ele><time>2025-9-12T4:54:39Z</time></trkpt>
<trkpt lat="46.21742" lon="7.46017"><ele></ele><time>2025-9-12T4:54:42Z</time></trkpt>
<trkpt lat="46.2174" lon="7.46014"><ele></ele><time>2025-9-12T4:54:45Z</time></trkpt>
<trkpt lat="46.2174" lon="7.46012"><ele></ele><time>2025-9-12T4:54:48Z</time></trkpt>
<trkpt lat="46.21739" lon="7.46009"><ele></ele><time>2025-9-12T4:54:51Z</time></trkpt>
<trkpt lat="46.21738" lon="7.46008"><ele></ele><time>2025-9-12T4:54:54Z</time></trkpt>
<trkpt lat="46.21737" lon="7.46006"><ele></ele><time>2025-9-12T4:54:57Z</time></trkpt>
<trkpt lat="46.21735" lon="7.46004"><ele></ele><time>2025-9-12T4:55:0Z</time></trkpt>
<trkpt lat="46.21734" lon="7.46002"><ele></ele><time>2025-9-12T4:55:3Z</time></trkpt>
<trkpt lat="46.21731" lon="7.45994"><ele></ele><time>2025-9-12T4:55:6Z</time></trkpt>
<trkpt lat="46.2173" lon="7.45988"><ele></ele><time>2025-9-12T4:55:9Z</time></trkpt>
<trkpt lat="46.21728" lon="7.45981"><ele></ele><time>2025-9-12T4:55:12Z</time></trkpt>
<trkpt lat="46.21728" lon="7.45979"><ele></ele><time>2025-9-12T4:55:15Z</time></trkpt>
<trkpt lat="46.21728" lon="7.4597"><ele></ele><time>2025-9-12T4:55:18Z</time></trkpt>
<trkpt lat="46.21728" lon="7.4597"><ele></ele><time>2025-9-12T4:55:21Z</time></trkpt>
<trkpt lat="46.21728" lon="7.45963"><ele></ele><time>2025-9-12T4:55:24Z</time></trkpt>
<trkpt lat="46.21728" lon="7.45962"><ele></ele><time>2025-9-12T4:55:27Z</time></trkpt>
<trkpt lat="46.21729" lon="7.45956"><ele></ele><time>2025-9-12T4:55:30Z</time></trkpt>
<trkpt lat="46.21729" lon="7.45954"><ele></ele><time>2025-9-12T4:55:33Z</time></trkpt>
<trkpt lat="46.21728" lon="7.45946"><ele></ele><time>2025-9-12T4:55:36Z</time></trkpt>
<trkpt lat="46.21729" lon="7.45944"><ele></ele><time>2025-9-12T4:55:39Z</time></trkpt>
<trkpt lat="46.21729" lon="7.45937"><ele></ele><time>2025-9-12T4:55:42Z</time></trkpt>
<trkpt lat="46.21728" lon="7.45935"><ele></ele><time>2025-9-12T4:55:45Z</time></trkpt>
<trkpt lat="46.21727" lon="7.45929"><ele></ele><time>2025-9-12T4:55:48Z</time></trkpt>
<trkpt lat="46.21725" lon="7.45924"><ele></ele><time>2025-9-12T4:55:51Z</time></trkpt>
<trkpt lat="46.21724" lon="7.45923"><ele></ele><time>2025-9-12T4:55:54Z</time></trkpt>
<trkpt lat="46.21721" lon="7.45915"><ele></ele><time>2025-9-12T4:55:57Z</time></trkpt>
<trkpt lat="46.2172" lon="7.45913"><ele></ele><time>2025-9-12T4:56:0Z</time></trkpt>
<trkpt lat="46.21719" lon="7.45911"><ele></ele><time>2025-9-12T4:56:3Z</time></trkpt>
<trkpt lat="46.21716" lon="7.45905"><ele></ele><time>2025-9-12T4:56:6Z</time></trkpt>
<trkpt lat="46.21712" lon="7.45893"><ele></ele><time>2025-9-12T4:56:9Z</time></trkpt>
<trkpt lat="46.21711" lon="7.45892"><ele></ele><time>2025-9-12T4:56:12Z</time></trkpt>
<trkpt lat="46.21711" lon="7.45891"><ele></ele><time>2025-9-12T4:56:15Z</time></trkpt>
<trkpt lat="46.2171" lon="7.45887"><ele></ele><time>2025-9-12T4:56:18Z</time></trkpt>
<trkpt lat="46.21708" lon="7.45882"><ele></ele><time>2025-9-12T4:56:21Z</time></trkpt>
<trkpt lat="46.21706" lon="7.45879"><ele></ele><time>2025-9-12T4:56:24Z</time></trkpt>
<trkpt lat="46.21706" lon="7.45873"><ele></ele><time>2025-9-12T4:56:27Z</time></trkpt>
<trkpt lat="46.21704" lon="7.45869"><ele></ele><time>2025-9-12T4:56:30Z</time></trkpt>
<trkpt lat="46.21701" lon="7.45861"><ele></ele><time>2025-9-12T4:56:33Z</time></trkpt>
<trkpt lat="46.217" lon="7.45857"><ele></ele><time>2025-9-12T4:56:36Z</time></trkpt>
<trkpt lat="46.21699" lon="7.4585"><ele></ele><time>2025-9-12T4:56:39Z</time></trkpt>
<trkpt lat="46.21697" lon="7.45845"><ele></ele><time>2025-9-12T4:56:42Z</time></trkpt>
<trkpt lat="46.21695" lon="7.4584"><ele></ele><time>2025-9-12T4:56:45Z</time></trkpt>
<trkpt lat="46.21694" lon="7.45834"><ele></ele><time>2025-9-12T4:56:48Z</time></trkpt>
<trkpt lat="46.21693" lon="7.45832"><ele></ele><time>2025-9-12T4:56:51Z</time></trkpt>
<trkpt lat="46.21691" lon="7.45825"><ele></ele><time>2025-9-12T4:56:54Z</time></trkpt>
<trkpt lat="46.21691" lon="7.45824"><ele></ele><time>2025-9-12T4:56:57Z</time></trkpt>
<trkpt lat="46.21689" lon="7.45815"><ele></ele><time>2025-9-12T4:57:0Z</time></trkpt>
<trkpt lat="46.21687" lon="7.45809"><ele></ele><time>2025-9-12T4:57:3Z</time></trkpt>
<trkpt lat="46.21686" lon="7.45808"><ele></ele><time>2025-9-12T4:57:6Z</time></trkpt>
<trkpt lat="46.21685" lon="7.45806"><ele></ele><time>2025-9-12T4:57:9Z</time></trkpt>
<trkpt lat="46.21685" lon="7.45805"><ele></ele><time>2025-9-12T4:57:12Z</time></trkpt>
<trkpt lat="46.21682" lon="7.45794"><ele></ele><time>2025-9-12T4:57:15Z</time></trkpt>
<trkpt lat="46.21682" lon="7.45793"><ele></ele><time>2025-9-12T4:57:18Z</time></trkpt>
<trkpt lat="46.21682" lon="7.45786"><ele></ele><time>2025-9-12T4:57:21Z</time></trkpt>
<trkpt lat="46.21681" lon="7.4578"><ele></ele><time>2025-9-12T4:57:24Z</time></trkpt>
<trkpt lat="46.21681" lon="7.45778"><ele></ele><time>2025-9-12T4:57:27Z</time></trkpt>
<trkpt lat="46.21678" lon="7.45773"><ele></ele><time>2025-9-12T4:57:30Z</time></trkpt>
<trkpt lat="46.21677" lon="7.4577"><ele></ele><time>2025-9-12T4:57:33Z</time></trkpt>
<trkpt lat="46.21676" lon="7.45765"><ele></ele><time>2025-9-12T4:57:36Z</time></trkpt>
<trkpt lat="46.21677" lon="7.45761"><ele></ele><time>2025-9-12T4:57:39Z</time></trkpt>
<trkpt lat="46.21677" lon="7.4576"><ele></ele><time>2025-9-12T4:57:42Z</time></trkpt>
<trkpt lat="46.21676" lon="7.45756"><ele></ele><time>2025-9-12T4:57:45Z</time></trkpt>
<trkpt lat="46.21675" lon="7.45755"><ele></ele><time>2025-9-12T4:57:48Z</time></trkpt>
<trkpt lat="46.21672" lon="7.45749"><ele></ele><time>2025-9-12T4:57:51Z</time></trkpt>
<trkpt lat="46.21672" lon="7.45748"><ele></ele><time>2025-9-12T4:57:54Z</time></trkpt>
<trkpt lat="46.21673" lon="7.45742"><ele></ele><time>2025-9-12T4:57:57Z</time></trkpt>
<trkpt lat="46.21672" lon="7.4574"><ele></ele><time>2025-9-12T4:58:0Z</time></trkpt>
<trkpt lat="46.21671" lon="7.45735"><ele></ele><time>2025-9-12T4:58:3Z</time></trkpt>
<trkpt lat="46.2167" lon="7.45733"><ele></ele><time>2025-9-12T4:58:6Z</time></trkpt>
<trkpt lat="46.21667" lon="7.45728"><ele></ele><time>2025-9-12T4:58:9Z</time></trkpt>
<trkpt lat="46.21665" lon="7.45723"><ele></ele><time>2025-9-12T4:58:12Z</time></trkpt>
<trkpt lat="46.21662" lon="7.4572"><ele></ele><time>2025-9-12T4:58:15Z</time></trkpt>
<trkpt lat="46.21662" lon="7.45719"><ele></ele><time>2025-9-12T4:58:18Z</time></trkpt>
<trkpt lat="46.21659" lon="7.4571"><ele></ele><time>2025-9-12T4:58:21Z</time></trkpt>
<trkpt lat="46.21658" lon="7.45709"><ele></ele><time>2025-9-12T4:58:24Z</time></trkpt>
<trkpt lat="46.21654" lon="7.45704"><ele></ele><time>2025-9-12T4:58:27Z</time></trkpt>
<trkpt lat="46.21654" lon="7.45703"><ele></ele><time>2025-9-12T4:58:30Z</time></trkpt>
<trkpt lat="46.21651" lon="7.45698"><ele></ele><time>2025-9-12T4:58:33Z</time></trkpt>
<trkpt lat="46.21651" lon="7.45695"><ele></ele><time>2025-9-12T4:58:36Z</time></trkpt>
<trkpt lat="46.21649" lon="7.45687"><ele></ele><time>2025-9-12T4:58:39Z</time></trkpt>
<trkpt lat="46.21649" lon="7.45686"><ele></ele><time>2025-9-12T4:58:42Z</time></trkpt>
<trkpt lat="46.21649" lon="7.45682"><ele></ele><time>2025-9-12T4:58:45Z</time></trkpt>
<trkpt lat="46.21649" lon="7.45675"><ele></ele><time>2025-9-12T4:58:48Z</time></trkpt>
<trkpt lat="46.21648" lon="7.45666"><ele></ele><time>2025-9-12T4:58:51Z</time></trkpt>
<trkpt lat="46.21648" lon="7.45664"><ele></ele><time>2025-9-12T4:58:54Z</time></trkpt>
<trkpt lat="46.21646" lon="7.45654"><ele></ele><time>2025-9-12T4:58:57Z</time></trkpt>
<trkpt lat="46.21645" lon="7.45652"><ele></ele><time>2025-9-12T4:59:0Z</time></trkpt>
<trkpt lat="46.21643" lon="7.45643"><ele></ele><time>2025-9-12T4:59:3Z</time></trkpt>
<trkpt lat="46.21643" lon="7.45638"><ele></ele><time>2025-9-12T4:59:6Z</time></trkpt>
<trkpt lat="46.21642" lon="7.45629"><ele></ele><time>2025-9-12T4:59:9Z</time></trkpt>
<trkpt lat="46.21643" lon="7.45622"><ele></ele><time>2025-9-12T4:59:12Z</time></trkpt>
<trkpt lat="46.21643" lon="7.45618"><ele></ele><time>2025-9-12T4:59:15Z</time></trkpt>
<trkpt lat="46.21645" lon="7.45611"><ele></ele><time>2025-9-12T4:59:18Z</time></trkpt>
<trkpt lat="46.21646" lon="7.45609"><ele></ele><time>2025-9-12T4:59:21Z</time></trkpt>
<trkpt lat="46.21648" lon="7.45601"><ele></ele><time>2025-9-12T4:59:24Z</time></trkpt>
<trkpt lat="46.21649" lon="7.45599"><ele></ele><time>2025-9-12T4:59:27Z</time></trkpt>
<trkpt lat="46.21649" lon="7.45586"><ele></ele><time>2025-9-12T4:59:30Z</time></trkpt>
<trkpt lat="46.21644" lon="7.45575"><ele></ele><time>2025-9-12T4:59:33Z</time></trkpt>
<trkpt lat="46.21644" lon="7.45574"><ele></ele><time>2025-9-12T4:59:36Z</time></trkpt>
<trkpt lat="46.21643" lon="7.45571"><ele></ele><time>2025-9-12T4:59:39Z</time></trkpt>
<trkpt lat="46.21642" lon="7.45569"><ele></ele><time>2025-9-12T4:59:42Z</time></trkpt>
<trkpt lat="46.21641" lon="7.45567"><ele></ele><time>2025-9-12T4:59:45Z</time></trkpt>
<trkpt lat="46.21637" lon="7.45555"><ele></ele><time>2025-9-12T4:59:48Z</time></trkpt>
<trkpt lat="46.21633" lon="7.4555"><ele></ele><time>2025-9-12T4:59:51Z</time></trkpt>
<trkpt lat="46.21627" lon="7.45539"><ele></ele><time>2025-9-12T4:59:54Z</time></trkpt>
<trkpt lat="46.21623" lon="7.45523"><ele></ele><time>2025-9-12T4:59:57Z</time></trkpt>
<trkpt lat="46.21614" lon="7.45514"><ele></ele><time>2025-9-12T5:0:0Z</time></trkpt>
<trkpt lat="46.21609" lon="7.45512"><ele></ele><time>2025-9-12T5:0:3Z</time></trkpt>
<trkpt lat="46.21605" lon="7.45512"><ele></ele><time>2025-9-12T5:0:6Z</time></trkpt>
<trkpt lat="46.21594" lon="7.45508"><ele></ele><time>2025-9-12T5:0:9Z</time></trkpt>
<trkpt lat="46.21589" lon="7.45508"><ele></ele><time>2025-9-12T5:0:12Z</time></trkpt>
<trkpt lat="46.21583" lon="7.45508"><ele></ele><time>2025-9-12T5:0:15Z</time></trkpt>
<trkpt lat="46.21571" lon="7.45512"><ele></ele><time>2025-9-12T5:0:18Z</time></trkpt>
<trkpt lat="46.21564" lon="7.45513"><ele></ele><time>2025-9-12T5:0:21Z</time></trkpt>
<trkpt lat="46.21549" lon="7.45508"><ele></ele><time>2025-9-12T5:0:24Z</time></trkpt>
<trkpt lat="46.21537" lon="7.45493"><ele></ele><time>2025-9-12T5:0:27Z</time></trkpt>
<trkpt lat="46.21532" lon="7.45484"><ele></ele><time>2025-9-12T5:0:30Z</time></trkpt>
<trkpt lat="46.21526" lon="7.45476"><ele></ele><time>2025-9-12T5:0:33Z</time></trkpt>
<trkpt lat="46.21503" lon="7.45444"><ele></ele><time>2025-9-12T5:0:36Z</time></trkpt>
<trkpt lat="46.21497" lon="7.45438"><ele></ele><time>2025-9-12T5:0:39Z</time></trkpt>
<trkpt lat="46.21483" lon="7.45429"><ele></ele><time>2025-9-12T5:0:42Z</time></trkpt>
<trkpt lat="46.21476" lon="7.45427"><ele></ele><time>2025-9-12T5:0:45Z</time></trkpt>
<trkpt lat="46.21467" lon="7.45424"><ele></ele><time>2025-9-12T5:0:48Z</time></trkpt>
<trkpt lat="46.21459" lon="7.45421"><ele></ele><time>2025-9-12T5:0:51Z</time></trkpt>
<trkpt lat="46.21442" lon="7.45418"><ele></ele><time>2025-9-12T5:0:54Z</time></trkpt>
<trkpt lat="46.21433" lon="7.45418"><ele></ele><time>2025-9-12T5:0:57Z</time></trkpt>
<trkpt lat="46.21415" lon="7.45414"><ele></ele><time>2025-9-12T5:1:0Z</time></trkpt>
<trkpt lat="46.21398" lon="7.45407"><ele></ele><time>2025-9-12T5:1:3Z</time></trkpt>
<trkpt lat="46.2139" lon="7.45406"><ele></ele><time>2025-9-12T5:1:6Z</time></trkpt>
<trkpt lat="46.21382" lon="7.45408"><ele></ele><time>2025-9-12T5:1:9Z</time></trkpt>
<trkpt lat="46.21374" lon="7.45412"><ele></ele><time>2025-9-12T5:1:12Z</time></trkpt>
<trkpt lat="46.21367" lon="7.45418"><ele></ele><time>2025-9-12T5:1:15Z</time></trkpt>
<trkpt lat="46.21352" lon="7.45428"><ele></ele><time>2025-9-12T5:1:18Z</time></trkpt>
<trkpt lat="46.21343" lon="7.45431"><ele></ele><time>2025-9-12T5:1:21Z</time></trkpt>
<trkpt lat="46.21334" lon="7.45434"><ele></ele><time>2025-9-12T5:1:24Z</time></trkpt>
<trkpt lat="46.21325" lon="7.45435"><ele></ele><time>2025-9-12T5:1:27Z</time></trkpt>
<trkpt lat="46.21315" lon="7.45435"><ele></ele><time>2025-9-12T5:1:30Z</time></trkpt>
<trkpt lat="46.21306" lon="7.45438"><ele></ele><time>2025-9-12T5:1:33Z</time></trkpt>
<trkpt lat="46.21297" lon="7.45441"><ele></ele><time>2025-9-12T5:1:36Z</time></trkpt>
<trkpt lat="46.21278" lon="7.45448"><ele></ele><time>2025-9-12T5:1:39Z</time></trkpt>
<trkpt lat="46.21269" lon="7.45449"><ele></ele><time>2025-9-12T5:1:42Z</time></trkpt>
<trkpt lat="46.2126" lon="7.45447"><ele></ele><time>2025-9-12T5:1:45Z</time></trkpt>
<trkpt lat="46.21253" lon="7.45444"><ele></ele><time>2025-9-12T5:1:48Z</time></trkpt>
<trkpt lat="46.21247" lon="7.45439"><ele></ele><time>2025-9-12T5:1:51Z</time></trkpt>
<trkpt lat="46.21241" lon="7.4543"><ele></ele><time>2025-9-12T5:1:54Z</time></trkpt>
<trkpt lat="46.21238" lon="7.45426"><ele></ele><time>2025-9-12T5:1:57Z</time></trkpt>
<trkpt lat="46.21233" lon="7.45422"><ele></ele><time>2025-9-12T5:2:0Z</time></trkpt>
<trkpt lat="46.21231" lon="7.45422"><ele></ele><time>2025-9-12T5:2:3Z</time></trkpt>
<trkpt lat="46.21231" lon="7.45422"><ele></ele><time>2025-9-12T5:2:6Z</time></trkpt>
<trkpt lat="46.21231" lon="7.45422"><ele></ele><time>2025-9-12T5:2:9Z</time></trkpt>
<trkpt lat="46.21231" lon="7.45422"><ele></ele><time>2025-9-12T5:2:12Z</time></trkpt>
<trkpt lat="46.21231" lon="7.45422"><ele></ele><time>2025-9-12T5:2:15Z</time></trkpt>
<trkpt lat="46.21231" lon="7.45422"><ele></ele><time>2025-9-12T5:2:18Z</time></trkpt>
<trkpt lat="46.21231" lon="7.45422"><ele></ele><time>2025-9-12T5:2:21Z</time></trkpt>
<trkpt lat="46.21231" lon="7.45422"><ele></ele><time>2025-9-12T5:2:24Z</time></trkpt>
<trkpt lat="46.21231" lon="7.45421"><ele></ele><time>2025-9-12T5:2:27Z</time></trkpt>
<trkpt lat="46.21231" lon="7.45422"><ele></ele><time>2025-9-12T5:2:30Z</time></trkpt>
<trkpt lat="46.21231" lon="7.45422"><ele></ele><time>2025-9-12T5:2:33Z</time></trkpt>
<trkpt lat="46.21231" lon="7.45422"><ele></ele><time>2025-9-12T5:2:36Z</time></trkpt>
<trkpt lat="46.21231" lon="7.45422"><ele></ele><time>2025-9-12T5:2:39Z</time></trkpt>
<trkpt lat="46.21231" lon="7.45422"><ele></ele><time>2025-9-12T5:2:42Z</time></trkpt>
<trkpt lat="46.21231" lon="7.45422"><ele></ele><time>2025-9-12T5:2:45Z</time></trkpt>
<trkpt lat="46.21231" lon="7.45422"><ele></ele><time>2025-9-12T5:2:48Z</time></trkpt>
<trkpt lat="46.21231" lon="7.45422"><ele></ele><time>2025-9-12T5:2:51Z</time></trkpt>
<trkpt lat="46.21231" lon="7.45422"><ele></ele><time>2025-9-12T5:2:54Z</time></trkpt>
<trkpt lat="46.21229" lon="7.45425"><ele></ele><time>2025-9-12T5:2:57Z</time></trkpt>
<trkpt lat="46.2122" lon="7.45427"><ele></ele><time>2025-9-12T5:3:0Z</time></trkpt>
<trkpt lat="46.21202" lon="7.45427"><ele></ele><time>2025-9-12T5:3:3Z</time></trkpt>
<trkpt lat="46.21192" lon="7.45427"><ele></ele><time>2025-9-12T5:3:6Z</time></trkpt>
<trkpt lat="46.21187" lon="7.45426"><ele></ele><time>2025-9-12T5:3:9Z</time></trkpt>
<trkpt lat="46.21175" lon="7.45423"><ele></ele><time>2025-9-12T5:3:12Z</time></trkpt>
<trkpt lat="46.21168" lon="7.4542"><ele></ele><time>2025-9-12T5:3:15Z</time></trkpt>
<trkpt lat="46.21154" lon="7.45416"><ele></ele><time>2025-9-12T5:3:18Z</time></trkpt>
<trkpt lat="46.2114" lon="7.45414"><ele></ele><time>2025-9-12T5:3:21Z</time></trkpt>
<trkpt lat="46.2112" lon="7.45406"><ele></ele><time>2025-9-12T5:3:24Z</time></trkpt>
<trkpt lat="46.21105" lon="7.45403"><ele></ele><time>2025-9-12T5:3:27Z</time></trkpt>
<trkpt lat="46.21098" lon="7.45404"><ele></ele><time>2025-9-12T5:3:30Z</time></trkpt>
<trkpt lat="46.21081" lon="7.45407"><ele></ele><time>2025-9-12T5:3:33Z</time></trkpt>
<trkpt lat="46.21065" lon="7.45411"><ele></ele><time>2025-9-12T5:3:36Z</time></trkpt>
<trkpt lat="46.21048" lon="7.45414"><ele></ele><time>2025-9-12T5:3:39Z</time></trkpt>
<trkpt lat="46.2104" lon="7.45417"><ele></ele><time>2025-9-12T5:3:42Z</time></trkpt>
<trkpt lat="46.21014" lon="7.45421"><ele></ele><time>2025-9-12T5:3:45Z</time></trkpt>
<trkpt lat="46.20998" lon="7.45422"><ele></ele><time>2025-9-12T5:3:48Z</time></trkpt>
<trkpt lat="46.2099" lon="7.4542"><ele></ele><time>2025-9-12T5:3:51Z</time></trkpt>
<trkpt lat="46.20983" lon="7.45415"><ele></ele><time>2025-9-12T5:3:54Z</time></trkpt>
<trkpt lat="46.20977" lon="7.45408"><ele></ele><time>2025-9-12T5:3:57Z</time></trkpt>
<trkpt lat="46.20964" lon="7.45391"><ele></ele><time>2025-9-12T5:4:0Z</time></trkpt>
<trkpt lat="46.20949" lon="7.45382"><ele></ele><time>2025-9-12T5:4:3Z</time></trkpt>
<trkpt lat="46.20935" lon="7.4538"><ele></ele><time>2025-9-12T5:4:6Z</time></trkpt>
<trkpt lat="46.20928" lon="7.45382"><ele></ele><time>2025-9-12T5:4:9Z</time></trkpt>
<trkpt lat="46.20921" lon="7.45385"><ele></ele><time>2025-9-12T5:4:12Z</time></trkpt>
<trkpt lat="46.20907" lon="7.45394"><ele></ele><time>2025-9-12T5:4:15Z</time></trkpt>
<trkpt lat="46.209" lon="7.45399"><ele></ele><time>2025-9-12T5:4:18Z</time></trkpt>
<trkpt lat="46.20883" lon="7.45408"><ele></ele><time>2025-9-12T5:4:21Z</time></trkpt>
<trkpt lat="46.20873" lon="7.45409"><ele></ele><time>2025-9-12T5:4:24Z</time></trkpt>
<trkpt lat="46.20864" lon="7.45407"><ele></ele><time>2025-9-12T5:4:27Z</time></trkpt>
<trkpt lat="46.20855" lon="7.45405"><ele></ele><time>2025-9-12T5:4:30Z</time></trkpt>
<trkpt lat="46.20846" lon="7.45404"><ele></ele><time>2025-9-12T5:4:33Z</time></trkpt>
<trkpt lat="46.20836" lon="7.45404"><ele></ele><time>2025-9-12T5:4:36Z</time></trkpt>
<trkpt lat="46.20827" lon="7.45408"><ele></ele><time>2025-9-12T5:4:39Z</time></trkpt>
<trkpt lat="46.20818" lon="7.4541"><ele></ele><time>2025-9-12T5:4:42Z</time></trkpt>
<trkpt lat="46.2081" lon="7.45409"><ele></ele><time>2025-9-12T5:4:45Z</time></trkpt>
<trkpt lat="46.20802" lon="7.45406"><ele></ele><time>2025-9-12T5:4:48Z</time></trkpt>
<trkpt lat="46.20797" lon="7.45399"><ele></ele><time>2025-9-12T5:4:51Z</time></trkpt>
<trkpt lat="46.20794" lon="7.45378"><ele></ele><time>2025-9-12T5:4:54Z</time></trkpt>
<trkpt lat="46.20789" lon="7.45359"><ele></ele><time>2025-9-12T5:4:57Z</time></trkpt>
<trkpt lat="46.20784" lon="7.45352"><ele></ele><time>2025-9-12T5:5:0Z</time></trkpt>
<trkpt lat="46.20777" lon="7.45349"><ele></ele><time>2025-9-12T5:5:3Z</time></trkpt>
<trkpt lat="46.20769" lon="7.45348"><ele></ele><time>2025-9-12T5:5:6Z</time></trkpt>
<trkpt lat="46.20761" lon="7.45347"><ele></ele><time>2025-9-12T5:5:9Z</time></trkpt>
<trkpt lat="46.20753" lon="7.45345"><ele></ele><time>2025-9-12T5:5:12Z</time></trkpt>
<trkpt lat="46.20737" lon="7.4534"><ele></ele><time>2025-9-12T5:5:15Z</time></trkpt>
<trkpt lat="46.20721" lon="7.45334"><ele></ele><time>2025-9-12T5:5:18Z</time></trkpt>
<trkpt lat="46.20713" lon="7.4533"><ele></ele><time>2025-9-12T5:5:21Z</time></trkpt>
<trkpt lat="46.20697" lon="7.4532"><ele></ele><time>2025-9-12T5:5:24Z</time></trkpt>
<trkpt lat="46.20687" lon="7.45317"><ele></ele><time>2025-9-12T5:5:27Z</time></trkpt>
<trkpt lat="46.20678" lon="7.45316"><ele></ele><time>2025-9-12T5:5:30Z</time></trkpt>
<trkpt lat="46.20658" lon="7.45313"><ele></ele><time>2025-9-12T5:5:33Z</time></trkpt>
<trkpt lat="46.20639" lon="7.45313"><ele></ele><time>2025-9-12T5:5:36Z</time></trkpt>
<trkpt lat="46.20629" lon="7.45313"><ele></ele><time>2025-9-12T5:5:39Z</time></trkpt>
<trkpt lat="46.20619" lon="7.45316"><ele></ele><time>2025-9-12T5:5:42Z</time></trkpt>
<trkpt lat="46.20599" lon="7.45319"><ele></ele><time>2025-9-12T5:5:45Z</time></trkpt>
<trkpt lat="46.20589" lon="7.45319"><ele></ele><time>2025-9-12T5:5:48Z</time></trkpt>
<trkpt lat="46.2058" lon="7.45318"><ele></ele><time>2025-9-12T5:5:51Z</time></trkpt>
<trkpt lat="46.2056" lon="7.45316"><ele></ele><time>2025-9-12T5:5:54Z</time></trkpt>
<trkpt lat="46.2054" lon="7.45311"><ele></ele><time>2025-9-12T5:5:57Z</time></trkpt>
<trkpt lat="46.2053" lon="7.4531"><ele></ele><time>2025-9-12T5:6:0Z</time></trkpt>
<trkpt lat="46.20509" lon="7.45312"><ele></ele><time>2025-9-12T5:6:3Z</time></trkpt>
<trkpt lat="46.20488" lon="7.45316"><ele></ele><time>2025-9-12T5:6:6Z</time></trkpt>
<trkpt lat="46.20479" lon="7.45315"><ele></ele><time>2025-9-12T5:6:9Z</time></trkpt>
<trkpt lat="46.20463" lon="7.45303"><ele></ele><time>2025-9-12T5:6:12Z</time></trkpt>
<trkpt lat="46.20449" lon="7.45283"><ele></ele><time>2025-9-12T5:6:15Z</time></trkpt>
<trkpt lat="46.20436" lon="7.45262"><ele></ele><time>2025-9-12T5:6:18Z</time></trkpt>
<trkpt lat="46.20422" lon="7.45241"><ele></ele><time>2025-9-12T5:6:21Z</time></trkpt>
<trkpt lat="46.20408" lon="7.45223"><ele></ele><time>2025-9-12T5:6:24Z</time></trkpt>
<trkpt lat="46.20393" lon="7.45219"><ele></ele><time>2025-9-12T5:6:27Z</time></trkpt>
<trkpt lat="46.20385" lon="7.45221"><ele></ele><time>2025-9-12T5:6:30Z</time></trkpt>
<trkpt lat="46.20378" lon="7.45222"><ele></ele><time>2025-9-12T5:6:33Z</time></trkpt>
<trkpt lat="46.20371" lon="7.4522"><ele></ele><time>2025-9-12T5:6:36Z</time></trkpt>
<trkpt lat="46.20367" lon="7.45216"><ele></ele><time>2025-9-12T5:6:39Z</time></trkpt>
<trkpt lat="46.20365" lon="7.4521"><ele></ele><time>2025-9-12T5:6:42Z</time></trkpt>
<trkpt lat="46.20366" lon="7.45204"><ele></ele><time>2025-9-12T5:6:45Z</time></trkpt>
<trkpt lat="46.20373" lon="7.45196"><ele></ele><time>2025-9-12T5:6:48Z</time></trkpt>
<trkpt lat="46.20377" lon="7.45194"><ele></ele><time>2025-9-12T5:6:51Z</time></trkpt>
<trkpt lat="46.20383" lon="7.45192"><ele></ele><time>2025-9-12T5:6:54Z</time></trkpt>
<trkpt lat="46.20387" lon="7.45193"><ele></ele><time>2025-9-12T5:6:57Z</time></trkpt>
<trkpt lat="46.20399" lon="7.45191"><ele></ele><time>2025-9-12T5:7:0Z</time></trkpt>
<trkpt lat="46.2041" lon="7.45189"><ele></ele><time>2025-9-12T5:7:3Z</time></trkpt>
<trkpt lat="46.20421" lon="7.45186"><ele></ele><time>2025-9-12T5:7:6Z</time></trkpt>
<trkpt lat="46.20439" lon="7.45181"><ele></ele><time>2025-9-12T5:7:9Z</time></trkpt>
<trkpt lat="46.20445" lon="7.45181"><ele></ele><time>2025-9-12T5:7:12Z</time></trkpt>
<trkpt lat="46.20451" lon="7.45181"><ele></ele><time>2025-9-12T5:7:15Z</time></trkpt>
<trkpt lat="46.20471" lon="7.45177"><ele></ele><time>2025-9-12T5:7:18Z</time></trkpt>
<trkpt lat="46.20478" lon="7.45176"><ele></ele><time>2025-9-12T5:7:21Z</time></trkpt>
<trkpt lat="46.20486" lon="7.45176"><ele></ele><time>2025-9-12T5:7:24Z</time></trkpt>
<trkpt lat="46.20494" lon="7.45177"><ele></ele><time>2025-9-12T5:7:27Z</time></trkpt>
<trkpt lat="46.20502" lon="7.45179"><ele></ele><time>2025-9-12T5:7:30Z</time></trkpt>
<trkpt lat="46.2051" lon="7.45181"><ele></ele><time>2025-9-12T5:7:33Z</time></trkpt>
<trkpt lat="46.20519" lon="7.45182"><ele></ele><time>2025-9-12T5:7:36Z</time></trkpt>
<trkpt lat="46.20539" lon="7.45184"><ele></ele><time>2025-9-12T5:7:39Z</time></trkpt>
<trkpt lat="46.20559" lon="7.45188"><ele></ele><time>2025-9-12T5:7:42Z</time></trkpt>
<trkpt lat="46.20578" lon="7.45194"><ele></ele><time>2025-9-12T5:7:45Z</time></trkpt>
<trkpt lat="46.20588" lon="7.45195"><ele></ele><time>2025-9-12T5:7:48Z</time></trkpt>
<trkpt lat="46.20599" lon="7.45193"><ele></ele><time>2025-9-12T5:7:51Z</time></trkpt>
<trkpt lat="46.20609" lon="7.45191"><ele></ele><time>2025-9-12T5:7:54Z</time></trkpt>
<trkpt lat="46.20627" lon="7.45186"><ele></ele><time>2025-9-12T5:7:57Z</time></trkpt>
<trkpt lat="46.20639" lon="7.45181"><ele></ele><time>2025-9-12T5:8:0Z</time></trkpt>
<trkpt lat="46.20643" lon="7.45179"><ele></ele><time>2025-9-12T5:8:3Z</time></trkpt>
<trkpt lat="46.20647" lon="7.45176"><ele></ele><time>2025-9-12T5:8:6Z</time></trkpt>
<trkpt lat="46.20666" lon="7.45164"><ele></ele><time>2025-9-12T5:8:9Z</time></trkpt>
<trkpt lat="46.2067" lon="7.45161"><ele></ele><time>2025-9-12T5:8:12Z</time></trkpt>
<trkpt lat="46.20675" lon="7.45159"><ele></ele><time>2025-9-12T5:8:15Z</time></trkpt>
<trkpt lat="46.20685" lon="7.45155"><ele></ele><time>2025-9-12T5:8:18Z</time></trkpt>
<trkpt lat="46.20696" lon="7.45152"><ele></ele><time>2025-9-12T5:8:21Z</time></trkpt>
<trkpt lat="46.20702" lon="7.45151"><ele></ele><time>2025-9-12T5:8:24Z</time></trkpt>
<trkpt lat="46.20715" lon="7.45148"><ele></ele><time>2025-9-12T5:8:27Z</time></trkpt>
<trkpt lat="46.20736" lon="7.45147"><ele></ele><time>2025-9-12T5:8:30Z</time></trkpt>
<trkpt lat="46.20759" lon="7.45145"><ele></ele><time>2025-9-12T5:8:33Z</time></trkpt>
<trkpt lat="46.20768" lon="7.45144"><ele></ele><time>2025-9-12T5:8:36Z</time></trkpt>
<trkpt lat="46.20784" lon="7.45145"><ele></ele><time>2025-9-12T5:8:39Z</time></trkpt>
<trkpt lat="46.208" lon="7.45147"><ele></ele><time>2025-9-12T5:8:42Z</time></trkpt>
<trkpt lat="46.20814" lon="7.45151"><ele></ele><time>2025-9-12T5:8:45Z</time></trkpt>
<trkpt lat="46.20821" lon="7.45153"><ele></ele><time>2025-9-12T5:8:48Z</time></trkpt>
<trkpt lat="46.20827" lon="7.45153"><ele></ele><time>2025-9-12T5:8:51Z</time></trkpt>
<trkpt lat="46.2084" lon="7.45151"><ele></ele><time>2025-9-12T5:8:54Z</time></trkpt>
<trkpt lat="46.20845" lon="7.45149"><ele></ele><time>2025-9-12T5:8:57Z</time></trkpt>
<trkpt lat="46.20854" lon="7.45143"><ele></ele><time>2025-9-12T5:9:0Z</time></trkpt>
<trkpt lat="46.20855" lon="7.45142"><ele></ele><time>2025-9-12T5:9:3Z</time></trkpt>
<trkpt lat="46.20856" lon="7.45142"><ele></ele><time>2025-9-12T5:9:6Z</time></trkpt>
<trkpt lat="46.20856" lon="7.45142"><ele></ele><time>2025-9-12T5:9:9Z</time></trkpt>
<trkpt lat="46.20856" lon="7.45142"><ele></ele><time>2025-9-12T5:9:12Z</time></trkpt>
<trkpt lat="46.20856" lon="7.45141"><ele></ele><time>2025-9-12T5:9:15Z</time></trkpt>
<trkpt lat="46.20856" lon="7.45141"><ele></ele><time>2025-9-12T5:9:18Z</time></trkpt>
<trkpt lat="46.20856" lon="7.4514"><ele></ele><time>2025-9-12T5:9:21Z</time></trkpt>
<trkpt lat="46.20855" lon="7.45139"><ele></ele><time>2025-9-12T5:9:24Z</time></trkpt>
<trkpt lat="46.20855" lon="7.45139"><ele></ele><time>2025-9-12T5:9:27Z</time></trkpt>
<trkpt lat="46.20855" lon="7.4514"><ele></ele><time>2025-9-12T5:9:30Z</time></trkpt>
<trkpt lat="46.20858" lon="7.45141"><ele></ele><time>2025-9-12T5:9:33Z</time></trkpt>
<trkpt lat="46.20865" lon="7.45144"><ele></ele><time>2025-9-12T5:9:36Z</time></trkpt>
<trkpt lat="46.20872" lon="7.45146"><ele></ele><time>2025-9-12T5:9:39Z</time></trkpt>
<trkpt lat="46.20881" lon="7.45147"><ele></ele><time>2025-9-12T5:9:42Z</time></trkpt>
<trkpt lat="46.20886" lon="7.45148"><ele></ele><time>2025-9-12T5:9:45Z</time></trkpt>
<trkpt lat="46.20892" lon="7.45147"><ele></ele><time>2025-9-12T5:9:48Z</time></trkpt>
<trkpt lat="46.20898" lon="7.45147"><ele></ele><time>2025-9-12T5:9:51Z</time></trkpt>
<trkpt lat="46.20911" lon="7.45144"><ele></ele><time>2025-9-12T5:9:54Z</time></trkpt>
<trkpt lat="46.20924" lon="7.45142"><ele></ele><time>2025-9-12T5:9:57Z</time></trkpt>
<trkpt lat="46.20931" lon="7.45141"><ele></ele><time>2025-9-12T5:10:0Z</time></trkpt>
<trkpt lat="46.20945" lon="7.45138"><ele></ele><time>2025-9-12T5:10:3Z</time></trkpt>
<trkpt lat="46.20959" lon="7.45136"><ele></ele><time>2025-9-12T5:10:6Z</time></trkpt>
<trkpt lat="46.20975" lon="7.45133"><ele></ele><time>2025-9-12T5:10:9Z</time></trkpt>
<trkpt lat="46.20997" lon="7.45127"><ele></ele><time>2025-9-12T5:10:12Z</time></trkpt>
<trkpt lat="46.21003" lon="7.45126"><ele></ele><time>2025-9-12T5:10:15Z</time></trkpt>
<trkpt lat="46.21008" lon="7.45124"><ele></ele><time>2025-9-12T5:10:18Z</time></trkpt>
<trkpt lat="46.21033" lon="7.45111"><ele></ele><time>2025-9-12T5:10:21Z</time></trkpt>
<trkpt lat="46.2104" lon="7.45105"><ele></ele><time>2025-9-12T5:10:24Z</time></trkpt>
<trkpt lat="46.21047" lon="7.45099"><ele></ele><time>2025-9-12T5:10:27Z</time></trkpt>
<trkpt lat="46.21062" lon="7.45085"><ele></ele><time>2025-9-12T5:10:30Z</time></trkpt>
<trkpt lat="46.21077" lon="7.45071"><ele></ele><time>2025-9-12T5:10:33Z</time></trkpt>
<trkpt lat="46.21095" lon="7.4506"><ele></ele><time>2025-9-12T5:10:36Z</time></trkpt>
<trkpt lat="46.21104" lon="7.45054"><ele></ele><time>2025-9-12T5:10:39Z</time></trkpt>
<trkpt lat="46.21113" lon="7.45048"><ele></ele><time>2025-9-12T5:10:42Z</time></trkpt>
<trkpt lat="46.21131" lon="7.45033"><ele></ele><time>2025-9-12T5:10:45Z</time></trkpt>
<trkpt lat="46.2114" lon="7.45026"><ele></ele><time>2025-9-12T5:10:48Z</time></trkpt>
<trkpt lat="46.21149" lon="7.45019"><ele></ele><time>2025-9-12T5:10:51Z</time></trkpt>
<trkpt lat="46.21158" lon="7.45013"><ele></ele><time>2025-9-12T5:10:54Z</time></trkpt>
<trkpt lat="46.21186" lon="7.44999"><ele></ele><time>2025-9-12T5:10:57Z</time></trkpt>
<trkpt lat="46.21196" lon="7.44994"><ele></ele><time>2025-9-12T5:11:0Z</time></trkpt>
<trkpt lat="46.21206" lon="7.44988"><ele></ele><time>2025-9-12T5:11:3Z</time></trkpt>
<trkpt lat="46.21216" lon="7.44982"><ele></ele><time>2025-9-12T5:11:6Z</time></trkpt>
<trkpt lat="46.21235" lon="7.44968"><ele></ele><time>2025-9-12T5:11:9Z</time></trkpt>
<trkpt lat="46.21243" lon="7.44958"><ele></ele><time>2025-9-12T5:11:12Z</time></trkpt>
<trkpt lat="46.2125" lon="7.44949"><ele></ele><time>2025-9-12T5:11:15Z</time></trkpt>
<trkpt lat="46.21265" lon="7.4493"><ele></ele><time>2025-9-12T5:11:18Z</time></trkpt>
<trkpt lat="46.21279" lon="7.44914"><ele></ele><time>2025-9-12T5:11:21Z</time></trkpt>
<trkpt lat="46.21291" lon="7.44901"><ele></ele><time>2025-9-12T5:11:24Z</time></trkpt>
<trkpt lat="46.213" lon="7.4489"><ele></ele><time>2025-9-12T5:11:27Z</time></trkpt>
<trkpt lat="46.21307" lon="7.4488"><ele></ele><time>2025-9-12T5:11:30Z</time></trkpt>
<trkpt lat="46.21314" lon="7.44865"><ele></ele><time>2025-9-12T5:11:33Z</time></trkpt>
<trkpt lat="46.21317" lon="7.44857"><ele></ele><time>2025-9-12T5:11:36Z</time></trkpt>
<trkpt lat="46.21319" lon="7.44848"><ele></ele><time>2025-9-12T5:11:39Z</time></trkpt>
<trkpt lat="46.21325" lon="7.44829"><ele></ele><time>2025-9-12T5:11:42Z</time></trkpt>
<trkpt lat="46.21329" lon="7.44821"><ele></ele><time>2025-9-12T5:11:45Z</time></trkpt>
<trkpt lat="46.21334" lon="7.44814"><ele></ele><time>2025-9-12T5:11:48Z</time></trkpt>
<trkpt lat="46.21347" lon="7.44804"><ele></ele><time>2025-9-12T5:11:51Z</time></trkpt>
<trkpt lat="46.21363" lon="7.44792"><ele></ele><time>2025-9-12T5:11:54Z</time></trkpt>
<trkpt lat="46.21376" lon="7.4478"><ele></ele><time>2025-9-12T5:11:57Z</time></trkpt>
<trkpt lat="46.21388" lon="7.44765"><ele></ele><time>2025-9-12T5:12:0Z</time></trkpt>
<trkpt lat="46.21398" lon="7.44752"><ele></ele><time>2025-9-12T5:12:3Z</time></trkpt>
<trkpt lat="46.21402" lon="7.44746"><ele></ele><time>2025-9-12T5:12:6Z</time></trkpt>
<trkpt lat="46.21413" lon="7.44733"><ele></ele><time>2025-9-12T5:12:9Z</time></trkpt>
<trkpt lat="46.21424" lon="7.4472"><ele></ele><time>2025-9-12T5:12:12Z</time></trkpt>
<trkpt lat="46.21433" lon="7.44709"><ele></ele><time>2025-9-12T5:12:15Z</time></trkpt>
<trkpt lat="46.21446" lon="7.44695"><ele></ele><time>2025-9-12T5:12:18Z</time></trkpt>
<trkpt lat="46.21461" lon="7.44675"><ele></ele><time>2025-9-12T5:12:21Z</time></trkpt>
<trkpt lat="46.2147" lon="7.44658"><ele></ele><time>2025-9-12T5:12:24Z</time></trkpt>
<trkpt lat="46.21474" lon="7.44644"><ele></ele><time>2025-9-12T5:12:27Z</time></trkpt>
<trkpt lat="46.21475" lon="7.44637"><ele></ele><time>2025-9-12T5:12:30Z</time></trkpt>
<trkpt lat="46.21478" lon="7.4462"><ele></ele><time>2025-9-12T5:12:33Z</time></trkpt>
<trkpt lat="46.21481" lon="7.44601"><ele></ele><time>2025-9-12T5:12:36Z</time></trkpt>
<trkpt lat="46.21483" lon="7.44591"><ele></ele><time>2025-9-12T5:12:39Z</time></trkpt>
<trkpt lat="46.21486" lon="7.4458"><ele></ele><time>2025-9-12T5:12:42Z</time></trkpt>
<trkpt lat="46.21493" lon="7.44556"><ele></ele><time>2025-9-12T5:12:45Z</time></trkpt>
<trkpt lat="46.21497" lon="7.44544"><ele></ele><time>2025-9-12T5:12:48Z</time></trkpt>
<trkpt lat="46.21501" lon="7.44531"><ele></ele><time>2025-9-12T5:12:51Z</time></trkpt>
<trkpt lat="46.2151" lon="7.44505"><ele></ele><time>2025-9-12T5:12:54Z</time></trkpt>
<trkpt lat="46.21514" lon="7.44491"><ele></ele><time>2025-9-12T5:12:57Z</time></trkpt>
<trkpt lat="46.21517" lon="7.44476"><ele></ele><time>2025-9-12T5:13:0Z</time></trkpt>
<trkpt lat="46.2152" lon="7.4446"><ele></ele><time>2025-9-12T5:13:3Z</time></trkpt>
<trkpt lat="46.21522" lon="7.44444"><ele></ele><time>2025-9-12T5:13:6Z</time></trkpt>
<trkpt lat="46.21525" lon="7.44427"><ele></ele><time>2025-9-12T5:13:9Z</time></trkpt>
<trkpt lat="46.21527" lon="7.4441"><ele></ele><time>2025-9-12T5:13:12Z</time></trkpt>
<trkpt lat="46.21529" lon="7.44393"><ele></ele><time>2025-9-12T5:13:15Z</time></trkpt>
<trkpt lat="46.21531" lon="7.44375"><ele></ele><time>2025-9-12T5:13:18Z</time></trkpt>
<trkpt lat="46.21535" lon="7.44347"><ele></ele><time>2025-9-12T5:13:21Z</time></trkpt>
<trkpt lat="46.21537" lon="7.44336"><ele></ele><time>2025-9-12T5:13:24Z</time></trkpt>
<trkpt lat="46.21541" lon="7.44326"><ele></ele><time>2025-9-12T5:13:27Z</time></trkpt>
<trkpt lat="46.21546" lon="7.44318"><ele></ele><time>2025-9-12T5:13:30Z</time></trkpt>
<trkpt lat="46.21558" lon="7.44307"><ele></ele><time>2025-9-12T5:13:33Z</time></trkpt>
<trkpt lat="46.21564" lon="7.44304"><ele></ele><time>2025-9-12T5:13:36Z</time></trkpt>
<trkpt lat="46.21571" lon="7.44303"><ele></ele><time>2025-9-12T5:13:39Z</time></trkpt>
<trkpt lat="46.21578" lon="7.44304"><ele></ele><time>2025-9-12T5:13:42Z</time></trkpt>
<trkpt lat="46.21585" lon="7.44304"><ele></ele><time>2025-9-12T5:13:45Z</time></trkpt>
<trkpt lat="46.21591" lon="7.443"><ele></ele><time>2025-9-12T5:13:48Z</time></trkpt>
<trkpt lat="46.21595" lon="7.44295"><ele></ele><time>2025-9-12T5:13:51Z</time></trkpt>
<trkpt lat="46.21597" lon="7.44282"><ele></ele><time>2025-9-12T5:13:54Z</time></trkpt>
<trkpt lat="46.21587" lon="7.44275"><ele></ele><time>2025-9-12T5:13:57Z</time></trkpt>
<trkpt lat="46.21582" lon="7.44276"><ele></ele><time>2025-9-12T5:14:0Z</time></trkpt>
<trkpt lat="46.21576" lon="7.44278"><ele></ele><time>2025-9-12T5:14:3Z</time></trkpt>
<trkpt lat="46.21571" lon="7.44278"><ele></ele><time>2025-9-12T5:14:6Z</time></trkpt>
<trkpt lat="46.21565" lon="7.44281"><ele></ele><time>2025-9-12T5:14:9Z</time></trkpt>
<trkpt lat="46.21557" lon="7.44282"><ele></ele><time>2025-9-12T5:14:12Z</time></trkpt>
<trkpt lat="46.2155" lon="7.44286"><ele></ele><time>2025-9-12T5:14:15Z</time></trkpt>
<trkpt lat="46.21543" lon="7.44291"><ele></ele><time>2025-9-12T5:14:18Z</time></trkpt>
<trkpt lat="46.21525" lon="7.44309"><ele></ele><time>2025-9-12T5:14:21Z</time></trkpt>
<trkpt lat="46.21521" lon="7.44316"><ele></ele><time>2025-9-12T5:14:24Z</time></trkpt>
<trkpt lat="46.21517" lon="7.44324"><ele></ele><time>2025-9-12T5:14:27Z</time></trkpt>
<trkpt lat="46.21514" lon="7.44334"><ele></ele><time>2025-9-12T5:14:30Z</time></trkpt>
<trkpt lat="46.2151" lon="7.44343"><ele></ele><time>2025-9-12T5:14:33Z</time></trkpt>
<trkpt lat="46.21506" lon="7.44353"><ele></ele><time>2025-9-12T5:14:36Z</time></trkpt>
<trkpt lat="46.215" lon="7.44363"><ele></ele><time>2025-9-12T5:14:39Z</time></trkpt>
<trkpt lat="46.21493" lon="7.44371"><ele></ele><time>2025-9-12T5:14:42Z</time></trkpt>
<trkpt lat="46.21485" lon="7.44377"><ele></ele><time>2025-9-12T5:14:45Z</time></trkpt>
<trkpt lat="46.21476" lon="7.44381"><ele></ele><time>2025-9-12T5:14:48Z</time></trkpt>
<trkpt lat="46.21467" lon="7.44384"><ele></ele><time>2025-9-12T5:14:51Z</time></trkpt>
<trkpt lat="46.21457" lon="7.44387"><ele></ele><time>2025-9-12T5:14:54Z</time></trkpt>
<trkpt lat="46.21447" lon="7.44391"><ele></ele><time>2025-9-12T5:14:57Z</time></trkpt>
<trkpt lat="46.21429" lon="7.44406"><ele></ele><time>2025-9-12T5:15:0Z</time></trkpt>
<trkpt lat="46.21416" lon="7.44432"><ele></ele><time>2025-9-12T5:15:3Z</time></trkpt>
<trkpt lat="46.2141" lon="7.44447"><ele></ele><time>2025-9-12T5:15:6Z</time></trkpt>
<trkpt lat="46.21405" lon="7.44462"><ele></ele><time>2025-9-12T5:15:9Z</time></trkpt>
<trkpt lat="46.214" lon="7.44478"><ele></ele><time>2025-9-12T5:15:12Z</time></trkpt>
<trkpt lat="46.21386" lon="7.44506"><ele></ele><time>2025-9-12T5:15:15Z</time></trkpt>
<trkpt lat="46.21365" lon="7.44525"><ele></ele><time>2025-9-12T5:15:18Z</time></trkpt>
<trkpt lat="46.21353" lon="7.4453"><ele></ele><time>2025-9-12T5:15:21Z</time></trkpt>
<trkpt lat="46.2134" lon="7.44532"><ele></ele><time>2025-9-12T5:15:24Z</time></trkpt>
<trkpt lat="46.21328" lon="7.44531"><ele></ele><time>2025-9-12T5:15:27Z</time></trkpt>
<trkpt lat="46.21315" lon="7.4453"><ele></ele><time>2025-9-12T5:15:30Z</time></trkpt>
<trkpt lat="46.21302" lon="7.44531"><ele></ele><time>2025-9-12T5:15:33Z</time></trkpt>
<trkpt lat="46.2129" lon="7.44533"><ele></ele><time>2025-9-12T5:15:36Z</time></trkpt>
<trkpt lat="46.21278" lon="7.44537"><ele></ele><time>2025-9-12T5:15:39Z</time></trkpt>
<trkpt lat="46.21267" lon="7.44541"><ele></ele><time>2025-9-12T5:15:42Z</time></trkpt>
<trkpt lat="46.21256" lon="7.44544"><ele></ele><time>2025-9-12T5:15:45Z</time></trkpt>
<trkpt lat="46.21244" lon="7.44544"><ele></ele><time>2025-9-12T5:15:48Z</time></trkpt>
<trkpt lat="46.21233" lon="7.44539"><ele></ele><time>2025-9-12T5:15:51Z</time></trkpt>
<trkpt lat="46.21222" lon="7.44531"><ele></ele><time>2025-9-12T5:15:54Z</time></trkpt>
<trkpt lat="46.21212" lon="7.44524"><ele></ele><time>2025-9-12T5:15:57Z</time></trkpt>
<trkpt lat="46.21202" lon="7.44518"><ele></ele><time>2025-9-12T5:16:0Z</time></trkpt>
<trkpt lat="46.21192" lon="7.44514"><ele></ele><time>2025-9-12T5:16:3Z</time></trkpt>
<trkpt lat="46.21171" lon="7.4451"><ele></ele><time>2025-9-12T5:16:6Z</time></trkpt>
<trkpt lat="46.21161" lon="7.44511"><ele></ele><time>2025-9-12T5:16:9Z</time></trkpt>
<trkpt lat="46.2114" lon="7.44514"><ele></ele><time>2025-9-12T5:16:12Z</time></trkpt>
<trkpt lat="46.2113" lon="7.44516"><ele></ele><time>2025-9-12T5:16:15Z</time></trkpt>
<trkpt lat="46.21119" lon="7.44519"><ele></ele><time>2025-9-12T5:16:18Z</time></trkpt>
<trkpt lat="46.21096" lon="7.44528"><ele></ele><time>2025-9-12T5:16:21Z</time></trkpt>
<trkpt lat="46.21085" lon="7.44534"><ele></ele><time>2025-9-12T5:16:24Z</time></trkpt>
<trkpt lat="46.21074" lon="7.44541"><ele></ele><time>2025-9-12T5:16:27Z</time></trkpt>
<trkpt lat="46.21062" lon="7.44548"><ele></ele><time>2025-9-12T5:16:30Z</time></trkpt>
<trkpt lat="46.2105" lon="7.44555"><ele></ele><time>2025-9-12T5:16:33Z</time></trkpt>
<trkpt lat="46.21026" lon="7.44567"><ele></ele><time>2025-9-12T5:16:36Z</time></trkpt>
<trkpt lat="46.21014" lon="7.44574"><ele></ele><time>2025-9-12T5:16:39Z</time></trkpt>
<trkpt lat="46.21002" lon="7.44579"><ele></ele><time>2025-9-12T5:16:42Z</time></trkpt>
<trkpt lat="46.2099" lon="7.44585"><ele></ele><time>2025-9-12T5:16:45Z</time></trkpt>
<trkpt lat="46.20979" lon="7.4459"><ele></ele><time>2025-9-12T5:16:48Z</time></trkpt>
<trkpt lat="46.20958" lon="7.44603"><ele></ele><time>2025-9-12T5:16:51Z</time></trkpt>
<trkpt lat="46.20949" lon="7.44609"><ele></ele><time>2025-9-12T5:16:54Z</time></trkpt>
<trkpt lat="46.20939" lon="7.44613"><ele></ele><time>2025-9-12T5:16:57Z</time></trkpt>
<trkpt lat="46.20929" lon="7.44614"><ele></ele><time>2025-9-12T5:17:0Z</time></trkpt>
<trkpt lat="46.20919" lon="7.44611"><ele></ele><time>2025-9-12T5:17:3Z</time></trkpt>
<trkpt lat="46.20909" lon="7.44606"><ele></ele><time>2025-9-12T5:17:6Z</time></trkpt>
<trkpt lat="46.209" lon="7.446"><ele></ele><time>2025-9-12T5:17:9Z</time></trkpt>
<trkpt lat="46.2089" lon="7.44594"><ele></ele><time>2025-9-12T5:17:12Z</time></trkpt>
<trkpt lat="46.2088" lon="7.44586"><ele></ele><time>2025-9-12T5:17:15Z</time></trkpt>
<trkpt lat="46.2087" lon="7.44578"><ele></ele><time>2025-9-12T5:17:18Z</time></trkpt>
<trkpt lat="46.20849" lon="7.44563"><ele></ele><time>2025-9-12T5:17:21Z</time></trkpt>
<trkpt lat="46.20838" lon="7.44555"><ele></ele><time>2025-9-12T5:17:24Z</time></trkpt>
<trkpt lat="46.20827" lon="7.44547"><ele></ele><time>2025-9-12T5:17:27Z</time></trkpt>
<trkpt lat="46.20806" lon="7.44532"><ele></ele><time>2025-9-12T5:17:30Z</time></trkpt>
<trkpt lat="46.20795" lon="7.44524"><ele></ele><time>2025-9-12T5:17:33Z</time></trkpt>
<trkpt lat="46.20785" lon="7.44518"><ele></ele><time>2025-9-12T5:17:36Z</time></trkpt>
<trkpt lat="46.20774" lon="7.44511"><ele></ele><time>2025-9-12T5:17:39Z</time></trkpt>
<trkpt lat="46.20763" lon="7.44503"><ele></ele><time>2025-9-12T5:17:42Z</time></trkpt>
<trkpt lat="46.20753" lon="7.44493"><ele></ele><time>2025-9-12T5:17:45Z</time></trkpt>
<trkpt lat="46.20744" lon="7.44482"><ele></ele><time>2025-9-12T5:17:48Z</time></trkpt>
<trkpt lat="46.20736" lon="7.4447"><ele></ele><time>2025-9-12T5:17:51Z</time></trkpt>
<trkpt lat="46.20729" lon="7.44458"><ele></ele><time>2025-9-12T5:17:54Z</time></trkpt>
<trkpt lat="46.20723" lon="7.44445"><ele></ele><time>2025-9-12T5:17:57Z</time></trkpt>
<trkpt lat="46.20716" lon="7.44431"><ele></ele><time>2025-9-12T5:18:0Z</time></trkpt>
<trkpt lat="46.20709" lon="7.44419"><ele></ele><time>2025-9-12T5:18:3Z</time></trkpt>
<trkpt lat="46.20701" lon="7.44408"><ele></ele><time>2025-9-12T5:18:6Z</time></trkpt>
<trkpt lat="46.20693" lon="7.44397"><ele></ele><time>2025-9-12T5:18:9Z</time></trkpt>
<trkpt lat="46.20674" lon="7.44379"><ele></ele><time>2025-9-12T5:18:12Z</time></trkpt>
<trkpt lat="46.20664" lon="7.4437"><ele></ele><time>2025-9-12T5:18:15Z</time></trkpt>
<trkpt lat="46.20652" lon="7.44364"><ele></ele><time>2025-9-12T5:18:18Z</time></trkpt>
<trkpt lat="46.20642" lon="7.44357"><ele></ele><time>2025-9-12T5:18:21Z</time></trkpt>
<trkpt lat="46.20622" lon="7.44339"><ele></ele><time>2025-9-12T5:18:24Z</time></trkpt>
<trkpt lat="46.20613" lon="7.44329"><ele></ele><time>2025-9-12T5:18:27Z</time></trkpt>
<trkpt lat="46.20606" lon="7.44316"><ele></ele><time>2025-9-12T5:18:30Z</time></trkpt>
<trkpt lat="46.20599" lon="7.44303"><ele></ele><time>2025-9-12T5:18:33Z</time></trkpt>
<trkpt lat="46.20592" lon="7.44289"><ele></ele><time>2025-9-12T5:18:36Z</time></trkpt>
<trkpt lat="46.20587" lon="7.44274"><ele></ele><time>2025-9-12T5:18:39Z</time></trkpt>
<trkpt lat="46.20584" lon="7.44257"><ele></ele><time>2025-9-12T5:18:42Z</time></trkpt>
<trkpt lat="46.20582" lon="7.44242"><ele></ele><time>2025-9-12T5:18:45Z</time></trkpt>
<trkpt lat="46.20581" lon="7.44208"><ele></ele><time>2025-9-12T5:18:48Z</time></trkpt>
<trkpt lat="46.20579" lon="7.44192"><ele></ele><time>2025-9-12T5:18:51Z</time></trkpt>
<trkpt lat="46.20578" lon="7.44176"><ele></ele><time>2025-9-12T5:18:54Z</time></trkpt>
<trkpt lat="46.20576" lon="7.44161"><ele></ele><time>2025-9-12T5:18:57Z</time></trkpt>
<trkpt lat="46.20573" lon="7.44145"><ele></ele><time>2025-9-12T5:19:0Z</time></trkpt>
<trkpt lat="46.20568" lon="7.4413"><ele></ele><time>2025-9-12T5:19:3Z</time></trkpt>
<trkpt lat="46.20563" lon="7.44116"><ele></ele><time>2025-9-12T5:19:6Z</time></trkpt>
<trkpt lat="46.20556" lon="7.44103"><ele></ele><time>2025-9-12T5:19:9Z</time></trkpt>
<trkpt lat="46.20549" lon="7.44091"><ele></ele><time>2025-9-12T5:19:12Z</time></trkpt>
<trkpt lat="46.2054" lon="7.44081"><ele></ele><time>2025-9-12T5:19:15Z</time></trkpt>
<trkpt lat="46.20522" lon="7.44061"><ele></ele><time>2025-9-12T5:19:18Z</time></trkpt>
<trkpt lat="46.20501" lon="7.44041"><ele></ele><time>2025-9-12T5:19:21Z</time></trkpt>
<trkpt lat="46.20491" lon="7.4403"><ele></ele><time>2025-9-12T5:19:24Z</time></trkpt>
<trkpt lat="46.20481" lon="7.4402"><ele></ele><time>2025-9-12T5:19:27Z</time></trkpt>
<trkpt lat="46.20471" lon="7.4401"><ele></ele><time>2025-9-12T5:19:30Z</time></trkpt>
<trkpt lat="46.20462" lon="7.44"><ele></ele><time>2025-9-12T5:19:33Z</time></trkpt>
<trkpt lat="46.20453" lon="7.43993"><ele></ele><time>2025-9-12T5:19:36Z</time></trkpt>
<trkpt lat="46.20445" lon="7.43987"><ele></ele><time>2025-9-12T5:19:39Z</time></trkpt>
<trkpt lat="46.20439" lon="7.4398"><ele></ele><time>2025-9-12T5:19:42Z</time></trkpt>
<trkpt lat="46.20437" lon="7.43971"><ele></ele><time>2025-9-12T5:19:45Z</time></trkpt>
<trkpt lat="46.2044" lon="7.43964"><ele></ele><time>2025-9-12T5:19:48Z</time></trkpt>
<trkpt lat="46.20446" lon="7.43962"><ele></ele><time>2025-9-12T5:19:51Z</time></trkpt>
<trkpt lat="46.20457" lon="7.43967"><ele></ele><time>2025-9-12T5:19:54Z</time></trkpt>
<trkpt lat="46.20475" lon="7.43979"><ele></ele><time>2025-9-12T5:19:57Z</time></trkpt>
<trkpt lat="46.20495" lon="7.4399"><ele></ele><time>2025-9-12T5:20:0Z</time></trkpt>
<trkpt lat="46.20502" lon="7.43994"><ele></ele><time>2025-9-12T5:20:3Z</time></trkpt>
<trkpt lat="46.20517" lon="7.44002"><ele></ele><time>2025-9-12T5:20:6Z</time></trkpt>
<trkpt lat="46.20532" lon="7.44013"><ele></ele><time>2025-9-12T5:20:9Z</time></trkpt>
<trkpt lat="46.20539" lon="7.44018"><ele></ele><time>2025-9-12T5:20:12Z</time></trkpt>
<trkpt lat="46.20545" lon="7.44022"><ele></ele><time>2025-9-12T5:20:15Z</time></trkpt>
<trkpt lat="46.20557" lon="7.44029"><ele></ele><time>2025-9-12T5:20:18Z</time></trkpt>
<trkpt lat="46.20561" lon="7.44033"><ele></ele><time>2025-9-12T5:20:21Z</time></trkpt>
<trkpt lat="46.20566" lon="7.44036"><ele></ele><time>2025-9-12T5:20:24Z</time></trkpt>
<trkpt lat="46.20572" lon="7.44036"><ele></ele><time>2025-9-12T5:20:27Z</time></trkpt>
<trkpt lat="46.20574" lon="7.44034"><ele></ele><time>2025-9-12T5:20:30Z</time></trkpt>
<trkpt lat="46.20574" lon="7.44031"><ele></ele><time>2025-9-12T5:20:33Z</time></trkpt>
<trkpt lat="46.20572" lon="7.44023"><ele></ele><time>2025-9-12T5:20:36Z</time></trkpt>
<trkpt lat="46.20567" lon="7.44015"><ele></ele><time>2025-9-12T5:20:39Z</time></trkpt>
<trkpt lat="46.20566" lon="7.44011"><ele></ele><time>2025-9-12T5:20:42Z</time></trkpt>
<trkpt lat="46.20565" lon="7.44006"><ele></ele><time>2025-9-12T5:20:45Z</time></trkpt>
<trkpt lat="46.20564" lon="7.44002"><ele></ele><time>2025-9-12T5:20:48Z</time></trkpt>
<trkpt lat="46.20562" lon="7.43996"><ele></ele><time>2025-9-12T5:20:51Z</time></trkpt>
<trkpt lat="46.20561" lon="7.4399"><ele></ele><time>2025-9-12T5:20:54Z</time></trkpt>
<trkpt lat="46.20558" lon="7.43985"><ele></ele><time>2025-9-12T5:20:57Z</time></trkpt>
<trkpt lat="46.20557" lon="7.43983"><ele></ele><time>2025-9-12T5:21:0Z</time></trkpt>
<trkpt lat="46.20557" lon="7.43983"><ele></ele><time>2025-9-12T5:21:3Z</time></trkpt>
<trkpt lat="46.20556" lon="7.43982"><ele></ele><time>2025-9-12T5:21:6Z</time></trkpt>
<trkpt lat="46.20556" lon="7.4398"><ele></ele><time>2025-9-12T5:21:9Z</time></trkpt>
<trkpt lat="46.20556" lon="7.43979"><ele></ele><time>2025-9-12T5:21:12Z</time></trkpt>
<trkpt lat="46.20557" lon="7.43978"><ele></ele><time>2025-9-12T5:21:15Z</time></trkpt>
<trkpt lat="46.20561" lon="7.43975"><ele></ele><time>2025-9-12T5:21:18Z</time></trkpt>
<trkpt lat="46.20564" lon="7.43972"><ele></ele><time>2025-9-12T5:21:21Z</time></trkpt>
<trkpt lat="46.20568" lon="7.43968"><ele></ele><time>2025-9-12T5:21:24Z</time></trkpt>
<trkpt lat="46.2057" lon="7.43966"><ele></ele><time>2025-9-12T5:21:27Z</time></trkpt>
<trkpt lat="46.20572" lon="7.43964"><ele></ele><time>2025-9-12T5:21:30Z</time></trkpt>
<trkpt lat="46.20577" lon="7.43962"><ele></ele><time>2025-9-12T5:21:33Z</time></trkpt>
<trkpt lat="46.20582" lon="7.43961"><ele></ele><time>2025-9-12T5:21:36Z</time></trkpt>
<trkpt lat="46.20585" lon="7.43959"><ele></ele><time>2025-9-12T5:21:39Z</time></trkpt>
<trkpt lat="46.20588" lon="7.43958"><ele></ele><time>2025-9-12T5:21:42Z</time></trkpt>
<trkpt lat="46.20593" lon="7.43957"><ele></ele><time>2025-9-12T5:21:45Z</time></trkpt>
<trkpt lat="46.20597" lon="7.43955"><ele></ele><time>2025-9-12T5:21:48Z</time></trkpt>
<trkpt lat="46.20602" lon="7.43955"><ele></ele><time>2025-9-12T5:21:51Z</time></trkpt>
<trkpt lat="46.20606" lon="7.43954"><ele></ele><time>2025-9-12T5:21:54Z</time></trkpt>
<trkpt lat="46.2061" lon="7.43953"><ele></ele><time>2025-9-12T5:21:57Z</time></trkpt>
<trkpt lat="46.20615" lon="7.43953"><ele></ele><time>2025-9-12T5:22:0Z</time></trkpt>
<trkpt lat="46.20622" lon="7.43956"><ele></ele><time>2025-9-12T5:22:3Z</time></trkpt>
<trkpt lat="46.20622" lon="7.43958"><ele></ele><time>2025-9-12T5:22:6Z</time></trkpt>
<trkpt lat="46.20623" lon="7.4396"><ele></ele><time>2025-9-12T5:22:9Z</time></trkpt>
<trkpt lat="46.20624" lon="7.43962"><ele></ele><time>2025-9-12T5:22:12Z</time></trkpt>
<trkpt lat="46.20625" lon="7.43964"><ele></ele><time>2025-9-12T5:22:15Z</time></trkpt>
<trkpt lat="46.20633" lon="7.43972"><ele></ele><time>2025-9-12T5:22:18Z</time></trkpt>
<trkpt lat="46.20643" lon="7.43985"><ele></ele><time>2025-9-12T5:22:21Z</time></trkpt>
<trkpt lat="46.20643" lon="7.43988"><ele></ele><time>2025-9-12T5:22:24Z</time></trkpt>
<trkpt lat="46.2064" lon="7.43994"><ele></ele><time>2025-9-12T5:22:27Z</time></trkpt>
<trkpt lat="46.2064" lon="7.43995"><ele></ele><time>2025-9-12T5:22:30Z</time></trkpt>
<trkpt lat="46.2064" lon="7.43995"><ele></ele><time>2025-9-12T5:22:33Z</time></trkpt>
<trkpt lat="46.20639" lon="7.43996"><ele></ele><time>2025-9-12T5:22:36Z</time></trkpt>
<trkpt lat="46.20639" lon="7.43995"><ele></ele><time>2025-9-12T5:22:39Z</time></trkpt>
<trkpt lat="46.20639" lon="7.43993"><ele></ele><time>2025-9-12T5:22:42Z</time></trkpt>
<trkpt lat="46.20639" lon="7.43993"><ele></ele><time>2025-9-12T5:22:45Z</time></trkpt>
<trkpt lat="46.20639" lon="7.4399"><ele></ele><time>2025-9-12T5:22:48Z</time></trkpt>
<trkpt lat="46.2064" lon="7.43983"><ele></ele><time>2025-9-12T5:22:51Z</time></trkpt>
<trkpt lat="46.20639" lon="7.43981"><ele></ele><time>2025-9-12T5:22:54Z</time></trkpt>
<trkpt lat="46.20636" lon="7.43976"><ele></ele><time>2025-9-12T5:22:57Z</time></trkpt>
<trkpt lat="46.2063" lon="7.43969"><ele></ele><time>2025-9-12T5:23:0Z</time></trkpt>
<trkpt lat="46.20624" lon="7.43963"><ele></ele><time>2025-9-12T5:23:3Z</time></trkpt>
<trkpt lat="46.20622" lon="7.43958"><ele></ele><time>2025-9-12T5:23:6Z</time></trkpt>
<trkpt lat="46.20623" lon="7.43954"><ele></ele><time>2025-9-12T5:23:9Z</time></trkpt>
<trkpt lat="46.20624" lon="7.43954"><ele></ele><time>2025-9-12T5:23:12Z</time></trkpt>
<trkpt lat="46.20629" lon="7.43955"><ele></ele><time>2025-9-12T5:23:15Z</time></trkpt>
<trkpt lat="46.20632" lon="7.43956"><ele></ele><time>2025-9-12T5:23:18Z</time></trkpt>
<trkpt lat="46.20636" lon="7.43956"><ele></ele><time>2025-9-12T5:23:21Z</time></trkpt>
<trkpt lat="46.2064" lon="7.43958"><ele></ele><time>2025-9-12T5:23:24Z</time></trkpt>
<trkpt lat="46.20645" lon="7.4396"><ele></ele><time>2025-9-12T5:23:27Z</time></trkpt>
<trkpt lat="46.2065" lon="7.43962"><ele></ele><time>2025-9-12T5:23:30Z</time></trkpt>
<trkpt lat="46.20655" lon="7.43966"><ele></ele><time>2025-9-12T5:23:33Z</time></trkpt>
<trkpt lat="46.20658" lon="7.43968"><ele></ele><time>2025-9-12T5:23:36Z</time></trkpt>
<trkpt lat="46.20661" lon="7.4397"><ele></ele><time>2025-9-12T5:23:39Z</time></trkpt>
<trkpt lat="46.20666" lon="7.43973"><ele></ele><time>2025-9-12T5:23:42Z</time></trkpt>
<trkpt lat="46.20668" lon="7.43972"><ele></ele><time>2025-9-12T5:23:45Z</time></trkpt>
<trkpt lat="46.20668" lon="7.4396"><ele></ele><time>2025-9-12T5:23:48Z</time></trkpt>
<trkpt lat="46.20666" lon="7.43956"><ele></ele><time>2025-9-12T5:23:51Z</time></trkpt>
<trkpt lat="46.20666" lon="7.43957"><ele></ele><time>2025-9-12T5:23:54Z</time></trkpt>
<trkpt lat="46.20666" lon="7.43956"><ele></ele><time>2025-9-12T5:23:57Z</time></trkpt>
<trkpt lat="46.20668" lon="7.43956"><ele></ele><time>2025-9-12T5:24:0Z</time></trkpt>
<trkpt lat="46.20667" lon="7.43955"><ele></ele><time>2025-9-12T5:24:3Z</time></trkpt>
</trkseg></trk></gpx>